<?xml version="1.0" encoding="UTF-8" standalone="no" ?>
<gpx xmlns="http://www.topografix.com/GPX/1/1" xmlns:xsi="http://www.w3.org/2001/XMLSchema-instance" xsi:schemaLocation="http://www.topografix.com/GPX/1/1 http://www.topografix.com/GPX/1/1/gpx.xsd" version="1.1" creator="VisuGPX - https://www.visugpx.com">
  <metadata>
    <name>sortie vtt 1</name>
    <desc><![CDATA[sortie vtt du 14 septembre]]></desc>
  </metadata>
  <trk>
    <name><![CDATA[B.iCycle Track from 2010-09-14_17.47.00]]></name>
    <trkseg>
      <trkpt lat="45.24825" lon="1.12718">
        <ele>245.369598</ele>
        <time>2010-09-14T15:59:52.408Z</time>
      </trkpt>
      <trkpt lat="45.24804" lon="1.12682">
        <ele>245.369507</ele>
        <time>2010-09-14T16:00:02.914Z</time>
      </trkpt>
      <trkpt lat="45.24785" lon="1.12653">
        <ele>245.369431</ele>
        <time>2010-09-14T16:00:11.241Z</time>
      </trkpt>
      <trkpt lat="45.24763" lon="1.12626">
        <ele>247.36937</ele>
        <time>2010-09-14T16:00:24.426Z</time>
      </trkpt>
      <trkpt lat="45.24743" lon="1.12597">
        <ele>250.369293</ele>
        <time>2010-09-14T16:00:39.007Z</time>
      </trkpt>
      <trkpt lat="45.24723" lon="1.1254">
        <ele>259.369141</ele>
        <time>2010-09-14T16:01:06.260Z</time>
      </trkpt>
      <trkpt lat="45.24724" lon="1.12498">
        <ele>260.369049</ele>
        <time>2010-09-14T16:01:19.341Z</time>
      </trkpt>
      <trkpt lat="45.24727" lon="1.12473">
        <ele>260.368988</ele>
        <time>2010-09-14T16:01:31.293Z</time>
      </trkpt>
      <trkpt lat="45.24726" lon="1.12435">
        <ele>261.368896</ele>
        <time>2010-09-14T16:01:37.595Z</time>
      </trkpt>
      <trkpt lat="45.24725" lon="1.12407">
        <ele>263.368835</ele>
        <time>2010-09-14T16:01:43.870Z</time>
      </trkpt>
      <trkpt lat="45.24712" lon="1.12356">
        <ele>268.368683</ele>
        <time>2010-09-14T16:02:00.548Z</time>
      </trkpt>
      <trkpt lat="45.24702" lon="1.12323">
        <ele>269.368622</ele>
        <time>2010-09-14T16:02:08.979Z</time>
      </trkpt>
      <trkpt lat="45.24693" lon="1.12299">
        <ele>270.36853</ele>
        <time>2010-09-14T16:02:15.370Z</time>
      </trkpt>
      <trkpt lat="45.24682" lon="1.12274">
        <ele>270.3685</ele>
        <time>2010-09-14T16:02:24.051Z</time>
      </trkpt>
      <trkpt lat="45.24639" lon="1.12236">
        <ele>281.368408</ele>
        <time>2010-09-14T16:04:11.989Z</time>
      </trkpt>
      <trkpt lat="45.24624" lon="1.1225">
        <ele>283.368439</ele>
        <time>2010-09-14T16:04:19.801Z</time>
      </trkpt>
      <trkpt lat="45.24604" lon="1.1226">
        <ele>288.368469</ele>
        <time>2010-09-14T16:04:36.090Z</time>
      </trkpt>
      <trkpt lat="45.24585" lon="1.12267">
        <ele>285.368469</ele>
        <time>2010-09-14T16:05:01.921Z</time>
      </trkpt>
      <trkpt lat="45.24567" lon="1.12277">
        <ele>284.3685</ele>
        <time>2010-09-14T16:05:06.392Z</time>
      </trkpt>
      <trkpt lat="45.2455" lon="1.12285">
        <ele>283.36853</ele>
        <time>2010-09-14T16:05:10.886Z</time>
      </trkpt>
      <trkpt lat="45.24531" lon="1.12291">
        <ele>281.36853</ele>
        <time>2010-09-14T16:05:15.703Z</time>
      </trkpt>
      <trkpt lat="45.24512" lon="1.12299">
        <ele>280.368561</ele>
        <time>2010-09-14T16:05:20.716Z</time>
      </trkpt>
      <trkpt lat="45.24494" lon="1.12309">
        <ele>279.368591</ele>
        <time>2010-09-14T16:05:26.466Z</time>
      </trkpt>
      <trkpt lat="45.24475" lon="1.12317">
        <ele>279.368622</ele>
        <time>2010-09-14T16:05:31.476Z</time>
      </trkpt>
      <trkpt lat="45.24462" lon="1.12339">
        <ele>279.368683</ele>
        <time>2010-09-14T16:05:36.493Z</time>
      </trkpt>
      <trkpt lat="45.24455" lon="1.12365">
        <ele>281.368744</ele>
        <time>2010-09-14T16:05:40.743Z</time>
      </trkpt>
      <trkpt lat="45.24444" lon="1.1239">
        <ele>280.368805</ele>
        <time>2010-09-14T16:05:45.935Z</time>
      </trkpt>
      <trkpt lat="45.24428" lon="1.12401">
        <ele>280.368835</ele>
        <time>2010-09-14T16:05:51.875Z</time>
      </trkpt>
      <trkpt lat="45.24409" lon="1.12407">
        <ele>280.368835</ele>
        <time>2010-09-14T16:05:57.841Z</time>
      </trkpt>
      <trkpt lat="45.24391" lon="1.12417">
        <ele>279.368866</ele>
        <time>2010-09-14T16:06:02.378Z</time>
      </trkpt>
      <trkpt lat="45.24372" lon="1.12419">
        <ele>275.368896</ele>
        <time>2010-09-14T16:06:10.060Z</time>
      </trkpt>
      <trkpt lat="45.24354" lon="1.12426">
        <ele>276.368896</ele>
        <time>2010-09-14T16:06:19.627Z</time>
      </trkpt>
      <trkpt lat="45.24334" lon="1.12429">
        <ele>275.368896</ele>
        <time>2010-09-14T16:06:25.392Z</time>
      </trkpt>
      <trkpt lat="45.24316" lon="1.12434">
        <ele>275.368927</ele>
        <time>2010-09-14T16:06:28.562Z</time>
      </trkpt>
      <trkpt lat="45.24297" lon="1.12439">
        <ele>274.368927</ele>
        <time>2010-09-14T16:06:33.069Z</time>
      </trkpt>
      <trkpt lat="45.24279" lon="1.12443">
        <ele>275.368958</ele>
        <time>2010-09-14T16:06:37.530Z</time>
      </trkpt>
      <trkpt lat="45.2426" lon="1.12442">
        <ele>275.368958</ele>
        <time>2010-09-14T16:06:45.852Z</time>
      </trkpt>
      <trkpt lat="45.24242" lon="1.12438">
        <ele>276.368927</ele>
        <time>2010-09-14T16:06:54.174Z</time>
      </trkpt>
      <trkpt lat="45.24223" lon="1.12438">
        <ele>276.368927</ele>
        <time>2010-09-14T16:06:58.035Z</time>
      </trkpt>
      <trkpt lat="45.24205" lon="1.12444">
        <ele>275.368958</ele>
        <time>2010-09-14T16:07:01.238Z</time>
      </trkpt>
      <trkpt lat="45.24188" lon="1.12452">
        <ele>275.368988</ele>
        <time>2010-09-14T16:07:03.798Z</time>
      </trkpt>
      <trkpt lat="45.24168" lon="1.12462">
        <ele>274.369019</ele>
        <time>2010-09-14T16:07:06.359Z</time>
      </trkpt>
      <trkpt lat="45.24149" lon="1.12474">
        <ele>273.369049</ele>
        <time>2010-09-14T16:07:08.926Z</time>
      </trkpt>
      <trkpt lat="45.24127" lon="1.12485">
        <ele>272.36908</ele>
        <time>2010-09-14T16:07:11.490Z</time>
      </trkpt>
      <trkpt lat="45.24104" lon="1.12496">
        <ele>272.36908</ele>
        <time>2010-09-14T16:07:14.075Z</time>
      </trkpt>
      <trkpt lat="45.24081" lon="1.12505">
        <ele>272.36911</ele>
        <time>2010-09-14T16:07:16.595Z</time>
      </trkpt>
      <trkpt lat="45.24059" lon="1.12514">
        <ele>271.369141</ele>
        <time>2010-09-14T16:07:19.147Z</time>
      </trkpt>
      <trkpt lat="45.24037" lon="1.12521">
        <ele>270.369171</ele>
        <time>2010-09-14T16:07:21.710Z</time>
      </trkpt>
      <trkpt lat="45.24019" lon="1.1251">
        <ele>269.369141</ele>
        <time>2010-09-14T16:07:25.533Z</time>
      </trkpt>
      <trkpt lat="45.24019" lon="1.1247">
        <ele>270.369019</ele>
        <time>2010-09-14T16:08:58.748Z</time>
      </trkpt>
      <trkpt lat="45.24011" lon="1.12446">
        <ele>269.368988</ele>
        <time>2010-09-14T16:09:03.848Z</time>
      </trkpt>
      <trkpt lat="45.24001" lon="1.12423">
        <ele>268.368927</ele>
        <time>2010-09-14T16:09:08.978Z</time>
      </trkpt>
      <trkpt lat="45.2399" lon="1.12401">
        <ele>268.368866</ele>
        <time>2010-09-14T16:09:13.466Z</time>
      </trkpt>
      <trkpt lat="45.23979" lon="1.12379">
        <ele>268.368805</ele>
        <time>2010-09-14T16:09:17.914Z</time>
      </trkpt>
      <trkpt lat="45.2397" lon="1.12353">
        <ele>268.368744</ele>
        <time>2010-09-14T16:09:23.054Z</time>
      </trkpt>
      <trkpt lat="45.23965" lon="1.12329">
        <ele>268.368683</ele>
        <time>2010-09-14T16:09:27.563Z</time>
      </trkpt>
      <trkpt lat="45.23958" lon="1.12302">
        <ele>269.368622</ele>
        <time>2010-09-14T16:09:32.700Z</time>
      </trkpt>
      <trkpt lat="45.23952" lon="1.12278">
        <ele>270.368561</ele>
        <time>2010-09-14T16:09:37.825Z</time>
      </trkpt>
      <trkpt lat="45.23945" lon="1.12253">
        <ele>270.3685</ele>
        <time>2010-09-14T16:09:43.512Z</time>
      </trkpt>
      <trkpt lat="45.23934" lon="1.1223">
        <ele>269.368439</ele>
        <time>2010-09-14T16:09:50.639Z</time>
      </trkpt>
      <trkpt lat="45.23916" lon="1.12229">
        <ele>271.368439</ele>
        <time>2010-09-14T16:10:01.443Z</time>
      </trkpt>
      <trkpt lat="45.23897" lon="1.12225">
        <ele>273.368439</ele>
        <time>2010-09-14T16:10:11.536Z</time>
      </trkpt>
      <trkpt lat="45.23878" lon="1.12223">
        <ele>274.368439</ele>
        <time>2010-09-14T16:10:19.736Z</time>
      </trkpt>
      <trkpt lat="45.2386" lon="1.12222">
        <ele>274.368439</ele>
        <time>2010-09-14T16:10:26.223Z</time>
      </trkpt>
      <trkpt lat="45.23839" lon="1.12217">
        <ele>274.368408</ele>
        <time>2010-09-14T16:10:32.107Z</time>
      </trkpt>
      <trkpt lat="45.23821" lon="1.12212">
        <ele>273.368408</ele>
        <time>2010-09-14T16:10:35.797Z</time>
      </trkpt>
      <trkpt lat="45.23803" lon="1.12209">
        <ele>275.368408</ele>
        <time>2010-09-14T16:10:39.260Z</time>
      </trkpt>
      <trkpt lat="45.23783" lon="1.12209">
        <ele>276.368408</ele>
        <time>2010-09-14T16:10:42.914Z</time>
      </trkpt>
      <trkpt lat="45.23762" lon="1.12215">
        <ele>276.368408</ele>
        <time>2010-09-14T16:10:46.711Z</time>
      </trkpt>
      <trkpt lat="45.23743" lon="1.12222">
        <ele>276.368439</ele>
        <time>2010-09-14T16:10:50.545Z</time>
      </trkpt>
      <trkpt lat="45.23724" lon="1.12223">
        <ele>277.368439</ele>
        <time>2010-09-14T16:10:55.000Z</time>
      </trkpt>
      <trkpt lat="45.23723" lon="1.12195">
        <ele>278.368378</ele>
        <time>2010-09-14T16:10:59.501Z</time>
      </trkpt>
      <trkpt lat="45.23729" lon="1.1217">
        <ele>278.368317</ele>
        <time>2010-09-14T16:11:02.673Z</time>
      </trkpt>
      <trkpt lat="45.23728" lon="1.12138">
        <ele>277.368225</ele>
        <time>2010-09-14T16:11:05.908Z</time>
      </trkpt>
      <trkpt lat="45.23722" lon="1.12113">
        <ele>276.368164</ele>
        <time>2010-09-14T16:11:08.477Z</time>
      </trkpt>
      <trkpt lat="45.23722" lon="1.12078">
        <ele>276.368073</ele>
        <time>2010-09-14T16:11:11.981Z</time>
      </trkpt>
      <trkpt lat="45.23733" lon="1.12058">
        <ele>276.368042</ele>
        <time>2010-09-14T16:11:14.894Z</time>
      </trkpt>
      <trkpt lat="45.23742" lon="1.12031">
        <ele>276.36795</ele>
        <time>2010-09-14T16:11:18.515Z</time>
      </trkpt>
      <trkpt lat="45.23754" lon="1.12006">
        <ele>275.367889</ele>
        <time>2010-09-14T16:11:22.178Z</time>
      </trkpt>
      <trkpt lat="45.23753" lon="1.11975">
        <ele>273.367828</ele>
        <time>2010-09-14T16:11:25.752Z</time>
      </trkpt>
      <trkpt lat="45.23754" lon="1.11944">
        <ele>272.367737</ele>
        <time>2010-09-14T16:11:29.331Z</time>
      </trkpt>
      <trkpt lat="45.23753" lon="1.11915">
        <ele>270.367676</ele>
        <time>2010-09-14T16:11:32.762Z</time>
      </trkpt>
      <trkpt lat="45.23748" lon="1.1189">
        <ele>269.367615</ele>
        <time>2010-09-14T16:11:35.799Z</time>
      </trkpt>
      <trkpt lat="45.23741" lon="1.11866">
        <ele>268.367554</ele>
        <time>2010-09-14T16:11:38.019Z</time>
      </trkpt>
      <trkpt lat="45.23732" lon="1.11837">
        <ele>267.367493</ele>
        <time>2010-09-14T16:11:40.477Z</time>
      </trkpt>
      <trkpt lat="45.23721" lon="1.11804">
        <ele>265.367401</ele>
        <time>2010-09-14T16:11:43.014Z</time>
      </trkpt>
      <trkpt lat="45.23711" lon="1.11772">
        <ele>264.36731</ele>
        <time>2010-09-14T16:11:45.564Z</time>
      </trkpt>
      <trkpt lat="45.23702" lon="1.11744">
        <ele>263.367249</ele>
        <time>2010-09-14T16:11:48.130Z</time>
      </trkpt>
      <trkpt lat="45.23691" lon="1.11721">
        <ele>260.367188</ele>
        <time>2010-09-14T16:11:51.651Z</time>
      </trkpt>
      <trkpt lat="45.23672" lon="1.11727">
        <ele>259.367218</ele>
        <time>2010-09-14T16:11:55.227Z</time>
      </trkpt>
      <trkpt lat="45.23653" lon="1.11745">
        <ele>258.367249</ele>
        <time>2010-09-14T16:11:58.089Z</time>
      </trkpt>
      <trkpt lat="45.23635" lon="1.11762">
        <ele>256.36731</ele>
        <time>2010-09-14T16:12:01.001Z</time>
      </trkpt>
      <trkpt lat="45.23618" lon="1.11778">
        <ele>254.36734</ele>
        <time>2010-09-14T16:12:03.909Z</time>
      </trkpt>
      <trkpt lat="45.236" lon="1.11792">
        <ele>252.367371</ele>
        <time>2010-09-14T16:12:06.822Z</time>
      </trkpt>
      <trkpt lat="45.23582" lon="1.11801">
        <ele>250.367401</ele>
        <time>2010-09-14T16:12:09.710Z</time>
      </trkpt>
      <trkpt lat="45.2356" lon="1.11803">
        <ele>249.367401</ele>
        <time>2010-09-14T16:12:13.371Z</time>
      </trkpt>
      <trkpt lat="45.23541" lon="1.11799">
        <ele>248.367401</ele>
        <time>2010-09-14T16:12:16.278Z</time>
      </trkpt>
      <trkpt lat="45.23522" lon="1.11786">
        <ele>246.367371</ele>
        <time>2010-09-14T16:12:19.926Z</time>
      </trkpt>
      <trkpt lat="45.23507" lon="1.11767">
        <ele>246.367325</ele>
        <time>2010-09-14T16:12:22.861Z</time>
      </trkpt>
      <trkpt lat="45.23494" lon="1.11747">
        <ele>245.367279</ele>
        <time>2010-09-14T16:12:25.702Z</time>
      </trkpt>
      <trkpt lat="45.23481" lon="1.11729">
        <ele>246.367218</ele>
        <time>2010-09-14T16:12:28.585Z</time>
      </trkpt>
      <trkpt lat="45.23468" lon="1.11709">
        <ele>245.367172</ele>
        <time>2010-09-14T16:12:32.190Z</time>
      </trkpt>
      <trkpt lat="45.23454" lon="1.11688">
        <ele>245.367126</ele>
        <time>2010-09-14T16:12:36.561Z</time>
      </trkpt>
      <trkpt lat="45.23439" lon="1.11668">
        <ele>244.367065</ele>
        <time>2010-09-14T16:12:40.901Z</time>
      </trkpt>
      <trkpt lat="45.23426" lon="1.11649">
        <ele>243.367035</ele>
        <time>2010-09-14T16:12:45.287Z</time>
      </trkpt>
      <trkpt lat="45.23414" lon="1.1163">
        <ele>244.366989</ele>
        <time>2010-09-14T16:12:50.241Z</time>
      </trkpt>
      <trkpt lat="45.23399" lon="1.11615">
        <ele>244.366943</ele>
        <time>2010-09-14T16:12:56.811Z</time>
      </trkpt>
      <trkpt lat="45.23381" lon="1.11624">
        <ele>243.366974</ele>
        <time>2010-09-14T16:13:03.840Z</time>
      </trkpt>
      <trkpt lat="45.23366" lon="1.11641">
        <ele>240.36702</ele>
        <time>2010-09-14T16:13:10.680Z</time>
      </trkpt>
      <trkpt lat="45.23351" lon="1.11656">
        <ele>240.367065</ele>
        <time>2010-09-14T16:13:16.581Z</time>
      </trkpt>
      <trkpt lat="45.23334" lon="1.11671">
        <ele>239.367096</ele>
        <time>2010-09-14T16:13:22.524Z</time>
      </trkpt>
      <trkpt lat="45.23314" lon="1.11679">
        <ele>238.367126</ele>
        <time>2010-09-14T16:13:28.390Z</time>
      </trkpt>
      <trkpt lat="45.23296" lon="1.11692">
        <ele>238.367157</ele>
        <time>2010-09-14T16:13:33.588Z</time>
      </trkpt>
      <trkpt lat="45.23286" lon="1.11715">
        <ele>238.367218</ele>
        <time>2010-09-14T16:13:38.007Z</time>
      </trkpt>
      <trkpt lat="45.23274" lon="1.11735">
        <ele>241.367264</ele>
        <time>2010-09-14T16:13:42.472Z</time>
      </trkpt>
      <trkpt lat="45.23264" lon="1.11759">
        <ele>243.367325</ele>
        <time>2010-09-14T16:13:49.136Z</time>
      </trkpt>
      <trkpt lat="45.23258" lon="1.11784">
        <ele>245.367386</ele>
        <time>2010-09-14T16:13:57.243Z</time>
      </trkpt>
      <trkpt lat="45.23245" lon="1.11803">
        <ele>245.367432</ele>
        <time>2010-09-14T16:14:04.660Z</time>
      </trkpt>
      <trkpt lat="45.23229" lon="1.11816">
        <ele>246.367477</ele>
        <time>2010-09-14T16:14:11.341Z</time>
      </trkpt>
      <trkpt lat="45.23211" lon="1.11821">
        <ele>246.367493</ele>
        <time>2010-09-14T16:14:18.766Z</time>
      </trkpt>
      <trkpt lat="45.23192" lon="1.11826">
        <ele>248.367493</ele>
        <time>2010-09-14T16:14:26.843Z</time>
      </trkpt>
      <trkpt lat="45.23176" lon="1.1184">
        <ele>250.367523</ele>
        <time>2010-09-14T16:14:35.742Z</time>
      </trkpt>
      <trkpt lat="45.2316" lon="1.11854">
        <ele>252.367569</ele>
        <time>2010-09-14T16:14:44.663Z</time>
      </trkpt>
      <trkpt lat="45.23145" lon="1.11868">
        <ele>254.367615</ele>
        <time>2010-09-14T16:14:52.859Z</time>
      </trkpt>
      <trkpt lat="45.23128" lon="1.1188">
        <ele>255.367645</ele>
        <time>2010-09-14T16:15:01.703Z</time>
      </trkpt>
      <trkpt lat="45.23113" lon="1.11893">
        <ele>255.367676</ele>
        <time>2010-09-14T16:15:09.845Z</time>
      </trkpt>
      <trkpt lat="45.23098" lon="1.11909">
        <ele>256.367706</ele>
        <time>2010-09-14T16:15:17.283Z</time>
      </trkpt>
      <trkpt lat="45.23082" lon="1.11924">
        <ele>256.367767</ele>
        <time>2010-09-14T16:15:23.305Z</time>
      </trkpt>
      <trkpt lat="45.23064" lon="1.11938">
        <ele>256.367798</ele>
        <time>2010-09-14T16:15:28.526Z</time>
      </trkpt>
      <trkpt lat="45.23048" lon="1.11954">
        <ele>257.367828</ele>
        <time>2010-09-14T16:15:33.729Z</time>
      </trkpt>
      <trkpt lat="45.23035" lon="1.11976">
        <ele>257.367889</ele>
        <time>2010-09-14T16:15:37.471Z</time>
      </trkpt>
      <trkpt lat="45.2302" lon="1.11995">
        <ele>256.36792</ele>
        <time>2010-09-14T16:15:41.119Z</time>
      </trkpt>
      <trkpt lat="45.23006" lon="1.12016">
        <ele>257.367981</ele>
        <time>2010-09-14T16:15:44.825Z</time>
      </trkpt>
      <trkpt lat="45.22988" lon="1.12035">
        <ele>257.368042</ele>
        <time>2010-09-14T16:15:48.556Z</time>
      </trkpt>
      <trkpt lat="45.22972" lon="1.12049">
        <ele>257.368073</ele>
        <time>2010-09-14T16:15:51.542Z</time>
      </trkpt>
      <trkpt lat="45.22955" lon="1.12066">
        <ele>257.368103</ele>
        <time>2010-09-14T16:15:55.226Z</time>
      </trkpt>
      <trkpt lat="45.2294" lon="1.12083">
        <ele>258.368164</ele>
        <time>2010-09-14T16:15:58.931Z</time>
      </trkpt>
      <trkpt lat="45.22925" lon="1.12102">
        <ele>258.368225</ele>
        <time>2010-09-14T16:16:02.641Z</time>
      </trkpt>
      <trkpt lat="45.22909" lon="1.12125">
        <ele>257.368286</ele>
        <time>2010-09-14T16:16:06.351Z</time>
      </trkpt>
      <trkpt lat="45.22895" lon="1.12144">
        <ele>258.368317</ele>
        <time>2010-09-14T16:16:10.061Z</time>
      </trkpt>
      <trkpt lat="45.22878" lon="1.12158">
        <ele>259.368347</ele>
        <time>2010-09-14T16:16:15.264Z</time>
      </trkpt>
      <trkpt lat="45.22859" lon="1.12166">
        <ele>260.368378</ele>
        <time>2010-09-14T16:16:21.182Z</time>
      </trkpt>
      <trkpt lat="45.22838" lon="1.12173">
        <ele>262.368408</ele>
        <time>2010-09-14T16:16:25.569Z</time>
      </trkpt>
      <trkpt lat="45.22817" lon="1.12178">
        <ele>261.368408</ele>
        <time>2010-09-14T16:16:30.022Z</time>
      </trkpt>
      <trkpt lat="45.22798" lon="1.12182">
        <ele>261.368408</ele>
        <time>2010-09-14T16:16:34.482Z</time>
      </trkpt>
      <trkpt lat="45.22779" lon="1.12187">
        <ele>260.368439</ele>
        <time>2010-09-14T16:16:41.133Z</time>
      </trkpt>
      <trkpt lat="45.22761" lon="1.12191">
        <ele>261.368439</ele>
        <time>2010-09-14T16:16:48.550Z</time>
      </trkpt>
      <trkpt lat="45.22742" lon="1.12186">
        <ele>262.368439</ele>
        <time>2010-09-14T16:16:56.750Z</time>
      </trkpt>
      <trkpt lat="45.22741" lon="1.12159">
        <ele>262.368378</ele>
        <time>2010-09-14T16:17:04.276Z</time>
      </trkpt>
      <trkpt lat="45.22741" lon="1.12133">
        <ele>261.368286</ele>
        <time>2010-09-14T16:17:10.280Z</time>
      </trkpt>
      <trkpt lat="45.22741" lon="1.12105">
        <ele>260.368225</ele>
        <time>2010-09-14T16:17:16.987Z</time>
      </trkpt>
      <trkpt lat="45.22741" lon="1.12077">
        <ele>259.368164</ele>
        <time>2010-09-14T16:17:24.443Z</time>
      </trkpt>
      <trkpt lat="45.22741" lon="1.12051">
        <ele>260.368103</ele>
        <time>2010-09-14T16:17:31.940Z</time>
      </trkpt>
      <trkpt lat="45.22736" lon="1.12026">
        <ele>260.368042</ele>
        <time>2010-09-14T16:17:41.761Z</time>
      </trkpt>
      <trkpt lat="45.22717" lon="1.12031">
        <ele>259.368042</ele>
        <time>2010-09-14T16:17:51.990Z</time>
      </trkpt>
      <trkpt lat="45.22698" lon="1.12033">
        <ele>259.368042</ele>
        <time>2010-09-14T16:17:59.271Z</time>
      </trkpt>
      <trkpt lat="45.2268" lon="1.12038">
        <ele>259.368073</ele>
        <time>2010-09-14T16:18:05.849Z</time>
      </trkpt>
      <trkpt lat="45.22661" lon="1.12044">
        <ele>260.368103</ele>
        <time>2010-09-14T16:18:12.423Z</time>
      </trkpt>
      <trkpt lat="45.22643" lon="1.1205">
        <ele>260.368103</ele>
        <time>2010-09-14T16:18:19.011Z</time>
      </trkpt>
      <trkpt lat="45.22626" lon="1.12062">
        <ele>261.368134</ele>
        <time>2010-09-14T16:18:26.290Z</time>
      </trkpt>
      <trkpt lat="45.2261" lon="1.12075">
        <ele>262.368164</ele>
        <time>2010-09-14T16:18:32.829Z</time>
      </trkpt>
      <trkpt lat="45.22593" lon="1.1209">
        <ele>264.368225</ele>
        <time>2010-09-14T16:18:39.379Z</time>
      </trkpt>
      <trkpt lat="45.22577" lon="1.12101">
        <ele>264.368225</ele>
        <time>2010-09-14T16:18:45.193Z</time>
      </trkpt>
      <trkpt lat="45.22559" lon="1.12114">
        <ele>266.368286</ele>
        <time>2010-09-14T16:18:51.038Z</time>
      </trkpt>
      <trkpt lat="45.22542" lon="1.12127">
        <ele>267.368286</ele>
        <time>2010-09-14T16:18:56.744Z</time>
      </trkpt>
      <trkpt lat="45.22524" lon="1.12139">
        <ele>269.368347</ele>
        <time>2010-09-14T16:19:01.864Z</time>
      </trkpt>
      <trkpt lat="45.22507" lon="1.12148">
        <ele>269.368347</ele>
        <time>2010-09-14T16:19:06.344Z</time>
      </trkpt>
      <trkpt lat="45.22488" lon="1.12159">
        <ele>272.368378</ele>
        <time>2010-09-14T16:19:11.485Z</time>
      </trkpt>
      <trkpt lat="45.22471" lon="1.12169">
        <ele>271.368408</ele>
        <time>2010-09-14T16:19:16.595Z</time>
      </trkpt>
      <trkpt lat="45.22453" lon="1.1218">
        <ele>272.368439</ele>
        <time>2010-09-14T16:19:21.715Z</time>
      </trkpt>
      <trkpt lat="45.22438" lon="1.12195">
        <ele>272.368469</ele>
        <time>2010-09-14T16:19:26.586Z</time>
      </trkpt>
      <trkpt lat="45.22421" lon="1.12213">
        <ele>272.36853</ele>
        <time>2010-09-14T16:19:31.989Z</time>
      </trkpt>
      <trkpt lat="45.22406" lon="1.12228">
        <ele>272.368561</ele>
        <time>2010-09-14T16:19:36.574Z</time>
      </trkpt>
      <trkpt lat="45.2239" lon="1.12246">
        <ele>272.368622</ele>
        <time>2010-09-14T16:19:41.883Z</time>
      </trkpt>
      <trkpt lat="45.22376" lon="1.12265">
        <ele>273.368652</ele>
        <time>2010-09-14T16:19:47.218Z</time>
      </trkpt>
      <trkpt lat="45.22365" lon="1.12285">
        <ele>273.368713</ele>
        <time>2010-09-14T16:19:52.519Z</time>
      </trkpt>
      <trkpt lat="45.22354" lon="1.12307">
        <ele>273.368774</ele>
        <time>2010-09-14T16:19:58.552Z</time>
      </trkpt>
      <trkpt lat="45.22339" lon="1.12328">
        <ele>273.368835</ele>
        <time>2010-09-14T16:20:05.386Z</time>
      </trkpt>
      <trkpt lat="45.22325" lon="1.12346">
        <ele>273.368866</ele>
        <time>2010-09-14T16:20:11.444Z</time>
      </trkpt>
      <trkpt lat="45.22309" lon="1.12362">
        <ele>272.368896</ele>
        <time>2010-09-14T16:20:16.827Z</time>
      </trkpt>
      <trkpt lat="45.22293" lon="1.12378">
        <ele>271.368958</ele>
        <time>2010-09-14T16:20:22.226Z</time>
      </trkpt>
      <trkpt lat="45.2228" lon="1.12399">
        <ele>270.369019</ele>
        <time>2010-09-14T16:20:27.593Z</time>
      </trkpt>
      <trkpt lat="45.22268" lon="1.12422">
        <ele>270.36908</ele>
        <time>2010-09-14T16:20:33.080Z</time>
      </trkpt>
      <trkpt lat="45.22258" lon="1.12447">
        <ele>269.369141</ele>
        <time>2010-09-14T16:20:38.453Z</time>
      </trkpt>
      <trkpt lat="45.22252" lon="1.12472">
        <ele>268.369202</ele>
        <time>2010-09-14T16:20:43.871Z</time>
      </trkpt>
      <trkpt lat="45.22242" lon="1.12494">
        <ele>268.369263</ele>
        <time>2010-09-14T16:20:50.760Z</time>
      </trkpt>
      <trkpt lat="45.22226" lon="1.12509">
        <ele>269.369293</ele>
        <time>2010-09-14T16:20:58.225Z</time>
      </trkpt>
      <trkpt lat="45.22208" lon="1.1252">
        <ele>269.369324</ele>
        <time>2010-09-14T16:21:05.711Z</time>
      </trkpt>
      <trkpt lat="45.22192" lon="1.12529">
        <ele>269.369324</ele>
        <time>2010-09-14T16:21:12.649Z</time>
      </trkpt>
      <trkpt lat="45.22174" lon="1.12535">
        <ele>270.369354</ele>
        <time>2010-09-14T16:21:20.229Z</time>
      </trkpt>
      <trkpt lat="45.22156" lon="1.12541">
        <ele>271.369385</ele>
        <time>2010-09-14T16:21:27.032Z</time>
      </trkpt>
      <trkpt lat="45.22137" lon="1.1254">
        <ele>272.369354</ele>
        <time>2010-09-14T16:21:34.588Z</time>
      </trkpt>
      <trkpt lat="45.22117" lon="1.12536">
        <ele>274.369354</ele>
        <time>2010-09-14T16:21:42.150Z</time>
      </trkpt>
      <trkpt lat="45.22098" lon="1.12544">
        <ele>275.369385</ele>
        <time>2010-09-14T16:21:50.506Z</time>
      </trkpt>
      <trkpt lat="45.22081" lon="1.12556">
        <ele>276.369415</ele>
        <time>2010-09-14T16:21:58.120Z</time>
      </trkpt>
      <trkpt lat="45.22065" lon="1.12571">
        <ele>277.369446</ele>
        <time>2010-09-14T16:22:05.684Z</time>
      </trkpt>
      <trkpt lat="45.22047" lon="1.12582">
        <ele>278.369476</ele>
        <time>2010-09-14T16:22:13.258Z</time>
      </trkpt>
      <trkpt lat="45.2203" lon="1.12591">
        <ele>280.369507</ele>
        <time>2010-09-14T16:22:21.576Z</time>
      </trkpt>
      <trkpt lat="45.22015" lon="1.12608">
        <ele>282.369537</ele>
        <time>2010-09-14T16:22:29.922Z</time>
      </trkpt>
      <trkpt lat="45.22008" lon="1.12633">
        <ele>282.369598</ele>
        <time>2010-09-14T16:22:38.025Z</time>
      </trkpt>
      <trkpt lat="45.22003" lon="1.12658">
        <ele>283.36969</ele>
        <time>2010-09-14T16:22:43.337Z</time>
      </trkpt>
      <trkpt lat="45.21991" lon="1.12682">
        <ele>284.36972</ele>
        <time>2010-09-14T16:22:47.943Z</time>
      </trkpt>
      <trkpt lat="45.21975" lon="1.12701">
        <ele>284.369781</ele>
        <time>2010-09-14T16:22:51.754Z</time>
      </trkpt>
      <trkpt lat="45.21959" lon="1.12722">
        <ele>284.369843</ele>
        <time>2010-09-14T16:22:55.560Z</time>
      </trkpt>
      <trkpt lat="45.21943" lon="1.12744">
        <ele>284.369873</ele>
        <time>2010-09-14T16:22:59.335Z</time>
      </trkpt>
      <trkpt lat="45.21937" lon="1.12773">
        <ele>285.369965</ele>
        <time>2010-09-14T16:23:03.161Z</time>
      </trkpt>
      <trkpt lat="45.21931" lon="1.12801">
        <ele>284.370026</ele>
        <time>2010-09-14T16:23:07.649Z</time>
      </trkpt>
      <trkpt lat="45.21931" lon="1.12827">
        <ele>285.370087</ele>
        <time>2010-09-14T16:23:13.669Z</time>
      </trkpt>
      <trkpt lat="45.21947" lon="1.12847">
        <ele>286.370148</ele>
        <time>2010-09-14T16:23:18.197Z</time>
      </trkpt>
      <trkpt lat="45.21964" lon="1.12861">
        <ele>286.370178</ele>
        <time>2010-09-14T16:23:21.233Z</time>
      </trkpt>
      <trkpt lat="45.21984" lon="1.12875">
        <ele>286.370209</ele>
        <time>2010-09-14T16:23:24.233Z</time>
      </trkpt>
      <trkpt lat="45.22001" lon="1.12888">
        <ele>286.370239</ele>
        <time>2010-09-14T16:23:26.495Z</time>
      </trkpt>
      <trkpt lat="45.2202" lon="1.12901">
        <ele>285.37027</ele>
        <time>2010-09-14T16:23:28.780Z</time>
      </trkpt>
      <trkpt lat="45.22036" lon="1.12913">
        <ele>285.3703</ele>
        <time>2010-09-14T16:23:31.053Z</time>
      </trkpt>
      <trkpt lat="45.22052" lon="1.12935">
        <ele>284.370361</ele>
        <time>2010-09-14T16:23:34.111Z</time>
      </trkpt>
      <trkpt lat="45.22065" lon="1.12959">
        <ele>283.370422</ele>
        <time>2010-09-14T16:23:37.132Z</time>
      </trkpt>
      <trkpt lat="45.22077" lon="1.12981">
        <ele>282.370483</ele>
        <time>2010-09-14T16:23:40.154Z</time>
      </trkpt>
      <trkpt lat="45.22091" lon="1.13003">
        <ele>281.370514</ele>
        <time>2010-09-14T16:23:43.212Z</time>
      </trkpt>
      <trkpt lat="45.22103" lon="1.13025">
        <ele>279.370575</ele>
        <time>2010-09-14T16:23:46.253Z</time>
      </trkpt>
      <trkpt lat="45.22115" lon="1.1305">
        <ele>276.370636</ele>
        <time>2010-09-14T16:23:50.081Z</time>
      </trkpt>
      <trkpt lat="45.22126" lon="1.13072">
        <ele>275.370697</ele>
        <time>2010-09-14T16:23:53.117Z</time>
      </trkpt>
      <trkpt lat="45.22137" lon="1.13098">
        <ele>272.370758</ele>
        <time>2010-09-14T16:23:56.892Z</time>
      </trkpt>
      <trkpt lat="45.22149" lon="1.13122">
        <ele>269.370819</ele>
        <time>2010-09-14T16:24:00.698Z</time>
      </trkpt>
      <trkpt lat="45.22166" lon="1.13143">
        <ele>266.37085</ele>
        <time>2010-09-14T16:24:04.464Z</time>
      </trkpt>
      <trkpt lat="45.22181" lon="1.13161">
        <ele>263.370911</ele>
        <time>2010-09-14T16:24:07.506Z</time>
      </trkpt>
      <trkpt lat="45.22195" lon="1.13183">
        <ele>261.370972</ele>
        <time>2010-09-14T16:24:11.293Z</time>
      </trkpt>
      <trkpt lat="45.22187" lon="1.13209">
        <ele>258.371033</ele>
        <time>2010-09-14T16:24:16.654Z</time>
      </trkpt>
      <trkpt lat="45.22176" lon="1.13232">
        <ele>256.371094</ele>
        <time>2010-09-14T16:24:21.164Z</time>
      </trkpt>
      <trkpt lat="45.22176" lon="1.13261">
        <ele>254.371155</ele>
        <time>2010-09-14T16:24:25.171Z</time>
      </trkpt>
      <trkpt lat="45.22176" lon="1.13287">
        <ele>252.371216</ele>
        <time>2010-09-14T16:24:28.887Z</time>
      </trkpt>
      <trkpt lat="45.22175" lon="1.13315">
        <ele>251.371277</ele>
        <time>2010-09-14T16:24:34.263Z</time>
      </trkpt>
      <trkpt lat="45.22174" lon="1.13341">
        <ele>251.371353</ele>
        <time>2010-09-14T16:24:38.816Z</time>
      </trkpt>
      <trkpt lat="45.22172" lon="1.13371">
        <ele>251.371429</ele>
        <time>2010-09-14T16:24:43.317Z</time>
      </trkpt>
      <trkpt lat="45.2217" lon="1.13397">
        <ele>250.37149</ele>
        <time>2010-09-14T16:24:47.100Z</time>
      </trkpt>
      <trkpt lat="45.22169" lon="1.13428">
        <ele>249.371567</ele>
        <time>2010-09-14T16:24:50.954Z</time>
      </trkpt>
      <trkpt lat="45.22169" lon="1.13455">
        <ele>248.371643</ele>
        <time>2010-09-14T16:24:54.015Z</time>
      </trkpt>
      <trkpt lat="45.2217" lon="1.13482">
        <ele>246.371704</ele>
        <time>2010-09-14T16:25:01.829Z</time>
      </trkpt>
      <trkpt lat="45.22169" lon="1.13509">
        <ele>246.371765</ele>
        <time>2010-09-14T16:25:06.529Z</time>
      </trkpt>
      <trkpt lat="45.22168" lon="1.13537">
        <ele>245.371841</ele>
        <time>2010-09-14T16:25:10.463Z</time>
      </trkpt>
      <trkpt lat="45.22167" lon="1.13564">
        <ele>245.371902</ele>
        <time>2010-09-14T16:25:14.359Z</time>
      </trkpt>
      <trkpt lat="45.22167" lon="1.13591">
        <ele>245.371979</ele>
        <time>2010-09-14T16:25:18.315Z</time>
      </trkpt>
      <trkpt lat="45.22166" lon="1.13616">
        <ele>244.37204</ele>
        <time>2010-09-14T16:25:22.318Z</time>
      </trkpt>
      <trkpt lat="45.22168" lon="1.13644">
        <ele>244.372101</ele>
        <time>2010-09-14T16:25:27.903Z</time>
      </trkpt>
      <trkpt lat="45.22167" lon="1.13672">
        <ele>245.372177</ele>
        <time>2010-09-14T16:25:34.848Z</time>
      </trkpt>
      <trkpt lat="45.22161" lon="1.13701">
        <ele>245.372253</ele>
        <time>2010-09-14T16:25:41.240Z</time>
      </trkpt>
      <trkpt lat="45.22155" lon="1.13728">
        <ele>246.372314</ele>
        <time>2010-09-14T16:25:46.854Z</time>
      </trkpt>
      <trkpt lat="45.22149" lon="1.13754">
        <ele>247.372375</ele>
        <time>2010-09-14T16:25:52.419Z</time>
      </trkpt>
      <trkpt lat="45.22144" lon="1.13779">
        <ele>247.372437</ele>
        <time>2010-09-14T16:25:57.885Z</time>
      </trkpt>
      <trkpt lat="45.22133" lon="1.13801">
        <ele>248.372498</ele>
        <time>2010-09-14T16:26:04.136Z</time>
      </trkpt>
      <trkpt lat="45.2212" lon="1.13822">
        <ele>249.372559</ele>
        <time>2010-09-14T16:26:10.516Z</time>
      </trkpt>
      <trkpt lat="45.22122" lon="1.1385">
        <ele>251.37262</ele>
        <time>2010-09-14T16:26:19.504Z</time>
      </trkpt>
      <trkpt lat="45.22135" lon="1.13871">
        <ele>251.372665</ele>
        <time>2010-09-14T16:26:25.842Z</time>
      </trkpt>
      <trkpt lat="45.22146" lon="1.13893">
        <ele>252.372726</ele>
        <time>2010-09-14T16:26:31.325Z</time>
      </trkpt>
      <trkpt lat="45.22156" lon="1.13918">
        <ele>253.372787</ele>
        <time>2010-09-14T16:26:36.812Z</time>
      </trkpt>
      <trkpt lat="45.22165" lon="1.13941">
        <ele>253.372833</ele>
        <time>2010-09-14T16:26:41.624Z</time>
      </trkpt>
      <trkpt lat="45.22174" lon="1.13967">
        <ele>254.372894</ele>
        <time>2010-09-14T16:26:47.389Z</time>
      </trkpt>
      <trkpt lat="45.22183" lon="1.13992">
        <ele>254.372971</ele>
        <time>2010-09-14T16:26:53.156Z</time>
      </trkpt>
      <trkpt lat="45.22191" lon="1.14017">
        <ele>255.373032</ele>
        <time>2010-09-14T16:26:58.724Z</time>
      </trkpt>
      <trkpt lat="45.22202" lon="1.14041">
        <ele>257.373108</ele>
        <time>2010-09-14T16:27:04.184Z</time>
      </trkpt>
      <trkpt lat="45.22214" lon="1.14066">
        <ele>257.373138</ele>
        <time>2010-09-14T16:27:09.665Z</time>
      </trkpt>
      <trkpt lat="45.22224" lon="1.14089">
        <ele>258.373199</ele>
        <time>2010-09-14T16:27:14.403Z</time>
      </trkpt>
      <trkpt lat="45.22232" lon="1.14115">
        <ele>259.373291</ele>
        <time>2010-09-14T16:27:19.193Z</time>
      </trkpt>
      <trkpt lat="45.22238" lon="1.1414">
        <ele>260.373322</ele>
        <time>2010-09-14T16:27:22.866Z</time>
      </trkpt>
      <trkpt lat="45.22242" lon="1.14168">
        <ele>260.373413</ele>
        <time>2010-09-14T16:27:26.836Z</time>
      </trkpt>
      <trkpt lat="45.22246" lon="1.14197">
        <ele>261.373474</ele>
        <time>2010-09-14T16:27:30.839Z</time>
      </trkpt>
      <trkpt lat="45.22248" lon="1.14228">
        <ele>262.373535</ele>
        <time>2010-09-14T16:27:34.839Z</time>
      </trkpt>
      <trkpt lat="45.2225" lon="1.14259">
        <ele>262.373627</ele>
        <time>2010-09-14T16:27:38.848Z</time>
      </trkpt>
      <trkpt lat="45.22246" lon="1.14285">
        <ele>262.373688</ele>
        <time>2010-09-14T16:27:42.839Z</time>
      </trkpt>
      <trkpt lat="45.22227" lon="1.14288">
        <ele>262.373718</ele>
        <time>2010-09-14T16:27:46.828Z</time>
      </trkpt>
      <trkpt lat="45.22207" lon="1.14286">
        <ele>262.373688</ele>
        <time>2010-09-14T16:27:50.753Z</time>
      </trkpt>
      <trkpt lat="45.22187" lon="1.14288">
        <ele>263.373718</ele>
        <time>2010-09-14T16:27:54.624Z</time>
      </trkpt>
      <trkpt lat="45.22167" lon="1.1428">
        <ele>264.373688</ele>
        <time>2010-09-14T16:27:59.230Z</time>
      </trkpt>
      <trkpt lat="45.2215" lon="1.14267">
        <ele>264.373657</ele>
        <time>2010-09-14T16:28:04.609Z</time>
      </trkpt>
      <trkpt lat="45.22133" lon="1.14256">
        <ele>265.373627</ele>
        <time>2010-09-14T16:28:10.098Z</time>
      </trkpt>
      <trkpt lat="45.22116" lon="1.14242">
        <ele>266.373596</ele>
        <time>2010-09-14T16:28:16.406Z</time>
      </trkpt>
      <trkpt lat="45.22098" lon="1.1423">
        <ele>267.373566</ele>
        <time>2010-09-14T16:28:24.268Z</time>
      </trkpt>
      <trkpt lat="45.22081" lon="1.1422">
        <ele>268.373535</ele>
        <time>2010-09-14T16:28:32.009Z</time>
      </trkpt>
      <trkpt lat="45.22064" lon="1.14211">
        <ele>269.373535</ele>
        <time>2010-09-14T16:28:39.810Z</time>
      </trkpt>
      <trkpt lat="45.22047" lon="1.14201">
        <ele>269.373505</ele>
        <time>2010-09-14T16:28:46.835Z</time>
      </trkpt>
      <trkpt lat="45.22029" lon="1.14192">
        <ele>270.373474</ele>
        <time>2010-09-14T16:28:53.784Z</time>
      </trkpt>
      <trkpt lat="45.22012" lon="1.14184">
        <ele>271.373474</ele>
        <time>2010-09-14T16:29:00.593Z</time>
      </trkpt>
      <trkpt lat="45.21993" lon="1.14176">
        <ele>272.373444</ele>
        <time>2010-09-14T16:29:07.586Z</time>
      </trkpt>
      <trkpt lat="45.21976" lon="1.14168">
        <ele>273.373413</ele>
        <time>2010-09-14T16:29:13.826Z</time>
      </trkpt>
      <trkpt lat="45.21957" lon="1.14159">
        <ele>273.373383</ele>
        <time>2010-09-14T16:29:20.882Z</time>
      </trkpt>
      <trkpt lat="45.2194" lon="1.1415">
        <ele>274.373383</ele>
        <time>2010-09-14T16:29:26.318Z</time>
      </trkpt>
      <trkpt lat="45.21922" lon="1.14142">
        <ele>274.373352</ele>
        <time>2010-09-14T16:29:30.929Z</time>
      </trkpt>
      <trkpt lat="45.21904" lon="1.14137">
        <ele>274.373352</ele>
        <time>2010-09-14T16:29:35.549Z</time>
      </trkpt>
      <trkpt lat="45.21884" lon="1.14138">
        <ele>275.373352</ele>
        <time>2010-09-14T16:29:41.008Z</time>
      </trkpt>
      <trkpt lat="45.21869" lon="1.14156">
        <ele>276.373413</ele>
        <time>2010-09-14T16:29:46.627Z</time>
      </trkpt>
      <trkpt lat="45.2185" lon="1.14159">
        <ele>276.373413</ele>
        <time>2010-09-14T16:29:52.322Z</time>
      </trkpt>
      <trkpt lat="45.21836" lon="1.14179">
        <ele>277.373444</ele>
        <time>2010-09-14T16:29:58.599Z</time>
      </trkpt>
      <trkpt lat="45.21824" lon="1.14201">
        <ele>278.373505</ele>
        <time>2010-09-14T16:30:06.448Z</time>
      </trkpt>
      <trkpt lat="45.21813" lon="1.14222">
        <ele>279.373566</ele>
        <time>2010-09-14T16:30:14.403Z</time>
      </trkpt>
      <trkpt lat="45.21802" lon="1.14244">
        <ele>280.373627</ele>
        <time>2010-09-14T16:30:22.340Z</time>
      </trkpt>
      <trkpt lat="45.21791" lon="1.14265">
        <ele>281.373657</ele>
        <time>2010-09-14T16:30:30.851Z</time>
      </trkpt>
      <trkpt lat="45.21781" lon="1.14287">
        <ele>282.373718</ele>
        <time>2010-09-14T16:30:38.854Z</time>
      </trkpt>
      <trkpt lat="45.21768" lon="1.14306">
        <ele>283.373779</ele>
        <time>2010-09-14T16:30:47.743Z</time>
      </trkpt>
      <trkpt lat="45.21751" lon="1.14314">
        <ele>284.373779</ele>
        <time>2010-09-14T16:30:56.460Z</time>
      </trkpt>
      <trkpt lat="45.21731" lon="1.14314">
        <ele>285.37381</ele>
        <time>2010-09-14T16:31:05.160Z</time>
      </trkpt>
      <trkpt lat="45.21713" lon="1.14318">
        <ele>286.37381</ele>
        <time>2010-09-14T16:31:12.396Z</time>
      </trkpt>
      <trkpt lat="45.21696" lon="1.14328">
        <ele>287.37384</ele>
        <time>2010-09-14T16:31:19.760Z</time>
      </trkpt>
      <trkpt lat="45.21678" lon="1.14334">
        <ele>288.37384</ele>
        <time>2010-09-14T16:31:27.581Z</time>
      </trkpt>
      <trkpt lat="45.21659" lon="1.14336">
        <ele>289.37384</ele>
        <time>2010-09-14T16:31:35.429Z</time>
      </trkpt>
      <trkpt lat="45.21641" lon="1.14337">
        <ele>291.37384</ele>
        <time>2010-09-14T16:31:44.239Z</time>
      </trkpt>
      <trkpt lat="45.21623" lon="1.1434">
        <ele>293.373871</ele>
        <time>2010-09-14T16:31:53.692Z</time>
      </trkpt>
      <trkpt lat="45.2161" lon="1.14357">
        <ele>294.373901</ele>
        <time>2010-09-14T16:32:03.809Z</time>
      </trkpt>
      <trkpt lat="45.21612" lon="1.14384">
        <ele>295.373962</ele>
        <time>2010-09-14T16:32:12.687Z</time>
      </trkpt>
      <trkpt lat="45.21611" lon="1.14412">
        <ele>296.374054</ele>
        <time>2010-09-14T16:32:20.685Z</time>
      </trkpt>
      <trkpt lat="45.21604" lon="1.14436">
        <ele>297.374115</ele>
        <time>2010-09-14T16:32:27.795Z</time>
      </trkpt>
      <trkpt lat="45.21597" lon="1.14461">
        <ele>298.374176</ele>
        <time>2010-09-14T16:32:34.106Z</time>
      </trkpt>
      <trkpt lat="45.2159" lon="1.14485">
        <ele>299.374237</ele>
        <time>2010-09-14T16:32:39.029Z</time>
      </trkpt>
      <trkpt lat="45.2158" lon="1.1451">
        <ele>300.374298</ele>
        <time>2010-09-14T16:32:43.818Z</time>
      </trkpt>
      <trkpt lat="45.21569" lon="1.14536">
        <ele>301.374359</ele>
        <time>2010-09-14T16:32:48.659Z</time>
      </trkpt>
      <trkpt lat="45.21556" lon="1.14559">
        <ele>301.37442</ele>
        <time>2010-09-14T16:32:53.455Z</time>
      </trkpt>
      <trkpt lat="45.21544" lon="1.14578">
        <ele>301.374451</ele>
        <time>2010-09-14T16:32:58.130Z</time>
      </trkpt>
      <trkpt lat="45.21529" lon="1.14598">
        <ele>302.374512</ele>
        <time>2010-09-14T16:33:03.649Z</time>
      </trkpt>
      <trkpt lat="45.21516" lon="1.14615">
        <ele>304.374542</ele>
        <time>2010-09-14T16:33:08.437Z</time>
      </trkpt>
      <trkpt lat="45.21501" lon="1.14633">
        <ele>304.374603</ele>
        <time>2010-09-14T16:33:13.249Z</time>
      </trkpt>
      <trkpt lat="45.21485" lon="1.14645">
        <ele>305.374634</ele>
        <time>2010-09-14T16:33:18.071Z</time>
      </trkpt>
      <trkpt lat="45.21466" lon="1.14643">
        <ele>307.374634</ele>
        <time>2010-09-14T16:33:24.431Z</time>
      </trkpt>
      <trkpt lat="45.21448" lon="1.1463">
        <ele>308.374603</ele>
        <time>2010-09-14T16:33:30.722Z</time>
      </trkpt>
      <trkpt lat="45.2143" lon="1.14624">
        <ele>309.374573</ele>
        <time>2010-09-14T16:33:36.027Z</time>
      </trkpt>
      <trkpt lat="45.21411" lon="1.14627">
        <ele>310.374573</ele>
        <time>2010-09-14T16:33:41.543Z</time>
      </trkpt>
      <trkpt lat="45.2139" lon="1.14631">
        <ele>311.374603</ele>
        <time>2010-09-14T16:33:47.175Z</time>
      </trkpt>
      <trkpt lat="45.21372" lon="1.14634">
        <ele>311.374603</ele>
        <time>2010-09-14T16:33:51.891Z</time>
      </trkpt>
      <trkpt lat="45.21352" lon="1.1464">
        <ele>312.374634</ele>
        <time>2010-09-14T16:33:57.279Z</time>
      </trkpt>
      <trkpt lat="45.21332" lon="1.14644">
        <ele>313.374634</ele>
        <time>2010-09-14T16:34:02.661Z</time>
      </trkpt>
      <trkpt lat="45.21314" lon="1.14649">
        <ele>313.374634</ele>
        <time>2010-09-14T16:34:07.290Z</time>
      </trkpt>
      <trkpt lat="45.21296" lon="1.14656">
        <ele>314.374664</ele>
        <time>2010-09-14T16:34:12.094Z</time>
      </trkpt>
      <trkpt lat="45.21276" lon="1.14664">
        <ele>315.374695</ele>
        <time>2010-09-14T16:34:16.914Z</time>
      </trkpt>
      <trkpt lat="45.21256" lon="1.14671">
        <ele>316.374695</ele>
        <time>2010-09-14T16:34:21.718Z</time>
      </trkpt>
      <trkpt lat="45.21238" lon="1.14665">
        <ele>317.374695</ele>
        <time>2010-09-14T16:34:26.373Z</time>
      </trkpt>
      <trkpt lat="45.21222" lon="1.1465">
        <ele>318.374664</ele>
        <time>2010-09-14T16:34:31.061Z</time>
      </trkpt>
      <trkpt lat="45.21202" lon="1.14638">
        <ele>318.374634</ele>
        <time>2010-09-14T16:34:35.613Z</time>
      </trkpt>
      <trkpt lat="45.21183" lon="1.14636">
        <ele>319.374634</ele>
        <time>2010-09-14T16:34:38.751Z</time>
      </trkpt>
      <trkpt lat="45.21164" lon="1.14641">
        <ele>319.374634</ele>
        <time>2010-09-14T16:34:41.959Z</time>
      </trkpt>
      <trkpt lat="45.21148" lon="1.14657">
        <ele>319.374695</ele>
        <time>2010-09-14T16:34:45.168Z</time>
      </trkpt>
      <trkpt lat="45.21134" lon="1.14676">
        <ele>319.374725</ele>
        <time>2010-09-14T16:34:48.258Z</time>
      </trkpt>
      <trkpt lat="45.2112" lon="1.14695">
        <ele>319.374756</ele>
        <time>2010-09-14T16:34:51.429Z</time>
      </trkpt>
      <trkpt lat="45.21107" lon="1.14715">
        <ele>320.374817</ele>
        <time>2010-09-14T16:34:54.627Z</time>
      </trkpt>
      <trkpt lat="45.21095" lon="1.14736">
        <ele>320.374878</ele>
        <time>2010-09-14T16:34:57.816Z</time>
      </trkpt>
      <trkpt lat="45.2108" lon="1.14759">
        <ele>320.374939</ele>
        <time>2010-09-14T16:35:01.715Z</time>
      </trkpt>
      <trkpt lat="45.21067" lon="1.14778">
        <ele>320.374969</ele>
        <time>2010-09-14T16:35:04.921Z</time>
      </trkpt>
      <trkpt lat="45.21054" lon="1.14795">
        <ele>319.375031</ele>
        <time>2010-09-14T16:35:08.186Z</time>
      </trkpt>
      <trkpt lat="45.21037" lon="1.14814">
        <ele>320.375061</ele>
        <time>2010-09-14T16:35:12.263Z</time>
      </trkpt>
      <trkpt lat="45.2102" lon="1.14824">
        <ele>320.375092</ele>
        <time>2010-09-14T16:35:17.509Z</time>
      </trkpt>
      <trkpt lat="45.21" lon="1.14829">
        <ele>321.375122</ele>
        <time>2010-09-14T16:35:24.226Z</time>
      </trkpt>
      <trkpt lat="45.20983" lon="1.14838">
        <ele>321.375122</ele>
        <time>2010-09-14T16:35:32.702Z</time>
      </trkpt>
      <trkpt lat="45.20964" lon="1.14835">
        <ele>323.375122</ele>
        <time>2010-09-14T16:35:41.308Z</time>
      </trkpt>
      <trkpt lat="45.20948" lon="1.14821">
        <ele>324.375092</ele>
        <time>2010-09-14T16:35:50.652Z</time>
      </trkpt>
      <trkpt lat="45.20933" lon="1.14808">
        <ele>325.375061</ele>
        <time>2010-09-14T16:36:03.974Z</time>
      </trkpt>
      <trkpt lat="45.20915" lon="1.14798">
        <ele>328.375031</ele>
        <time>2010-09-14T16:36:15.900Z</time>
      </trkpt>
      <trkpt lat="45.20899" lon="1.14787">
        <ele>330.375</ele>
        <time>2010-09-14T16:36:27.042Z</time>
      </trkpt>
      <trkpt lat="45.20881" lon="1.14778">
        <ele>333.375</ele>
        <time>2010-09-14T16:36:38.509Z</time>
      </trkpt>
      <trkpt lat="45.20863" lon="1.14768">
        <ele>334.374969</ele>
        <time>2010-09-14T16:36:49.684Z</time>
      </trkpt>
      <trkpt lat="45.20846" lon="1.14756">
        <ele>336.374939</ele>
        <time>2010-09-14T16:36:59.963Z</time>
      </trkpt>
      <trkpt lat="45.20831" lon="1.14741">
        <ele>337.374908</ele>
        <time>2010-09-14T16:37:09.474Z</time>
      </trkpt>
      <trkpt lat="45.20816" lon="1.14723">
        <ele>338.374847</ele>
        <time>2010-09-14T16:37:15.901Z</time>
      </trkpt>
      <trkpt lat="45.20799" lon="1.14707">
        <ele>339.374817</ele>
        <time>2010-09-14T16:37:20.690Z</time>
      </trkpt>
      <trkpt lat="45.20781" lon="1.147">
        <ele>339.374817</ele>
        <time>2010-09-14T16:37:24.612Z</time>
      </trkpt>
      <trkpt lat="45.20761" lon="1.14695">
        <ele>339.374786</ele>
        <time>2010-09-14T16:37:28.461Z</time>
      </trkpt>
      <trkpt lat="45.20741" lon="1.14687">
        <ele>340.374756</ele>
        <time>2010-09-14T16:37:33.081Z</time>
      </trkpt>
      <trkpt lat="45.20721" lon="1.14678">
        <ele>340.374756</ele>
        <time>2010-09-14T16:37:38.019Z</time>
      </trkpt>
      <trkpt lat="45.20703" lon="1.14663">
        <ele>341.374725</ele>
        <time>2010-09-14T16:37:42.598Z</time>
      </trkpt>
      <trkpt lat="45.20695" lon="1.14639">
        <ele>341.374664</ele>
        <time>2010-09-14T16:37:46.634Z</time>
      </trkpt>
      <trkpt lat="45.20688" lon="1.14612">
        <ele>341.374573</ele>
        <time>2010-09-14T16:37:50.836Z</time>
      </trkpt>
      <trkpt lat="45.20681" lon="1.14584">
        <ele>341.374512</ele>
        <time>2010-09-14T16:37:54.802Z</time>
      </trkpt>
      <trkpt lat="45.20674" lon="1.14555">
        <ele>342.374451</ele>
        <time>2010-09-14T16:37:58.827Z</time>
      </trkpt>
      <trkpt lat="45.20668" lon="1.14524">
        <ele>342.37439</ele>
        <time>2010-09-14T16:38:02.802Z</time>
      </trkpt>
      <trkpt lat="45.20663" lon="1.14498">
        <ele>342.374298</ele>
        <time>2010-09-14T16:38:06.039Z</time>
      </trkpt>
      <trkpt lat="45.20656" lon="1.14472">
        <ele>342.374237</ele>
        <time>2010-09-14T16:38:09.253Z</time>
      </trkpt>
      <trkpt lat="45.20647" lon="1.14449">
        <ele>342.374207</ele>
        <time>2010-09-14T16:38:12.450Z</time>
      </trkpt>
      <trkpt lat="45.20641" lon="1.1442">
        <ele>342.374115</ele>
        <time>2010-09-14T16:38:16.426Z</time>
      </trkpt>
      <trkpt lat="45.20643" lon="1.14392">
        <ele>342.374054</ele>
        <time>2010-09-14T16:38:20.366Z</time>
      </trkpt>
      <trkpt lat="45.20649" lon="1.14363">
        <ele>343.373993</ele>
        <time>2010-09-14T16:38:24.269Z</time>
      </trkpt>
      <trkpt lat="45.20655" lon="1.14338">
        <ele>343.373901</ele>
        <time>2010-09-14T16:38:27.350Z</time>
      </trkpt>
      <trkpt lat="45.20662" lon="1.14312">
        <ele>344.37384</ele>
        <time>2010-09-14T16:38:30.423Z</time>
      </trkpt>
      <trkpt lat="45.20668" lon="1.14284">
        <ele>344.373779</ele>
        <time>2010-09-14T16:38:33.507Z</time>
      </trkpt>
      <trkpt lat="45.20673" lon="1.14257">
        <ele>344.373718</ele>
        <time>2010-09-14T16:38:36.597Z</time>
      </trkpt>
      <trkpt lat="45.20681" lon="1.1423">
        <ele>344.373657</ele>
        <time>2010-09-14T16:38:39.732Z</time>
      </trkpt>
      <trkpt lat="45.20689" lon="1.14203">
        <ele>344.373596</ele>
        <time>2010-09-14T16:38:42.872Z</time>
      </trkpt>
      <trkpt lat="45.20697" lon="1.14179">
        <ele>344.373535</ele>
        <time>2010-09-14T16:38:46.008Z</time>
      </trkpt>
      <trkpt lat="45.20705" lon="1.14155">
        <ele>344.373474</ele>
        <time>2010-09-14T16:38:49.158Z</time>
      </trkpt>
      <trkpt lat="45.20713" lon="1.14131">
        <ele>344.373413</ele>
        <time>2010-09-14T16:38:52.289Z</time>
      </trkpt>
      <trkpt lat="45.20722" lon="1.14107">
        <ele>344.373352</ele>
        <time>2010-09-14T16:38:55.361Z</time>
      </trkpt>
      <trkpt lat="45.20733" lon="1.14084">
        <ele>344.373291</ele>
        <time>2010-09-14T16:38:58.495Z</time>
      </trkpt>
      <trkpt lat="45.20746" lon="1.14064">
        <ele>344.37323</ele>
        <time>2010-09-14T16:39:01.647Z</time>
      </trkpt>
      <trkpt lat="45.20758" lon="1.14044">
        <ele>343.373199</ele>
        <time>2010-09-14T16:39:04.783Z</time>
      </trkpt>
      <trkpt lat="45.20763" lon="1.14019">
        <ele>342.373138</ele>
        <time>2010-09-14T16:39:07.985Z</time>
      </trkpt>
      <trkpt lat="45.20767" lon="1.13991">
        <ele>342.373047</ele>
        <time>2010-09-14T16:39:11.188Z</time>
      </trkpt>
      <trkpt lat="45.2077" lon="1.13961">
        <ele>342.372986</ele>
        <time>2010-09-14T16:39:14.386Z</time>
      </trkpt>
      <trkpt lat="45.20773" lon="1.1393">
        <ele>342.372894</ele>
        <time>2010-09-14T16:39:17.568Z</time>
      </trkpt>
      <trkpt lat="45.20776" lon="1.13898">
        <ele>341.372833</ele>
        <time>2010-09-14T16:39:20.727Z</time>
      </trkpt>
      <trkpt lat="45.2078" lon="1.13869">
        <ele>341.372742</ele>
        <time>2010-09-14T16:39:23.870Z</time>
      </trkpt>
      <trkpt lat="45.20775" lon="1.13843">
        <ele>341.372681</ele>
        <time>2010-09-14T16:39:28.586Z</time>
      </trkpt>
      <trkpt lat="45.20757" lon="1.13851">
        <ele>341.372711</ele>
        <time>2010-09-14T16:39:33.312Z</time>
      </trkpt>
      <trkpt lat="45.20738" lon="1.13863">
        <ele>340.372742</ele>
        <time>2010-09-14T16:39:38.146Z</time>
      </trkpt>
      <trkpt lat="45.20721" lon="1.13877">
        <ele>340.372772</ele>
        <time>2010-09-14T16:39:42.850Z</time>
      </trkpt>
      <trkpt lat="45.20705" lon="1.13896">
        <ele>339.372833</ele>
        <time>2010-09-14T16:39:47.698Z</time>
      </trkpt>
      <trkpt lat="45.20693" lon="1.13917">
        <ele>339.372864</ele>
        <time>2010-09-14T16:39:52.526Z</time>
      </trkpt>
      <trkpt lat="45.20678" lon="1.13935">
        <ele>339.372925</ele>
        <time>2010-09-14T16:39:57.253Z</time>
      </trkpt>
      <trkpt lat="45.20661" lon="1.1395">
        <ele>338.372955</ele>
        <time>2010-09-14T16:40:02.019Z</time>
      </trkpt>
      <trkpt lat="45.20645" lon="1.13962">
        <ele>338.372986</ele>
        <time>2010-09-14T16:40:06.004Z</time>
      </trkpt>
      <trkpt lat="45.20625" lon="1.13976">
        <ele>338.373016</ele>
        <time>2010-09-14T16:40:10.060Z</time>
      </trkpt>
      <trkpt lat="45.20609" lon="1.13988">
        <ele>338.373047</ele>
        <time>2010-09-14T16:40:13.271Z</time>
      </trkpt>
      <trkpt lat="45.20593" lon="1.14002">
        <ele>338.373077</ele>
        <time>2010-09-14T16:40:16.522Z</time>
      </trkpt>
      <trkpt lat="45.20579" lon="1.14018">
        <ele>338.373138</ele>
        <time>2010-09-14T16:40:19.776Z</time>
      </trkpt>
      <trkpt lat="45.20566" lon="1.14036">
        <ele>337.373169</ele>
        <time>2010-09-14T16:40:23.004Z</time>
      </trkpt>
      <trkpt lat="45.20551" lon="1.14055">
        <ele>338.37323</ele>
        <time>2010-09-14T16:40:26.982Z</time>
      </trkpt>
      <trkpt lat="45.20534" lon="1.14072">
        <ele>338.37326</ele>
        <time>2010-09-14T16:40:30.909Z</time>
      </trkpt>
      <trkpt lat="45.20518" lon="1.14088">
        <ele>337.373322</ele>
        <time>2010-09-14T16:40:34.898Z</time>
      </trkpt>
      <trkpt lat="45.20502" lon="1.14103">
        <ele>337.373352</ele>
        <time>2010-09-14T16:40:38.963Z</time>
      </trkpt>
      <trkpt lat="45.20486" lon="1.14124">
        <ele>337.373413</ele>
        <time>2010-09-14T16:40:43.836Z</time>
      </trkpt>
      <trkpt lat="45.20473" lon="1.14142">
        <ele>337.373444</ele>
        <time>2010-09-14T16:40:47.825Z</time>
      </trkpt>
      <trkpt lat="45.20457" lon="1.14156">
        <ele>337.373474</ele>
        <time>2010-09-14T16:40:51.841Z</time>
      </trkpt>
      <trkpt lat="45.20439" lon="1.14168">
        <ele>338.373505</ele>
        <time>2010-09-14T16:40:55.808Z</time>
      </trkpt>
      <trkpt lat="45.20423" lon="1.14186">
        <ele>338.373566</ele>
        <time>2010-09-14T16:40:59.767Z</time>
      </trkpt>
      <trkpt lat="45.20414" lon="1.1421">
        <ele>338.373596</ele>
        <time>2010-09-14T16:41:03.718Z</time>
      </trkpt>
      <trkpt lat="45.20402" lon="1.1423">
        <ele>338.373657</ele>
        <time>2010-09-14T16:41:07.746Z</time>
      </trkpt>
      <trkpt lat="45.20388" lon="1.14247">
        <ele>338.373718</ele>
        <time>2010-09-14T16:41:11.773Z</time>
      </trkpt>
      <trkpt lat="45.20372" lon="1.14264">
        <ele>338.373749</ele>
        <time>2010-09-14T16:41:15.756Z</time>
      </trkpt>
      <trkpt lat="45.20354" lon="1.1428">
        <ele>338.373779</ele>
        <time>2010-09-14T16:41:19.780Z</time>
      </trkpt>
      <trkpt lat="45.20334" lon="1.14293">
        <ele>338.37384</ele>
        <time>2010-09-14T16:41:23.812Z</time>
      </trkpt>
      <trkpt lat="45.20316" lon="1.14308">
        <ele>338.373871</ele>
        <time>2010-09-14T16:41:27.823Z</time>
      </trkpt>
      <trkpt lat="45.203" lon="1.14325">
        <ele>339.373901</ele>
        <time>2010-09-14T16:41:31.766Z</time>
      </trkpt>
      <trkpt lat="45.20284" lon="1.14346">
        <ele>339.373962</ele>
        <time>2010-09-14T16:41:36.556Z</time>
      </trkpt>
      <trkpt lat="45.20269" lon="1.14362">
        <ele>339.373993</ele>
        <time>2010-09-14T16:41:40.599Z</time>
      </trkpt>
      <trkpt lat="45.20252" lon="1.14375">
        <ele>334.374023</ele>
        <time>2010-09-14T16:43:38.291Z</time>
      </trkpt>
      <trkpt lat="45.20237" lon="1.14392">
        <ele>334.374084</ele>
        <time>2010-09-14T16:43:43.099Z</time>
      </trkpt>
      <trkpt lat="45.20219" lon="1.14398">
        <ele>334.374084</ele>
        <time>2010-09-14T16:43:47.215Z</time>
      </trkpt>
      <trkpt lat="45.20198" lon="1.14392">
        <ele>334.374084</ele>
        <time>2010-09-14T16:43:51.278Z</time>
      </trkpt>
      <trkpt lat="45.2018" lon="1.14384">
        <ele>333.374054</ele>
        <time>2010-09-14T16:43:54.517Z</time>
      </trkpt>
      <trkpt lat="45.20162" lon="1.14375">
        <ele>332.374023</ele>
        <time>2010-09-14T16:43:57.659Z</time>
      </trkpt>
      <trkpt lat="45.20144" lon="1.14363">
        <ele>332.374023</ele>
        <time>2010-09-14T16:44:00.800Z</time>
      </trkpt>
      <trkpt lat="45.20125" lon="1.1435">
        <ele>332.373962</ele>
        <time>2010-09-14T16:44:03.865Z</time>
      </trkpt>
      <trkpt lat="45.20105" lon="1.14337">
        <ele>332.373962</ele>
        <time>2010-09-14T16:44:06.981Z</time>
      </trkpt>
      <trkpt lat="45.20087" lon="1.14329">
        <ele>332.373932</ele>
        <time>2010-09-14T16:44:09.402Z</time>
      </trkpt>
      <trkpt lat="45.20068" lon="1.14321">
        <ele>332.373901</ele>
        <time>2010-09-14T16:44:11.792Z</time>
      </trkpt>
      <trkpt lat="45.20049" lon="1.14312">
        <ele>331.373901</ele>
        <time>2010-09-14T16:44:14.190Z</time>
      </trkpt>
      <trkpt lat="45.20031" lon="1.14297">
        <ele>331.37384</ele>
        <time>2010-09-14T16:44:16.594Z</time>
      </trkpt>
      <trkpt lat="45.20013" lon="1.14281">
        <ele>331.37381</ele>
        <time>2010-09-14T16:44:18.926Z</time>
      </trkpt>
      <trkpt lat="45.19992" lon="1.14262">
        <ele>330.373779</ele>
        <time>2010-09-14T16:44:21.283Z</time>
      </trkpt>
      <trkpt lat="45.19968" lon="1.14244">
        <ele>330.373718</ele>
        <time>2010-09-14T16:44:23.644Z</time>
      </trkpt>
      <trkpt lat="45.19942" lon="1.14229">
        <ele>330.373688</ele>
        <time>2010-09-14T16:44:26.015Z</time>
      </trkpt>
      <trkpt lat="45.19918" lon="1.14214">
        <ele>330.373657</ele>
        <time>2010-09-14T16:44:28.330Z</time>
      </trkpt>
      <trkpt lat="45.19897" lon="1.14201">
        <ele>330.373627</ele>
        <time>2010-09-14T16:44:30.702Z</time>
      </trkpt>
      <trkpt lat="45.19875" lon="1.14188">
        <ele>329.373596</ele>
        <time>2010-09-14T16:44:33.782Z</time>
      </trkpt>
      <trkpt lat="45.19858" lon="1.14177">
        <ele>329.373566</ele>
        <time>2010-09-14T16:44:36.907Z</time>
      </trkpt>
      <trkpt lat="45.19842" lon="1.14167">
        <ele>329.373535</ele>
        <time>2010-09-14T16:44:40.800Z</time>
      </trkpt>
      <trkpt lat="45.19824" lon="1.14184">
        <ele>329.373596</ele>
        <time>2010-09-14T16:44:45.582Z</time>
      </trkpt>
      <trkpt lat="45.19807" lon="1.14197">
        <ele>330.373627</ele>
        <time>2010-09-14T16:44:48.772Z</time>
      </trkpt>
      <trkpt lat="45.19788" lon="1.14209">
        <ele>330.373657</ele>
        <time>2010-09-14T16:44:51.978Z</time>
      </trkpt>
      <trkpt lat="45.19769" lon="1.14222">
        <ele>330.373688</ele>
        <time>2010-09-14T16:44:55.136Z</time>
      </trkpt>
      <trkpt lat="45.19748" lon="1.14237">
        <ele>331.373718</ele>
        <time>2010-09-14T16:44:58.248Z</time>
      </trkpt>
      <trkpt lat="45.19733" lon="1.14251">
        <ele>330.373749</ele>
        <time>2010-09-14T16:45:00.615Z</time>
      </trkpt>
      <trkpt lat="45.19719" lon="1.14268">
        <ele>329.37381</ele>
        <time>2010-09-14T16:45:02.978Z</time>
      </trkpt>
      <trkpt lat="45.19703" lon="1.14285">
        <ele>329.37384</ele>
        <time>2010-09-14T16:45:05.328Z</time>
      </trkpt>
      <trkpt lat="45.19687" lon="1.14305">
        <ele>329.373901</ele>
        <time>2010-09-14T16:45:07.734Z</time>
      </trkpt>
      <trkpt lat="45.19668" lon="1.14321">
        <ele>329.373932</ele>
        <time>2010-09-14T16:45:10.136Z</time>
      </trkpt>
      <trkpt lat="45.19648" lon="1.14333">
        <ele>329.373962</ele>
        <time>2010-09-14T16:45:12.535Z</time>
      </trkpt>
      <trkpt lat="45.19631" lon="1.14344">
        <ele>328.373993</ele>
        <time>2010-09-14T16:45:14.942Z</time>
      </trkpt>
      <trkpt lat="45.19614" lon="1.14364">
        <ele>328.374023</ele>
        <time>2010-09-14T16:45:18.135Z</time>
      </trkpt>
      <trkpt lat="45.19607" lon="1.14388">
        <ele>328.374084</ele>
        <time>2010-09-14T16:45:21.316Z</time>
      </trkpt>
      <trkpt lat="45.196" lon="1.14417">
        <ele>327.374176</ele>
        <time>2010-09-14T16:45:24.441Z</time>
      </trkpt>
      <trkpt lat="45.19592" lon="1.14442">
        <ele>326.374237</ele>
        <time>2010-09-14T16:45:26.837Z</time>
      </trkpt>
      <trkpt lat="45.19582" lon="1.14473">
        <ele>325.374329</ele>
        <time>2010-09-14T16:45:29.177Z</time>
      </trkpt>
      <trkpt lat="45.19573" lon="1.14504">
        <ele>324.37439</ele>
        <time>2010-09-14T16:45:31.551Z</time>
      </trkpt>
      <trkpt lat="45.19566" lon="1.14537">
        <ele>323.374451</ele>
        <time>2010-09-14T16:45:33.912Z</time>
      </trkpt>
      <trkpt lat="45.19556" lon="1.14566">
        <ele>322.374542</ele>
        <time>2010-09-14T16:45:36.267Z</time>
      </trkpt>
      <trkpt lat="45.19547" lon="1.14591">
        <ele>321.374603</ele>
        <time>2010-09-14T16:45:38.673Z</time>
      </trkpt>
      <trkpt lat="45.19538" lon="1.14614">
        <ele>319.374664</ele>
        <time>2010-09-14T16:45:41.080Z</time>
      </trkpt>
      <trkpt lat="45.19528" lon="1.14645">
        <ele>316.374725</ele>
        <time>2010-09-14T16:45:44.240Z</time>
      </trkpt>
      <trkpt lat="45.19521" lon="1.14675">
        <ele>314.374817</ele>
        <time>2010-09-14T16:45:47.353Z</time>
      </trkpt>
      <trkpt lat="45.19519" lon="1.14701">
        <ele>312.374878</ele>
        <time>2010-09-14T16:45:49.744Z</time>
      </trkpt>
      <trkpt lat="45.19518" lon="1.14727">
        <ele>310.374939</ele>
        <time>2010-09-14T16:45:52.177Z</time>
      </trkpt>
      <trkpt lat="45.19516" lon="1.14754">
        <ele>308.375</ele>
        <time>2010-09-14T16:45:54.600Z</time>
      </trkpt>
      <trkpt lat="45.19513" lon="1.1478">
        <ele>306.375061</ele>
        <time>2010-09-14T16:45:57.012Z</time>
      </trkpt>
      <trkpt lat="45.1951" lon="1.14806">
        <ele>305.375122</ele>
        <time>2010-09-14T16:45:59.456Z</time>
      </trkpt>
      <trkpt lat="45.19504" lon="1.14838">
        <ele>303.375214</ele>
        <time>2010-09-14T16:46:02.614Z</time>
      </trkpt>
      <trkpt lat="45.19495" lon="1.14866">
        <ele>302.375275</ele>
        <time>2010-09-14T16:46:05.856Z</time>
      </trkpt>
      <trkpt lat="45.19481" lon="1.14889">
        <ele>301.375336</ele>
        <time>2010-09-14T16:46:08.962Z</time>
      </trkpt>
      <trkpt lat="45.19465" lon="1.14911">
        <ele>300.375397</ele>
        <time>2010-09-14T16:46:12.135Z</time>
      </trkpt>
      <trkpt lat="45.19453" lon="1.14931">
        <ele>300.375427</ele>
        <time>2010-09-14T16:46:14.462Z</time>
      </trkpt>
      <trkpt lat="45.19437" lon="1.14955">
        <ele>300.375488</ele>
        <time>2010-09-14T16:46:17.600Z</time>
      </trkpt>
      <trkpt lat="45.19422" lon="1.14978">
        <ele>299.375549</ele>
        <time>2010-09-14T16:46:20.809Z</time>
      </trkpt>
      <trkpt lat="45.1941" lon="1.15001">
        <ele>298.37561</ele>
        <time>2010-09-14T16:46:23.982Z</time>
      </trkpt>
      <trkpt lat="45.19399" lon="1.15025">
        <ele>298.375671</ele>
        <time>2010-09-14T16:46:27.868Z</time>
      </trkpt>
      <trkpt lat="45.19387" lon="1.15049">
        <ele>297.375732</ele>
        <time>2010-09-14T16:46:31.715Z</time>
      </trkpt>
      <trkpt lat="45.19377" lon="1.15071">
        <ele>296.375793</ele>
        <time>2010-09-14T16:46:35.592Z</time>
      </trkpt>
      <trkpt lat="45.19366" lon="1.15096">
        <ele>295.375854</ele>
        <time>2010-09-14T16:46:40.985Z</time>
      </trkpt>
      <trkpt lat="45.19355" lon="1.15121">
        <ele>296.375916</ele>
        <time>2010-09-14T16:46:46.486Z</time>
      </trkpt>
      <trkpt lat="45.19344" lon="1.15145">
        <ele>295.375977</ele>
        <time>2010-09-14T16:46:51.191Z</time>
      </trkpt>
      <trkpt lat="45.19343" lon="1.15172">
        <ele>294.376038</ele>
        <time>2010-09-14T16:46:56.658Z</time>
      </trkpt>
      <trkpt lat="45.19349" lon="1.15196">
        <ele>293.376099</ele>
        <time>2010-09-14T16:47:02.921Z</time>
      </trkpt>
      <trkpt lat="45.19354" lon="1.15222">
        <ele>292.37616</ele>
        <time>2010-09-14T16:47:08.275Z</time>
      </trkpt>
      <trkpt lat="45.19358" lon="1.15249">
        <ele>292.376221</ele>
        <time>2010-09-14T16:47:12.941Z</time>
      </trkpt>
      <trkpt lat="45.19364" lon="1.15277">
        <ele>293.376282</ele>
        <time>2010-09-14T16:47:17.645Z</time>
      </trkpt>
      <trkpt lat="45.1937" lon="1.15304">
        <ele>292.376343</ele>
        <time>2010-09-14T16:47:21.640Z</time>
      </trkpt>
      <trkpt lat="45.19381" lon="1.15327">
        <ele>290.376404</ele>
        <time>2010-09-14T16:47:25.425Z</time>
      </trkpt>
      <trkpt lat="45.19394" lon="1.15351">
        <ele>289.376465</ele>
        <time>2010-09-14T16:47:29.953Z</time>
      </trkpt>
      <trkpt lat="45.19398" lon="1.15376">
        <ele>290.376526</ele>
        <time>2010-09-14T16:47:33.745Z</time>
      </trkpt>
      <trkpt lat="45.194" lon="1.15405">
        <ele>290.376587</ele>
        <time>2010-09-14T16:47:36.911Z</time>
      </trkpt>
      <trkpt lat="45.19401" lon="1.15432">
        <ele>290.376648</ele>
        <time>2010-09-14T16:47:39.285Z</time>
      </trkpt>
      <trkpt lat="45.19397" lon="1.15462">
        <ele>289.37674</ele>
        <time>2010-09-14T16:47:42.461Z</time>
      </trkpt>
      <trkpt lat="45.19401" lon="1.15491">
        <ele>288.376801</ele>
        <time>2010-09-14T16:47:45.624Z</time>
      </trkpt>
      <trkpt lat="45.19405" lon="1.15519">
        <ele>286.376892</ele>
        <time>2010-09-14T16:47:48.780Z</time>
      </trkpt>
      <trkpt lat="45.19413" lon="1.15547">
        <ele>284.376953</ele>
        <time>2010-09-14T16:47:51.933Z</time>
      </trkpt>
      <trkpt lat="45.19426" lon="1.15571">
        <ele>284.377014</ele>
        <time>2010-09-14T16:47:55.050Z</time>
      </trkpt>
      <trkpt lat="45.19439" lon="1.15595">
        <ele>283.377075</ele>
        <time>2010-09-14T16:47:58.172Z</time>
      </trkpt>
      <trkpt lat="45.19453" lon="1.15619">
        <ele>281.377136</ele>
        <time>2010-09-14T16:48:01.294Z</time>
      </trkpt>
      <trkpt lat="45.19464" lon="1.15651">
        <ele>280.377197</ele>
        <time>2010-09-14T16:48:04.413Z</time>
      </trkpt>
      <trkpt lat="45.19471" lon="1.15678">
        <ele>278.377258</ele>
        <time>2010-09-14T16:48:06.760Z</time>
      </trkpt>
      <trkpt lat="45.19468" lon="1.15704">
        <ele>276.377319</ele>
        <time>2010-09-14T16:48:12.288Z</time>
      </trkpt>
      <trkpt lat="45.1945" lon="1.15712">
        <ele>274.37735</ele>
        <time>2010-09-14T16:48:19.218Z</time>
      </trkpt>
      <trkpt lat="45.19431" lon="1.15724">
        <ele>274.37738</ele>
        <time>2010-09-14T16:48:26.160Z</time>
      </trkpt>
      <trkpt lat="45.19413" lon="1.15733">
        <ele>273.377411</ele>
        <time>2010-09-14T16:48:32.330Z</time>
      </trkpt>
      <trkpt lat="45.19394" lon="1.15733">
        <ele>274.377411</ele>
        <time>2010-09-14T16:48:38.456Z</time>
      </trkpt>
      <trkpt lat="45.19374" lon="1.15737">
        <ele>276.377411</ele>
        <time>2010-09-14T16:48:44.612Z</time>
      </trkpt>
      <trkpt lat="45.19355" lon="1.15744">
        <ele>275.377441</ele>
        <time>2010-09-14T16:48:50.842Z</time>
      </trkpt>
      <trkpt lat="45.19337" lon="1.15755">
        <ele>275.377472</ele>
        <time>2010-09-14T16:48:57.304Z</time>
      </trkpt>
      <trkpt lat="45.1932" lon="1.15771">
        <ele>275.377502</ele>
        <time>2010-09-14T16:49:03.613Z</time>
      </trkpt>
      <trkpt lat="45.19304" lon="1.15788">
        <ele>275.377533</ele>
        <time>2010-09-14T16:49:09.869Z</time>
      </trkpt>
      <trkpt lat="45.19284" lon="1.15795">
        <ele>275.377563</ele>
        <time>2010-09-14T16:49:15.344Z</time>
      </trkpt>
      <trkpt lat="45.19266" lon="1.1579">
        <ele>276.377563</ele>
        <time>2010-09-14T16:49:20.014Z</time>
      </trkpt>
      <trkpt lat="45.19251" lon="1.15774">
        <ele>276.377502</ele>
        <time>2010-09-14T16:49:24.687Z</time>
      </trkpt>
      <trkpt lat="45.19238" lon="1.15752">
        <ele>277.377441</ele>
        <time>2010-09-14T16:49:30.276Z</time>
      </trkpt>
      <trkpt lat="45.19226" lon="1.1573">
        <ele>278.377411</ele>
        <time>2010-09-14T16:49:35.871Z</time>
      </trkpt>
      <trkpt lat="45.19217" lon="1.15705">
        <ele>280.37735</ele>
        <time>2010-09-14T16:49:42.207Z</time>
      </trkpt>
      <trkpt lat="45.19217" lon="1.15677">
        <ele>281.377258</ele>
        <time>2010-09-14T16:49:48.457Z</time>
      </trkpt>
      <trkpt lat="45.1922" lon="1.15649">
        <ele>281.377197</ele>
        <time>2010-09-14T16:49:54.783Z</time>
      </trkpt>
      <trkpt lat="45.19221" lon="1.15622">
        <ele>281.377136</ele>
        <time>2010-09-14T16:50:01.031Z</time>
      </trkpt>
      <trkpt lat="45.19209" lon="1.15598">
        <ele>283.377075</ele>
        <time>2010-09-14T16:50:07.306Z</time>
      </trkpt>
      <trkpt lat="45.19194" lon="1.15578">
        <ele>285.377045</ele>
        <time>2010-09-14T16:50:13.507Z</time>
      </trkpt>
      <trkpt lat="45.1918" lon="1.15559">
        <ele>287.376984</ele>
        <time>2010-09-14T16:50:18.962Z</time>
      </trkpt>
      <trkpt lat="45.19164" lon="1.15545">
        <ele>290.376953</ele>
        <time>2010-09-14T16:50:24.364Z</time>
      </trkpt>
      <trkpt lat="45.19145" lon="1.15536">
        <ele>294.376923</ele>
        <time>2010-09-14T16:50:30.480Z</time>
      </trkpt>
      <trkpt lat="45.19127" lon="1.15533">
        <ele>294.376923</ele>
        <time>2010-09-14T16:50:36.570Z</time>
      </trkpt>
      <trkpt lat="45.19108" lon="1.15532">
        <ele>297.376923</ele>
        <time>2010-09-14T16:50:41.936Z</time>
      </trkpt>
      <trkpt lat="45.1909" lon="1.15531">
        <ele>300.376923</ele>
        <time>2010-09-14T16:50:47.355Z</time>
      </trkpt>
      <trkpt lat="45.19071" lon="1.15529">
        <ele>301.376923</ele>
        <time>2010-09-14T16:50:52.757Z</time>
      </trkpt>
      <trkpt lat="45.19052" lon="1.15528">
        <ele>301.376923</ele>
        <time>2010-09-14T16:50:58.044Z</time>
      </trkpt>
      <trkpt lat="45.19033" lon="1.15527">
        <ele>302.376923</ele>
        <time>2010-09-14T16:51:02.552Z</time>
      </trkpt>
      <trkpt lat="45.19014" lon="1.15526">
        <ele>302.376923</ele>
        <time>2010-09-14T16:51:07.098Z</time>
      </trkpt>
      <trkpt lat="45.18995" lon="1.15524">
        <ele>302.376923</ele>
        <time>2010-09-14T16:51:11.699Z</time>
      </trkpt>
      <trkpt lat="45.18975" lon="1.15522">
        <ele>303.376892</ele>
        <time>2010-09-14T16:51:16.312Z</time>
      </trkpt>
      <trkpt lat="45.18955" lon="1.15519">
        <ele>304.376892</ele>
        <time>2010-09-14T16:51:20.915Z</time>
      </trkpt>
      <trkpt lat="45.18937" lon="1.15528">
        <ele>303.376923</ele>
        <time>2010-09-14T16:51:24.858Z</time>
      </trkpt>
      <trkpt lat="45.1892" lon="1.15542">
        <ele>301.376953</ele>
        <time>2010-09-14T16:51:28.772Z</time>
      </trkpt>
      <trkpt lat="45.18903" lon="1.15558">
        <ele>299.376984</ele>
        <time>2010-09-14T16:51:32.705Z</time>
      </trkpt>
      <trkpt lat="45.18887" lon="1.15576">
        <ele>297.377045</ele>
        <time>2010-09-14T16:51:36.676Z</time>
      </trkpt>
      <trkpt lat="45.18872" lon="1.15594">
        <ele>295.377075</ele>
        <time>2010-09-14T16:51:40.683Z</time>
      </trkpt>
      <trkpt lat="45.18858" lon="1.15611">
        <ele>293.377136</ele>
        <time>2010-09-14T16:51:44.668Z</time>
      </trkpt>
      <trkpt lat="45.18842" lon="1.1563">
        <ele>293.377167</ele>
        <time>2010-09-14T16:51:49.290Z</time>
      </trkpt>
      <trkpt lat="45.18825" lon="1.15648">
        <ele>293.377228</ele>
        <time>2010-09-14T16:51:54.058Z</time>
      </trkpt>
      <trkpt lat="45.1881" lon="1.15662">
        <ele>293.377258</ele>
        <time>2010-09-14T16:51:57.960Z</time>
      </trkpt>
      <trkpt lat="45.18793" lon="1.15679">
        <ele>293.377289</ele>
        <time>2010-09-14T16:52:01.882Z</time>
      </trkpt>
      <trkpt lat="45.18775" lon="1.15698">
        <ele>292.37735</ele>
        <time>2010-09-14T16:52:05.808Z</time>
      </trkpt>
      <trkpt lat="45.1876" lon="1.15716">
        <ele>291.37738</ele>
        <time>2010-09-14T16:52:09.015Z</time>
      </trkpt>
      <trkpt lat="45.18746" lon="1.15734">
        <ele>291.377441</ele>
        <time>2010-09-14T16:52:12.240Z</time>
      </trkpt>
      <trkpt lat="45.18732" lon="1.15753">
        <ele>291.377472</ele>
        <time>2010-09-14T16:52:15.401Z</time>
      </trkpt>
      <trkpt lat="45.18716" lon="1.15775">
        <ele>290.377533</ele>
        <time>2010-09-14T16:52:19.393Z</time>
      </trkpt>
      <trkpt lat="45.18702" lon="1.15793">
        <ele>289.377563</ele>
        <time>2010-09-14T16:52:23.378Z</time>
      </trkpt>
      <trkpt lat="45.18686" lon="1.15811">
        <ele>289.377625</ele>
        <time>2010-09-14T16:52:28.059Z</time>
      </trkpt>
      <trkpt lat="45.1867" lon="1.15823">
        <ele>289.377655</ele>
        <time>2010-09-14T16:52:31.976Z</time>
      </trkpt>
      <trkpt lat="45.18652" lon="1.15836">
        <ele>290.377686</ele>
        <time>2010-09-14T16:52:35.883Z</time>
      </trkpt>
      <trkpt lat="45.18633" lon="1.1585">
        <ele>291.377716</ele>
        <time>2010-09-14T16:52:39.877Z</time>
      </trkpt>
      <trkpt lat="45.18614" lon="1.15865">
        <ele>291.377747</ele>
        <time>2010-09-14T16:52:43.873Z</time>
      </trkpt>
      <trkpt lat="45.18594" lon="1.15878">
        <ele>290.377777</ele>
        <time>2010-09-14T16:52:47.871Z</time>
      </trkpt>
      <trkpt lat="45.18574" lon="1.15889">
        <ele>290.377808</ele>
        <time>2010-09-14T16:52:51.877Z</time>
      </trkpt>
      <trkpt lat="45.18554" lon="1.15901">
        <ele>290.377838</ele>
        <time>2010-09-14T16:52:55.802Z</time>
      </trkpt>
      <trkpt lat="45.18534" lon="1.15912">
        <ele>290.377869</ele>
        <time>2010-09-14T16:52:59.721Z</time>
      </trkpt>
      <trkpt lat="45.18515" lon="1.15924">
        <ele>291.377899</ele>
        <time>2010-09-14T16:53:03.646Z</time>
      </trkpt>
      <trkpt lat="45.18495" lon="1.15937">
        <ele>292.37793</ele>
        <time>2010-09-14T16:53:07.514Z</time>
      </trkpt>
      <trkpt lat="45.18475" lon="1.15951">
        <ele>293.37796</ele>
        <time>2010-09-14T16:53:11.415Z</time>
      </trkpt>
      <trkpt lat="45.1846" lon="1.15966">
        <ele>293.377991</ele>
        <time>2010-09-14T16:53:14.619Z</time>
      </trkpt>
      <trkpt lat="45.18443" lon="1.15986">
        <ele>293.378052</ele>
        <time>2010-09-14T16:53:18.618Z</time>
      </trkpt>
      <trkpt lat="45.18427" lon="1.16008">
        <ele>292.378113</ele>
        <time>2010-09-14T16:53:22.588Z</time>
      </trkpt>
      <trkpt lat="45.18411" lon="1.1603">
        <ele>291.378174</ele>
        <time>2010-09-14T16:53:26.431Z</time>
      </trkpt>
      <trkpt lat="45.18405" lon="1.16056">
        <ele>288.378235</ele>
        <time>2010-09-14T16:53:31.862Z</time>
      </trkpt>
      <trkpt lat="45.18415" lon="1.1608">
        <ele>287.378296</ele>
        <time>2010-09-14T16:53:36.463Z</time>
      </trkpt>
      <trkpt lat="45.18425" lon="1.16104">
        <ele>287.378357</ele>
        <time>2010-09-14T16:53:39.593Z</time>
      </trkpt>
      <trkpt lat="45.18437" lon="1.1613">
        <ele>288.378418</ele>
        <time>2010-09-14T16:53:42.743Z</time>
      </trkpt>
      <trkpt lat="45.18448" lon="1.16155">
        <ele>288.378479</ele>
        <time>2010-09-14T16:53:45.902Z</time>
      </trkpt>
      <trkpt lat="45.18459" lon="1.1618">
        <ele>288.37854</ele>
        <time>2010-09-14T16:53:48.996Z</time>
      </trkpt>
      <trkpt lat="45.1847" lon="1.16207">
        <ele>288.378601</ele>
        <time>2010-09-14T16:53:52.210Z</time>
      </trkpt>
      <trkpt lat="45.18481" lon="1.16232">
        <ele>289.378662</ele>
        <time>2010-09-14T16:53:55.314Z</time>
      </trkpt>
      <trkpt lat="45.18494" lon="1.16253">
        <ele>288.378693</ele>
        <time>2010-09-14T16:53:58.426Z</time>
      </trkpt>
      <trkpt lat="45.18508" lon="1.16275">
        <ele>287.378754</ele>
        <time>2010-09-14T16:54:01.539Z</time>
      </trkpt>
      <trkpt lat="45.18525" lon="1.16295">
        <ele>285.378815</ele>
        <time>2010-09-14T16:54:04.666Z</time>
      </trkpt>
      <trkpt lat="45.18543" lon="1.16315">
        <ele>284.378845</ele>
        <time>2010-09-14T16:54:07.809Z</time>
      </trkpt>
      <trkpt lat="45.18559" lon="1.16334">
        <ele>282.378906</ele>
        <time>2010-09-14T16:54:11.634Z</time>
      </trkpt>
      <trkpt lat="45.18572" lon="1.16351">
        <ele>281.378937</ele>
        <time>2010-09-14T16:54:15.521Z</time>
      </trkpt>
      <trkpt lat="45.18585" lon="1.16375">
        <ele>281.378998</ele>
        <time>2010-09-14T16:54:19.434Z</time>
      </trkpt>
      <trkpt lat="45.186" lon="1.16396">
        <ele>279.379059</ele>
        <time>2010-09-14T16:54:23.336Z</time>
      </trkpt>
      <trkpt lat="45.18615" lon="1.16413">
        <ele>277.379089</ele>
        <time>2010-09-14T16:54:28.721Z</time>
      </trkpt>
      <trkpt lat="45.18631" lon="1.16431">
        <ele>276.37915</ele>
        <time>2010-09-14T16:54:32.628Z</time>
      </trkpt>
      <trkpt lat="45.18647" lon="1.16452">
        <ele>275.379181</ele>
        <time>2010-09-14T16:54:36.594Z</time>
      </trkpt>
      <trkpt lat="45.18659" lon="1.16473">
        <ele>273.379242</ele>
        <time>2010-09-14T16:54:40.561Z</time>
      </trkpt>
      <trkpt lat="45.18671" lon="1.16493">
        <ele>269.379272</ele>
        <time>2010-09-14T16:54:44.590Z</time>
      </trkpt>
      <trkpt lat="45.18683" lon="1.16514">
        <ele>265.379333</ele>
        <time>2010-09-14T16:54:48.600Z</time>
      </trkpt>
      <trkpt lat="45.18697" lon="1.16535">
        <ele>261.379395</ele>
        <time>2010-09-14T16:54:52.460Z</time>
      </trkpt>
      <trkpt lat="45.18712" lon="1.16557">
        <ele>257.379425</ele>
        <time>2010-09-14T16:54:56.353Z</time>
      </trkpt>
      <trkpt lat="45.18723" lon="1.16578">
        <ele>254.379486</ele>
        <time>2010-09-14T16:55:00.257Z</time>
      </trkpt>
      <trkpt lat="45.18728" lon="1.16606">
        <ele>250.379562</ele>
        <time>2010-09-14T16:55:04.873Z</time>
      </trkpt>
      <trkpt lat="45.18726" lon="1.16636">
        <ele>244.379639</ele>
        <time>2010-09-14T16:55:09.681Z</time>
      </trkpt>
      <trkpt lat="45.18725" lon="1.16668">
        <ele>239.3797</ele>
        <time>2010-09-14T16:55:13.694Z</time>
      </trkpt>
      <trkpt lat="45.18723" lon="1.16694">
        <ele>235.379776</ele>
        <time>2010-09-14T16:55:17.016Z</time>
      </trkpt>
      <trkpt lat="45.18732" lon="1.16717">
        <ele>233.379822</ele>
        <time>2010-09-14T16:55:24.866Z</time>
      </trkpt>
      <trkpt lat="45.18751" lon="1.16719">
        <ele>235.379837</ele>
        <time>2010-09-14T16:55:35.154Z</time>
      </trkpt>
      <trkpt lat="45.18771" lon="1.16723">
        <ele>237.379837</ele>
        <time>2010-09-14T16:55:42.520Z</time>
      </trkpt>
      <trkpt lat="45.1879" lon="1.16722">
        <ele>242.379837</ele>
        <time>2010-09-14T16:55:49.107Z</time>
      </trkpt>
      <trkpt lat="45.18809" lon="1.16728">
        <ele>245.379852</ele>
        <time>2010-09-14T16:55:56.528Z</time>
      </trkpt>
      <trkpt lat="45.18827" lon="1.16732">
        <ele>246.379868</ele>
        <time>2010-09-14T16:56:07.625Z</time>
      </trkpt>
      <trkpt lat="45.18846" lon="1.16729">
        <ele>247.379852</ele>
        <time>2010-09-14T16:56:20.299Z</time>
      </trkpt>
      <trkpt lat="45.18864" lon="1.16723">
        <ele>249.379837</ele>
        <time>2010-09-14T16:56:31.441Z</time>
      </trkpt>
      <trkpt lat="45.18883" lon="1.16718">
        <ele>252.379822</ele>
        <time>2010-09-14T16:56:41.159Z</time>
      </trkpt>
      <trkpt lat="45.18902" lon="1.16715">
        <ele>252.379822</ele>
        <time>2010-09-14T16:56:48.732Z</time>
      </trkpt>
      <trkpt lat="45.18922" lon="1.16712">
        <ele>252.379822</ele>
        <time>2010-09-14T16:56:56.083Z</time>
      </trkpt>
      <trkpt lat="45.18941" lon="1.1671">
        <ele>252.379807</ele>
        <time>2010-09-14T16:57:03.439Z</time>
      </trkpt>
      <trkpt lat="45.18961" lon="1.16712">
        <ele>251.379807</ele>
        <time>2010-09-14T16:57:10.111Z</time>
      </trkpt>
      <trkpt lat="45.1898" lon="1.16717">
        <ele>252.379822</ele>
        <time>2010-09-14T16:57:16.788Z</time>
      </trkpt>
      <trkpt lat="45.18999" lon="1.16729">
        <ele>252.379852</ele>
        <time>2010-09-14T16:57:23.448Z</time>
      </trkpt>
      <trkpt lat="45.19014" lon="1.16744">
        <ele>252.379883</ele>
        <time>2010-09-14T16:57:29.982Z</time>
      </trkpt>
      <trkpt lat="45.19031" lon="1.16755">
        <ele>249.379913</ele>
        <time>2010-09-14T16:57:35.934Z</time>
      </trkpt>
      <trkpt lat="45.19049" lon="1.16747">
        <ele>252.379898</ele>
        <time>2010-09-14T16:57:49.417Z</time>
      </trkpt>
      <trkpt lat="45.19067" lon="1.16738">
        <ele>254.379868</ele>
        <time>2010-09-14T16:58:03.179Z</time>
      </trkpt>
      <trkpt lat="45.19085" lon="1.16736">
        <ele>256.379852</ele>
        <time>2010-09-14T16:58:14.414Z</time>
      </trkpt>
      <trkpt lat="45.19089" lon="1.16762">
        <ele>255.379929</ele>
        <time>2010-09-14T16:58:32.922Z</time>
      </trkpt>
      <trkpt lat="45.19087" lon="1.16789">
        <ele>254.380005</ele>
        <time>2010-09-14T16:58:37.704Z</time>
      </trkpt>
      <trkpt lat="45.19094" lon="1.16814">
        <ele>253.380066</ele>
        <time>2010-09-14T16:58:41.598Z</time>
      </trkpt>
      <trkpt lat="45.19106" lon="1.16837">
        <ele>254.380096</ele>
        <time>2010-09-14T16:58:46.216Z</time>
      </trkpt>
      <trkpt lat="45.19117" lon="1.16857">
        <ele>255.380157</ele>
        <time>2010-09-14T16:58:52.353Z</time>
      </trkpt>
      <trkpt lat="45.19126" lon="1.1688">
        <ele>258.380219</ele>
        <time>2010-09-14T16:58:58.420Z</time>
      </trkpt>
      <trkpt lat="45.19136" lon="1.16902">
        <ele>259.38028</ele>
        <time>2010-09-14T16:59:05.293Z</time>
      </trkpt>
      <trkpt lat="45.19144" lon="1.16927">
        <ele>261.380341</ele>
        <time>2010-09-14T16:59:11.461Z</time>
      </trkpt>
      <trkpt lat="45.19154" lon="1.16949">
        <ele>264.380371</ele>
        <time>2010-09-14T16:59:18.461Z</time>
      </trkpt>
      <trkpt lat="45.19165" lon="1.1697">
        <ele>265.380432</ele>
        <time>2010-09-14T16:59:25.422Z</time>
      </trkpt>
      <trkpt lat="45.19176" lon="1.16991">
        <ele>266.380493</ele>
        <time>2010-09-14T16:59:36.074Z</time>
      </trkpt>
      <trkpt lat="45.19188" lon="1.17012">
        <ele>270.380554</ele>
        <time>2010-09-14T16:59:49.225Z</time>
      </trkpt>
      <trkpt lat="45.19202" lon="1.17031">
        <ele>271.380585</ele>
        <time>2010-09-14T16:59:57.755Z</time>
      </trkpt>
      <trkpt lat="45.19213" lon="1.17066">
        <ele>270.380676</ele>
        <time>2010-09-14T17:00:27.829Z</time>
      </trkpt>
      <trkpt lat="45.19215" lon="1.17092">
        <ele>272.380737</ele>
        <time>2010-09-14T17:00:45.668Z</time>
      </trkpt>
      <trkpt lat="45.19216" lon="1.17124">
        <ele>273.380798</ele>
        <time>2010-09-14T17:01:05.466Z</time>
      </trkpt>
      <trkpt lat="45.19213" lon="1.17153">
        <ele>275.38089</ele>
        <time>2010-09-14T17:01:19.068Z</time>
      </trkpt>
      <trkpt lat="45.19215" lon="1.17179">
        <ele>272.380951</ele>
        <time>2010-09-14T17:01:52.430Z</time>
      </trkpt>
      <trkpt lat="45.19213" lon="1.17205">
        <ele>278.381012</ele>
        <time>2010-09-14T17:02:35.034Z</time>
      </trkpt>
      <trkpt lat="45.19203" lon="1.17226">
        <ele>284.381042</ele>
        <time>2010-09-14T17:03:04.346Z</time>
      </trkpt>
      <trkpt lat="45.19192" lon="1.17248">
        <ele>285.381104</ele>
        <time>2010-09-14T17:03:22.744Z</time>
      </trkpt>
      <trkpt lat="45.19179" lon="1.17266">
        <ele>287.381165</ele>
        <time>2010-09-14T17:03:34.915Z</time>
      </trkpt>
      <trkpt lat="45.1917" lon="1.17289">
        <ele>292.381226</ele>
        <time>2010-09-14T17:03:46.437Z</time>
      </trkpt>
      <trkpt lat="45.1916" lon="1.17311">
        <ele>297.381256</ele>
        <time>2010-09-14T17:03:58.758Z</time>
      </trkpt>
      <trkpt lat="45.19149" lon="1.17333">
        <ele>298.381317</ele>
        <time>2010-09-14T17:04:11.070Z</time>
      </trkpt>
      <trkpt lat="45.19138" lon="1.17354">
        <ele>299.381378</ele>
        <time>2010-09-14T17:04:25.885Z</time>
      </trkpt>
      <trkpt lat="45.19127" lon="1.17375">
        <ele>302.381409</ele>
        <time>2010-09-14T17:04:42.277Z</time>
      </trkpt>
      <trkpt lat="45.19121" lon="1.174">
        <ele>306.38147</ele>
        <time>2010-09-14T17:04:57.229Z</time>
      </trkpt>
      <trkpt lat="45.19117" lon="1.17427">
        <ele>308.381561</ele>
        <time>2010-09-14T17:05:08.927Z</time>
      </trkpt>
      <trkpt lat="45.19118" lon="1.17453">
        <ele>310.381622</ele>
        <time>2010-09-14T17:05:19.219Z</time>
      </trkpt>
      <trkpt lat="45.19128" lon="1.17476">
        <ele>312.381653</ele>
        <time>2010-09-14T17:05:28.570Z</time>
      </trkpt>
      <trkpt lat="45.19141" lon="1.17495">
        <ele>314.381714</ele>
        <time>2010-09-14T17:05:37.058Z</time>
      </trkpt>
      <trkpt lat="45.19155" lon="1.17512">
        <ele>316.381775</ele>
        <time>2010-09-14T17:05:42.399Z</time>
      </trkpt>
      <trkpt lat="45.19169" lon="1.17532">
        <ele>318.381805</ele>
        <time>2010-09-14T17:05:47.756Z</time>
      </trkpt>
      <trkpt lat="45.19183" lon="1.17552">
        <ele>319.381866</ele>
        <time>2010-09-14T17:05:53.117Z</time>
      </trkpt>
      <trkpt lat="45.19197" lon="1.17574">
        <ele>319.381897</ele>
        <time>2010-09-14T17:05:59.155Z</time>
      </trkpt>
      <trkpt lat="45.19211" lon="1.17592">
        <ele>319.381958</ele>
        <time>2010-09-14T17:06:04.473Z</time>
      </trkpt>
      <trkpt lat="45.19227" lon="1.1761">
        <ele>318.381989</ele>
        <time>2010-09-14T17:06:10.704Z</time>
      </trkpt>
      <trkpt lat="45.19243" lon="1.17627">
        <ele>318.382019</ele>
        <time>2010-09-14T17:06:17.609Z</time>
      </trkpt>
      <trkpt lat="45.19258" lon="1.17644">
        <ele>318.38208</ele>
        <time>2010-09-14T17:06:23.737Z</time>
      </trkpt>
      <trkpt lat="45.19273" lon="1.17661">
        <ele>319.382111</ele>
        <time>2010-09-14T17:06:29.744Z</time>
      </trkpt>
      <trkpt lat="45.19287" lon="1.17677">
        <ele>319.382172</ele>
        <time>2010-09-14T17:06:36.510Z</time>
      </trkpt>
      <trkpt lat="45.19303" lon="1.1769">
        <ele>319.382202</ele>
        <time>2010-09-14T17:06:43.648Z</time>
      </trkpt>
      <trkpt lat="45.1932" lon="1.1768">
        <ele>320.382172</ele>
        <time>2010-09-14T17:06:48.428Z</time>
      </trkpt>
      <trkpt lat="45.19334" lon="1.17659">
        <ele>321.382111</ele>
        <time>2010-09-14T17:06:51.537Z</time>
      </trkpt>
      <trkpt lat="45.19348" lon="1.17638">
        <ele>321.38208</ele>
        <time>2010-09-14T17:06:54.567Z</time>
      </trkpt>
      <trkpt lat="45.19361" lon="1.17616">
        <ele>322.382019</ele>
        <time>2010-09-14T17:06:58.383Z</time>
      </trkpt>
      <trkpt lat="45.19375" lon="1.17594">
        <ele>323.381958</ele>
        <time>2010-09-14T17:07:03.687Z</time>
      </trkpt>
      <trkpt lat="45.19389" lon="1.17574">
        <ele>324.381897</ele>
        <time>2010-09-14T17:07:09.011Z</time>
      </trkpt>
      <trkpt lat="45.19405" lon="1.17558">
        <ele>325.381866</ele>
        <time>2010-09-14T17:07:14.417Z</time>
      </trkpt>
      <trkpt lat="45.19423" lon="1.17548">
        <ele>325.381836</ele>
        <time>2010-09-14T17:07:19.197Z</time>
      </trkpt>
      <trkpt lat="45.19443" lon="1.17541">
        <ele>325.381836</ele>
        <time>2010-09-14T17:07:23.879Z</time>
      </trkpt>
      <trkpt lat="45.19459" lon="1.17527">
        <ele>325.381775</ele>
        <time>2010-09-14T17:07:30.890Z</time>
      </trkpt>
      <trkpt lat="45.19473" lon="1.17507">
        <ele>327.381744</ele>
        <time>2010-09-14T17:07:39.607Z</time>
      </trkpt>
      <trkpt lat="45.19487" lon="1.17489">
        <ele>328.381714</ele>
        <time>2010-09-14T17:07:46.686Z</time>
      </trkpt>
      <trkpt lat="45.19502" lon="1.17471">
        <ele>329.381653</ele>
        <time>2010-09-14T17:07:53.528Z</time>
      </trkpt>
      <trkpt lat="45.19518" lon="1.17454">
        <ele>330.381622</ele>
        <time>2010-09-14T17:08:00.510Z</time>
      </trkpt>
      <trkpt lat="45.1953" lon="1.17434">
        <ele>331.381561</ele>
        <time>2010-09-14T17:08:07.380Z</time>
      </trkpt>
      <trkpt lat="45.19541" lon="1.17411">
        <ele>330.3815</ele>
        <time>2010-09-14T17:08:15.124Z</time>
      </trkpt>
      <trkpt lat="45.19551" lon="1.17389">
        <ele>330.38147</ele>
        <time>2010-09-14T17:08:23.563Z</time>
      </trkpt>
      <trkpt lat="45.19561" lon="1.17366">
        <ele>330.381409</ele>
        <time>2010-09-14T17:08:31.303Z</time>
      </trkpt>
      <trkpt lat="45.1957" lon="1.17342">
        <ele>330.381348</ele>
        <time>2010-09-14T17:08:38.231Z</time>
      </trkpt>
      <trkpt lat="45.19581" lon="1.17318">
        <ele>331.381287</ele>
        <time>2010-09-14T17:08:45.151Z</time>
      </trkpt>
      <trkpt lat="45.19592" lon="1.17297">
        <ele>332.381226</ele>
        <time>2010-09-14T17:08:52.164Z</time>
      </trkpt>
      <trkpt lat="45.19605" lon="1.17278">
        <ele>332.381165</ele>
        <time>2010-09-14T17:08:59.797Z</time>
      </trkpt>
      <trkpt lat="45.19616" lon="1.17258">
        <ele>332.381134</ele>
        <time>2010-09-14T17:09:09.739Z</time>
      </trkpt>
      <trkpt lat="45.19634" lon="1.17272">
        <ele>332.381165</ele>
        <time>2010-09-14T17:09:24.406Z</time>
      </trkpt>
      <trkpt lat="45.19645" lon="1.17293">
        <ele>332.381226</ele>
        <time>2010-09-14T17:09:30.424Z</time>
      </trkpt>
      <trkpt lat="45.19658" lon="1.17315">
        <ele>331.381287</ele>
        <time>2010-09-14T17:09:36.469Z</time>
      </trkpt>
      <trkpt lat="45.19672" lon="1.17338">
        <ele>331.381317</ele>
        <time>2010-09-14T17:09:42.666Z</time>
      </trkpt>
      <trkpt lat="45.19683" lon="1.17359">
        <ele>331.381378</ele>
        <time>2010-09-14T17:09:48.091Z</time>
      </trkpt>
      <trkpt lat="45.19696" lon="1.1738">
        <ele>331.381409</ele>
        <time>2010-09-14T17:09:53.563Z</time>
      </trkpt>
      <trkpt lat="45.19707" lon="1.17401">
        <ele>330.38147</ele>
        <time>2010-09-14T17:09:58.863Z</time>
      </trkpt>
      <trkpt lat="45.19719" lon="1.17422">
        <ele>329.381531</ele>
        <time>2010-09-14T17:10:04.258Z</time>
      </trkpt>
      <trkpt lat="45.19736" lon="1.17432">
        <ele>329.381561</ele>
        <time>2010-09-14T17:10:10.367Z</time>
      </trkpt>
      <trkpt lat="45.19751" lon="1.17419">
        <ele>329.381531</ele>
        <time>2010-09-14T17:10:17.356Z</time>
      </trkpt>
      <trkpt lat="45.19765" lon="1.174">
        <ele>329.38147</ele>
        <time>2010-09-14T17:10:28.888Z</time>
      </trkpt>
      <trkpt lat="45.1978" lon="1.1738">
        <ele>330.381409</ele>
        <time>2010-09-14T17:10:33.878Z</time>
      </trkpt>
      <trkpt lat="45.19791" lon="1.17357">
        <ele>330.381378</ele>
        <time>2010-09-14T17:10:38.168Z</time>
      </trkpt>
      <trkpt lat="45.19801" lon="1.17332">
        <ele>331.381287</ele>
        <time>2010-09-14T17:10:42.590Z</time>
      </trkpt>
      <trkpt lat="45.19813" lon="1.17308">
        <ele>331.381256</ele>
        <time>2010-09-14T17:10:47.085Z</time>
      </trkpt>
      <trkpt lat="45.19826" lon="1.17285">
        <ele>331.381195</ele>
        <time>2010-09-14T17:10:51.566Z</time>
      </trkpt>
      <trkpt lat="45.19838" lon="1.17261">
        <ele>331.381134</ele>
        <time>2010-09-14T17:10:56.094Z</time>
      </trkpt>
      <trkpt lat="45.1985" lon="1.17235">
        <ele>332.381073</ele>
        <time>2010-09-14T17:11:00.572Z</time>
      </trkpt>
      <trkpt lat="45.1986" lon="1.17214">
        <ele>333.381012</ele>
        <time>2010-09-14T17:11:04.264Z</time>
      </trkpt>
      <trkpt lat="45.19872" lon="1.1719">
        <ele>335.380951</ele>
        <time>2010-09-14T17:11:08.072Z</time>
      </trkpt>
      <trkpt lat="45.1988" lon="1.17164">
        <ele>338.38089</ele>
        <time>2010-09-14T17:11:13.320Z</time>
      </trkpt>
      <trkpt lat="45.19888" lon="1.17138">
        <ele>339.380829</ele>
        <time>2010-09-14T17:11:17.185Z</time>
      </trkpt>
      <trkpt lat="45.19895" lon="1.17114">
        <ele>337.380768</ele>
        <time>2010-09-14T17:11:21.030Z</time>
      </trkpt>
      <trkpt lat="45.19902" lon="1.17089">
        <ele>336.380707</ele>
        <time>2010-09-14T17:11:25.629Z</time>
      </trkpt>
      <trkpt lat="45.19909" lon="1.17063">
        <ele>335.380646</ele>
        <time>2010-09-14T17:11:30.908Z</time>
      </trkpt>
      <trkpt lat="45.19915" lon="1.17035">
        <ele>335.380585</ele>
        <time>2010-09-14T17:11:35.547Z</time>
      </trkpt>
      <trkpt lat="45.19923" lon="1.17007">
        <ele>334.380493</ele>
        <time>2010-09-14T17:11:39.488Z</time>
      </trkpt>
      <trkpt lat="45.1994" lon="1.16992">
        <ele>333.380463</ele>
        <time>2010-09-14T17:11:45.197Z</time>
      </trkpt>
      <trkpt lat="45.1996" lon="1.16993">
        <ele>333.380493</ele>
        <time>2010-09-14T17:11:50.486Z</time>
      </trkpt>
      <trkpt lat="45.19979" lon="1.16993">
        <ele>334.380463</ele>
        <time>2010-09-14T17:11:55.149Z</time>
      </trkpt>
      <trkpt lat="45.19998" lon="1.16995">
        <ele>334.380493</ele>
        <time>2010-09-14T17:12:00.331Z</time>
      </trkpt>
      <trkpt lat="45.20017" lon="1.16998">
        <ele>335.380493</ele>
        <time>2010-09-14T17:12:06.387Z</time>
      </trkpt>
      <trkpt lat="45.20037" lon="1.17001">
        <ele>335.380493</ele>
        <time>2010-09-14T17:12:13.291Z</time>
      </trkpt>
      <trkpt lat="45.20057" lon="1.17004">
        <ele>334.380493</ele>
        <time>2010-09-14T17:12:20.219Z</time>
      </trkpt>
      <trkpt lat="45.20076" lon="1.17006">
        <ele>334.380493</ele>
        <time>2010-09-14T17:12:28.013Z</time>
      </trkpt>
      <trkpt lat="45.20095" lon="1.17006">
        <ele>335.380493</ele>
        <time>2010-09-14T17:12:38.015Z</time>
      </trkpt>
      <trkpt lat="45.20115" lon="1.17006">
        <ele>334.380493</ele>
        <time>2010-09-14T17:12:46.309Z</time>
      </trkpt>
      <trkpt lat="45.20134" lon="1.1701">
        <ele>333.380493</ele>
        <time>2010-09-14T17:12:53.841Z</time>
      </trkpt>
      <trkpt lat="45.20153" lon="1.17017">
        <ele>332.380524</ele>
        <time>2010-09-14T17:13:00.719Z</time>
      </trkpt>
      <trkpt lat="45.2017" lon="1.17024">
        <ele>332.380554</ele>
        <time>2010-09-14T17:13:07.001Z</time>
      </trkpt>
      <trkpt lat="45.20188" lon="1.17032">
        <ele>333.380554</ele>
        <time>2010-09-14T17:13:13.291Z</time>
      </trkpt>
      <trkpt lat="45.20205" lon="1.17039">
        <ele>333.380585</ele>
        <time>2010-09-14T17:13:19.516Z</time>
      </trkpt>
      <trkpt lat="45.20223" lon="1.17045">
        <ele>334.380585</ele>
        <time>2010-09-14T17:13:25.740Z</time>
      </trkpt>
      <trkpt lat="45.20241" lon="1.1705">
        <ele>334.380615</ele>
        <time>2010-09-14T17:13:32.677Z</time>
      </trkpt>
      <trkpt lat="45.20259" lon="1.17054">
        <ele>335.380615</ele>
        <time>2010-09-14T17:13:39.664Z</time>
      </trkpt>
      <trkpt lat="45.20277" lon="1.17058">
        <ele>335.380615</ele>
        <time>2010-09-14T17:13:46.622Z</time>
      </trkpt>
      <trkpt lat="45.20297" lon="1.17053">
        <ele>336.380615</ele>
        <time>2010-09-14T17:13:54.285Z</time>
      </trkpt>
      <trkpt lat="45.2031" lon="1.1703">
        <ele>336.380554</ele>
        <time>2010-09-14T17:13:59.435Z</time>
      </trkpt>
      <trkpt lat="45.20322" lon="1.17006">
        <ele>337.380493</ele>
        <time>2010-09-14T17:14:03.934Z</time>
      </trkpt>
      <trkpt lat="45.20333" lon="1.16984">
        <ele>338.380432</ele>
        <time>2010-09-14T17:14:07.691Z</time>
      </trkpt>
      <trkpt lat="45.20345" lon="1.16963">
        <ele>339.380402</ele>
        <time>2010-09-14T17:14:11.477Z</time>
      </trkpt>
      <trkpt lat="45.20358" lon="1.16941">
        <ele>340.380341</ele>
        <time>2010-09-14T17:14:15.905Z</time>
      </trkpt>
      <trkpt lat="45.20371" lon="1.1692">
        <ele>341.38028</ele>
        <time>2010-09-14T17:14:20.396Z</time>
      </trkpt>
      <trkpt lat="45.20383" lon="1.169">
        <ele>343.380249</ele>
        <time>2010-09-14T17:14:25.554Z</time>
      </trkpt>
      <trkpt lat="45.20395" lon="1.16879">
        <ele>346.380188</ele>
        <time>2010-09-14T17:14:31.409Z</time>
      </trkpt>
      <trkpt lat="45.20407" lon="1.16857">
        <ele>347.380127</ele>
        <time>2010-09-14T17:14:37.470Z</time>
      </trkpt>
      <trkpt lat="45.20417" lon="1.16833">
        <ele>347.380066</ele>
        <time>2010-09-14T17:14:44.252Z</time>
      </trkpt>
      <trkpt lat="45.20428" lon="1.16808">
        <ele>348.380005</ele>
        <time>2010-09-14T17:14:49.649Z</time>
      </trkpt>
      <trkpt lat="45.2044" lon="1.16786">
        <ele>348.379944</ele>
        <time>2010-09-14T17:14:53.414Z</time>
      </trkpt>
      <trkpt lat="45.20453" lon="1.16761">
        <ele>348.379883</ele>
        <time>2010-09-14T17:14:57.050Z</time>
      </trkpt>
      <trkpt lat="45.20465" lon="1.16739">
        <ele>349.379822</ele>
        <time>2010-09-14T17:14:59.976Z</time>
      </trkpt>
      <trkpt lat="45.20476" lon="1.16715">
        <ele>349.379761</ele>
        <time>2010-09-14T17:15:02.933Z</time>
      </trkpt>
      <trkpt lat="45.20485" lon="1.16689">
        <ele>348.3797</ele>
        <time>2010-09-14T17:15:05.897Z</time>
      </trkpt>
      <trkpt lat="45.20491" lon="1.1666">
        <ele>349.379639</ele>
        <time>2010-09-14T17:15:08.987Z</time>
      </trkpt>
      <trkpt lat="45.20493" lon="1.1663">
        <ele>348.379578</ele>
        <time>2010-09-14T17:15:12.131Z</time>
      </trkpt>
      <trkpt lat="45.20492" lon="1.16601">
        <ele>347.379517</ele>
        <time>2010-09-14T17:15:15.291Z</time>
      </trkpt>
      <trkpt lat="45.20491" lon="1.16574">
        <ele>347.379425</ele>
        <time>2010-09-14T17:15:18.395Z</time>
      </trkpt>
      <trkpt lat="45.2049" lon="1.16547">
        <ele>346.379364</ele>
        <time>2010-09-14T17:15:21.486Z</time>
      </trkpt>
      <trkpt lat="45.20489" lon="1.1652">
        <ele>346.379303</ele>
        <time>2010-09-14T17:15:24.545Z</time>
      </trkpt>
      <trkpt lat="45.20489" lon="1.16493">
        <ele>345.379211</ele>
        <time>2010-09-14T17:15:27.594Z</time>
      </trkpt>
      <trkpt lat="45.20491" lon="1.16464">
        <ele>345.37915</ele>
        <time>2010-09-14T17:15:30.676Z</time>
      </trkpt>
      <trkpt lat="45.20496" lon="1.16434">
        <ele>345.379089</ele>
        <time>2010-09-14T17:15:33.792Z</time>
      </trkpt>
      <trkpt lat="45.20503" lon="1.16406">
        <ele>344.378998</ele>
        <time>2010-09-14T17:15:36.943Z</time>
      </trkpt>
      <trkpt lat="45.20509" lon="1.16378">
        <ele>344.378937</ele>
        <time>2010-09-14T17:15:40.065Z</time>
      </trkpt>
      <trkpt lat="45.20515" lon="1.16351">
        <ele>344.378876</ele>
        <time>2010-09-14T17:15:43.195Z</time>
      </trkpt>
      <trkpt lat="45.20519" lon="1.16324">
        <ele>343.378815</ele>
        <time>2010-09-14T17:15:46.325Z</time>
      </trkpt>
      <trkpt lat="45.20522" lon="1.16298">
        <ele>343.378754</ele>
        <time>2010-09-14T17:15:49.407Z</time>
      </trkpt>
      <trkpt lat="45.20524" lon="1.16266">
        <ele>342.378662</ele>
        <time>2010-09-14T17:15:53.301Z</time>
      </trkpt>
      <trkpt lat="45.20526" lon="1.16239">
        <ele>341.378601</ele>
        <time>2010-09-14T17:15:57.150Z</time>
      </trkpt>
      <trkpt lat="45.20526" lon="1.16211">
        <ele>341.37854</ele>
        <time>2010-09-14T17:16:01.749Z</time>
      </trkpt>
      <trkpt lat="45.20527" lon="1.16181">
        <ele>341.378448</ele>
        <time>2010-09-14T17:16:06.459Z</time>
      </trkpt>
      <trkpt lat="45.20528" lon="1.16155">
        <ele>341.378418</ele>
        <time>2010-09-14T17:16:10.414Z</time>
      </trkpt>
      <trkpt lat="45.20529" lon="1.16126">
        <ele>342.378326</ele>
        <time>2010-09-14T17:16:15.177Z</time>
      </trkpt>
      <trkpt lat="45.2053" lon="1.16097">
        <ele>343.378235</ele>
        <time>2010-09-14T17:16:19.677Z</time>
      </trkpt>
      <trkpt lat="45.20531" lon="1.16067">
        <ele>343.378174</ele>
        <time>2010-09-14T17:16:24.389Z</time>
      </trkpt>
      <trkpt lat="45.20536" lon="1.1604">
        <ele>344.378113</ele>
        <time>2010-09-14T17:16:28.988Z</time>
      </trkpt>
      <trkpt lat="45.20539" lon="1.16013">
        <ele>344.378052</ele>
        <time>2010-09-14T17:16:33.509Z</time>
      </trkpt>
      <trkpt lat="45.20546" lon="1.15987">
        <ele>345.377991</ele>
        <time>2010-09-14T17:16:38.081Z</time>
      </trkpt>
      <trkpt lat="45.20555" lon="1.15962">
        <ele>346.37793</ele>
        <time>2010-09-14T17:16:42.681Z</time>
      </trkpt>
      <trkpt lat="45.20562" lon="1.15939">
        <ele>346.377869</ele>
        <time>2010-09-14T17:16:47.230Z</time>
      </trkpt>
      <trkpt lat="45.2057" lon="1.15913">
        <ele>347.377808</ele>
        <time>2010-09-14T17:16:52.606Z</time>
      </trkpt>
      <trkpt lat="45.20579" lon="1.1589">
        <ele>349.377747</ele>
        <time>2010-09-14T17:16:57.898Z</time>
      </trkpt>
      <trkpt lat="45.20588" lon="1.15865">
        <ele>350.377686</ele>
        <time>2010-09-14T17:17:03.953Z</time>
      </trkpt>
      <trkpt lat="45.20596" lon="1.15842">
        <ele>350.377625</ele>
        <time>2010-09-14T17:17:09.921Z</time>
      </trkpt>
      <trkpt lat="45.20604" lon="1.15819">
        <ele>351.377563</ele>
        <time>2010-09-14T17:17:16.688Z</time>
      </trkpt>
      <trkpt lat="45.20613" lon="1.15794">
        <ele>352.377502</ele>
        <time>2010-09-14T17:17:24.219Z</time>
      </trkpt>
      <trkpt lat="45.20622" lon="1.15771">
        <ele>352.377441</ele>
        <time>2010-09-14T17:17:31.777Z</time>
      </trkpt>
      <trkpt lat="45.2063" lon="1.15747">
        <ele>351.37738</ele>
        <time>2010-09-14T17:17:38.634Z</time>
      </trkpt>
      <trkpt lat="45.20636" lon="1.1572">
        <ele>353.377319</ele>
        <time>2010-09-14T17:17:45.599Z</time>
      </trkpt>
      <trkpt lat="45.20639" lon="1.15693">
        <ele>354.377258</ele>
        <time>2010-09-14T17:17:52.625Z</time>
      </trkpt>
      <trkpt lat="45.20642" lon="1.15666">
        <ele>354.377197</ele>
        <time>2010-09-14T17:17:59.493Z</time>
      </trkpt>
      <trkpt lat="45.20647" lon="1.15639">
        <ele>356.377136</ele>
        <time>2010-09-14T17:18:06.342Z</time>
      </trkpt>
      <trkpt lat="45.20653" lon="1.15613">
        <ele>357.377075</ele>
        <time>2010-09-14T17:18:11.875Z</time>
      </trkpt>
      <trkpt lat="45.2066" lon="1.15587">
        <ele>358.376984</ele>
        <time>2010-09-14T17:18:16.572Z</time>
      </trkpt>
      <trkpt lat="45.20666" lon="1.15561">
        <ele>358.376923</ele>
        <time>2010-09-14T17:18:21.280Z</time>
      </trkpt>
      <trkpt lat="45.20674" lon="1.15533">
        <ele>357.376862</ele>
        <time>2010-09-14T17:18:26.079Z</time>
      </trkpt>
      <trkpt lat="45.20681" lon="1.15508">
        <ele>357.376801</ele>
        <time>2010-09-14T17:18:29.736Z</time>
      </trkpt>
      <trkpt lat="45.20687" lon="1.15482">
        <ele>356.37674</ele>
        <time>2010-09-14T17:18:33.580Z</time>
      </trkpt>
      <trkpt lat="45.20692" lon="1.15457">
        <ele>356.376678</ele>
        <time>2010-09-14T17:18:37.482Z</time>
      </trkpt>
      <trkpt lat="45.20697" lon="1.1543">
        <ele>357.376587</ele>
        <time>2010-09-14T17:18:41.364Z</time>
      </trkpt>
      <trkpt lat="45.20702" lon="1.15405">
        <ele>356.376556</ele>
        <time>2010-09-14T17:18:45.273Z</time>
      </trkpt>
      <trkpt lat="45.20707" lon="1.15379">
        <ele>356.376465</ele>
        <time>2010-09-14T17:18:49.176Z</time>
      </trkpt>
      <trkpt lat="45.20711" lon="1.15354">
        <ele>357.376404</ele>
        <time>2010-09-14T17:18:53.069Z</time>
      </trkpt>
      <trkpt lat="45.20715" lon="1.15329">
        <ele>357.376343</ele>
        <time>2010-09-14T17:18:56.981Z</time>
      </trkpt>
      <trkpt lat="45.2072" lon="1.15302">
        <ele>357.376282</ele>
        <time>2010-09-14T17:19:00.880Z</time>
      </trkpt>
      <trkpt lat="45.20725" lon="1.15275">
        <ele>357.376221</ele>
        <time>2010-09-14T17:19:04.732Z</time>
      </trkpt>
      <trkpt lat="45.20732" lon="1.15245">
        <ele>357.37616</ele>
        <time>2010-09-14T17:19:08.645Z</time>
      </trkpt>
      <trkpt lat="45.20738" lon="1.15217">
        <ele>357.376068</ele>
        <time>2010-09-14T17:19:12.539Z</time>
      </trkpt>
      <trkpt lat="45.20744" lon="1.15188">
        <ele>357.376007</ele>
        <time>2010-09-14T17:19:16.333Z</time>
      </trkpt>
      <trkpt lat="45.20753" lon="1.15162">
        <ele>358.375946</ele>
        <time>2010-09-14T17:19:20.112Z</time>
      </trkpt>
      <trkpt lat="45.20773" lon="1.15159">
        <ele>357.375946</ele>
        <time>2010-09-14T17:19:24.648Z</time>
      </trkpt>
      <trkpt lat="45.20788" lon="1.15175">
        <ele>358.375977</ele>
        <time>2010-09-14T17:19:28.581Z</time>
      </trkpt>
      <trkpt lat="45.20794" lon="1.15204">
        <ele>357.376038</ele>
        <time>2010-09-14T17:19:32.455Z</time>
      </trkpt>
      <trkpt lat="45.20797" lon="1.15229">
        <ele>357.376099</ele>
        <time>2010-09-14T17:19:36.308Z</time>
      </trkpt>
      <trkpt lat="45.20807" lon="1.15256">
        <ele>357.37616</ele>
        <time>2010-09-14T17:19:40.865Z</time>
      </trkpt>
      <trkpt lat="45.2081" lon="1.15281">
        <ele>357.376221</ele>
        <time>2010-09-14T17:19:44.593Z</time>
      </trkpt>
      <trkpt lat="45.20811" lon="1.15308">
        <ele>358.376282</ele>
        <time>2010-09-14T17:19:48.739Z</time>
      </trkpt>
      <trkpt lat="45.20814" lon="1.15338">
        <ele>358.376373</ele>
        <time>2010-09-14T17:19:52.424Z</time>
      </trkpt>
      <trkpt lat="45.2082" lon="1.15365">
        <ele>358.376434</ele>
        <time>2010-09-14T17:19:56.263Z</time>
      </trkpt>
      <trkpt lat="45.20827" lon="1.15391">
        <ele>357.376495</ele>
        <time>2010-09-14T17:20:00.888Z</time>
      </trkpt>
      <trkpt lat="45.20836" lon="1.15415">
        <ele>357.376556</ele>
        <time>2010-09-14T17:20:05.427Z</time>
      </trkpt>
      <trkpt lat="45.20845" lon="1.15439">
        <ele>356.376617</ele>
        <time>2010-09-14T17:20:10.715Z</time>
      </trkpt>
      <trkpt lat="45.20856" lon="1.15471">
        <ele>354.376709</ele>
        <time>2010-09-14T17:21:44.421Z</time>
      </trkpt>
      <trkpt lat="45.20867" lon="1.15493">
        <ele>353.37674</ele>
        <time>2010-09-14T17:21:48.955Z</time>
      </trkpt>
      <trkpt lat="45.20879" lon="1.15516">
        <ele>351.376801</ele>
        <time>2010-09-14T17:21:53.373Z</time>
      </trkpt>
      <trkpt lat="45.20891" lon="1.15537">
        <ele>350.376862</ele>
        <time>2010-09-14T17:21:57.031Z</time>
      </trkpt>
      <trkpt lat="45.20909" lon="1.15556">
        <ele>350.376892</ele>
        <time>2010-09-14T17:22:00.592Z</time>
      </trkpt>
      <trkpt lat="45.20927" lon="1.15568">
        <ele>348.376953</ele>
        <time>2010-09-14T17:22:04.259Z</time>
      </trkpt>
      <trkpt lat="45.20944" lon="1.15555">
        <ele>346.376892</ele>
        <time>2010-09-14T17:22:09.380Z</time>
      </trkpt>
      <trkpt lat="45.20945" lon="1.15527">
        <ele>347.376831</ele>
        <time>2010-09-14T17:22:13.039Z</time>
      </trkpt>
      <trkpt lat="45.20946" lon="1.15499">
        <ele>348.37677</ele>
        <time>2010-09-14T17:22:16.744Z</time>
      </trkpt>
      <trkpt lat="45.20948" lon="1.15473">
        <ele>348.376709</ele>
        <time>2010-09-14T17:22:21.078Z</time>
      </trkpt>
      <trkpt lat="45.20939" lon="1.15445">
        <ele>348.376648</ele>
        <time>2010-09-14T17:22:24.850Z</time>
      </trkpt>
      <trkpt lat="45.20927" lon="1.1542">
        <ele>348.376587</ele>
        <time>2010-09-14T17:22:27.877Z</time>
      </trkpt>
      <trkpt lat="45.20911" lon="1.15396">
        <ele>348.376526</ele>
        <time>2010-09-14T17:22:30.878Z</time>
      </trkpt>
      <trkpt lat="45.20894" lon="1.15372">
        <ele>348.376465</ele>
        <time>2010-09-14T17:22:33.835Z</time>
      </trkpt>
      <trkpt lat="45.20884" lon="1.15349">
        <ele>348.376404</ele>
        <time>2010-09-14T17:22:36.119Z</time>
      </trkpt>
      <trkpt lat="45.20881" lon="1.15322">
        <ele>347.376343</ele>
        <time>2010-09-14T17:22:38.394Z</time>
      </trkpt>
      <trkpt lat="45.20885" lon="1.15292">
        <ele>347.376251</ele>
        <time>2010-09-14T17:22:40.801Z</time>
      </trkpt>
      <trkpt lat="45.20889" lon="1.15262">
        <ele>345.37619</ele>
        <time>2010-09-14T17:22:43.264Z</time>
      </trkpt>
      <trkpt lat="45.20893" lon="1.15234">
        <ele>345.376099</ele>
        <time>2010-09-14T17:22:45.669Z</time>
      </trkpt>
      <trkpt lat="45.20896" lon="1.15206">
        <ele>343.376038</ele>
        <time>2010-09-14T17:22:48.055Z</time>
      </trkpt>
      <trkpt lat="45.209" lon="1.15178">
        <ele>342.375977</ele>
        <time>2010-09-14T17:22:50.456Z</time>
      </trkpt>
      <trkpt lat="45.20903" lon="1.15151">
        <ele>341.375916</ele>
        <time>2010-09-14T17:22:52.854Z</time>
      </trkpt>
      <trkpt lat="45.20905" lon="1.15124">
        <ele>340.375854</ele>
        <time>2010-09-14T17:22:55.197Z</time>
      </trkpt>
      <trkpt lat="45.20908" lon="1.15097">
        <ele>338.375763</ele>
        <time>2010-09-14T17:22:57.555Z</time>
      </trkpt>
      <trkpt lat="45.20911" lon="1.15071">
        <ele>337.375702</ele>
        <time>2010-09-14T17:22:59.904Z</time>
      </trkpt>
      <trkpt lat="45.20914" lon="1.15044">
        <ele>336.375641</ele>
        <time>2010-09-14T17:23:02.266Z</time>
      </trkpt>
      <trkpt lat="45.20918" lon="1.15018">
        <ele>335.37558</ele>
        <time>2010-09-14T17:23:04.621Z</time>
      </trkpt>
      <trkpt lat="45.20923" lon="1.14992">
        <ele>335.375519</ele>
        <time>2010-09-14T17:23:06.993Z</time>
      </trkpt>
      <trkpt lat="45.20929" lon="1.14966">
        <ele>334.375458</ele>
        <time>2010-09-14T17:23:09.407Z</time>
      </trkpt>
      <trkpt lat="45.20937" lon="1.14941">
        <ele>333.375397</ele>
        <time>2010-09-14T17:23:11.792Z</time>
      </trkpt>
      <trkpt lat="45.20947" lon="1.14916">
        <ele>333.375336</ele>
        <time>2010-09-14T17:23:14.186Z</time>
      </trkpt>
      <trkpt lat="45.20958" lon="1.14892">
        <ele>333.375275</ele>
        <time>2010-09-14T17:23:16.567Z</time>
      </trkpt>
      <trkpt lat="45.2097" lon="1.1487">
        <ele>332.375214</ele>
        <time>2010-09-14T17:23:18.889Z</time>
      </trkpt>
      <trkpt lat="45.20984" lon="1.14852">
        <ele>331.375183</ele>
        <time>2010-09-14T17:23:21.180Z</time>
      </trkpt>
      <trkpt lat="45.21001" lon="1.14831">
        <ele>330.375122</ele>
        <time>2010-09-14T17:23:24.262Z</time>
      </trkpt>
      <trkpt lat="45.21017" lon="1.14812">
        <ele>330.375061</ele>
        <time>2010-09-14T17:23:27.137Z</time>
      </trkpt>
      <trkpt lat="45.21037" lon="1.14812">
        <ele>330.375061</ele>
        <time>2010-09-14T17:23:30.750Z</time>
      </trkpt>
      <trkpt lat="45.21051" lon="1.14835">
        <ele>331.375122</ele>
        <time>2010-09-14T17:23:33.735Z</time>
      </trkpt>
      <trkpt lat="45.21065" lon="1.14857">
        <ele>331.375183</ele>
        <time>2010-09-14T17:23:36.114Z</time>
      </trkpt>
      <trkpt lat="45.21078" lon="1.14881">
        <ele>331.375244</ele>
        <time>2010-09-14T17:23:38.593Z</time>
      </trkpt>
      <trkpt lat="45.21091" lon="1.14907">
        <ele>330.375305</ele>
        <time>2010-09-14T17:23:40.970Z</time>
      </trkpt>
      <trkpt lat="45.21104" lon="1.14932">
        <ele>330.375366</ele>
        <time>2010-09-14T17:23:43.349Z</time>
      </trkpt>
      <trkpt lat="45.21116" lon="1.14955">
        <ele>328.375427</ele>
        <time>2010-09-14T17:23:45.699Z</time>
      </trkpt>
      <trkpt lat="45.21129" lon="1.14977">
        <ele>328.375458</ele>
        <time>2010-09-14T17:23:48.029Z</time>
      </trkpt>
      <trkpt lat="45.21143" lon="1.15">
        <ele>327.375519</ele>
        <time>2010-09-14T17:23:50.288Z</time>
      </trkpt>
      <trkpt lat="45.21159" lon="1.15027">
        <ele>325.37558</ele>
        <time>2010-09-14T17:23:52.541Z</time>
      </trkpt>
      <trkpt lat="45.21176" lon="1.15053">
        <ele>323.375641</ele>
        <time>2010-09-14T17:23:54.803Z</time>
      </trkpt>
      <trkpt lat="45.21196" lon="1.15065">
        <ele>321.375671</ele>
        <time>2010-09-14T17:23:57.105Z</time>
      </trkpt>
      <trkpt lat="45.21216" lon="1.15074">
        <ele>320.375702</ele>
        <time>2010-09-14T17:23:59.388Z</time>
      </trkpt>
      <trkpt lat="45.21234" lon="1.15086">
        <ele>319.375732</ele>
        <time>2010-09-14T17:24:01.666Z</time>
      </trkpt>
      <trkpt lat="45.21249" lon="1.15101">
        <ele>317.375763</ele>
        <time>2010-09-14T17:24:03.917Z</time>
      </trkpt>
      <trkpt lat="45.21266" lon="1.15115">
        <ele>315.375793</ele>
        <time>2010-09-14T17:24:06.212Z</time>
      </trkpt>
      <trkpt lat="45.21283" lon="1.15129">
        <ele>313.375854</ele>
        <time>2010-09-14T17:24:08.504Z</time>
      </trkpt>
      <trkpt lat="45.213" lon="1.15144">
        <ele>311.375885</ele>
        <time>2010-09-14T17:24:10.874Z</time>
      </trkpt>
      <trkpt lat="45.21317" lon="1.15157">
        <ele>309.375916</ele>
        <time>2010-09-14T17:24:13.214Z</time>
      </trkpt>
      <trkpt lat="45.21335" lon="1.15168">
        <ele>307.375916</ele>
        <time>2010-09-14T17:24:15.552Z</time>
      </trkpt>
      <trkpt lat="45.21354" lon="1.15175">
        <ele>305.375946</ele>
        <time>2010-09-14T17:24:17.873Z</time>
      </trkpt>
      <trkpt lat="45.21374" lon="1.1518">
        <ele>304.375946</ele>
        <time>2010-09-14T17:24:20.130Z</time>
      </trkpt>
      <trkpt lat="45.21393" lon="1.15182">
        <ele>302.375977</ele>
        <time>2010-09-14T17:24:22.474Z</time>
      </trkpt>
      <trkpt lat="45.21413" lon="1.15183">
        <ele>301.375977</ele>
        <time>2010-09-14T17:24:24.820Z</time>
      </trkpt>
      <trkpt lat="45.21431" lon="1.15184">
        <ele>300.375977</ele>
        <time>2010-09-14T17:24:27.147Z</time>
      </trkpt>
      <trkpt lat="45.21454" lon="1.15194">
        <ele>299.375977</ele>
        <time>2010-09-14T17:24:30.199Z</time>
      </trkpt>
      <trkpt lat="45.21472" lon="1.15214">
        <ele>298.376038</ele>
        <time>2010-09-14T17:24:33.208Z</time>
      </trkpt>
      <trkpt lat="45.21489" lon="1.15236">
        <ele>297.376099</ele>
        <time>2010-09-14T17:24:36.254Z</time>
      </trkpt>
      <trkpt lat="45.21505" lon="1.15256">
        <ele>294.376129</ele>
        <time>2010-09-14T17:24:39.322Z</time>
      </trkpt>
      <trkpt lat="45.21526" lon="1.15269">
        <ele>292.37616</ele>
        <time>2010-09-14T17:24:42.415Z</time>
      </trkpt>
      <trkpt lat="45.21547" lon="1.15277">
        <ele>291.37619</ele>
        <time>2010-09-14T17:24:45.561Z</time>
      </trkpt>
      <trkpt lat="45.21568" lon="1.15285">
        <ele>289.376221</ele>
        <time>2010-09-14T17:24:48.626Z</time>
      </trkpt>
      <trkpt lat="45.21588" lon="1.15286">
        <ele>287.376221</ele>
        <time>2010-09-14T17:24:51.712Z</time>
      </trkpt>
      <trkpt lat="45.21608" lon="1.1528">
        <ele>286.37619</ele>
        <time>2010-09-14T17:24:54.736Z</time>
      </trkpt>
      <trkpt lat="45.21628" lon="1.1528">
        <ele>287.37619</ele>
        <time>2010-09-14T17:24:57.605Z</time>
      </trkpt>
      <trkpt lat="45.21646" lon="1.15287">
        <ele>288.376221</ele>
        <time>2010-09-14T17:25:00.488Z</time>
      </trkpt>
      <trkpt lat="45.21667" lon="1.15296">
        <ele>289.376221</ele>
        <time>2010-09-14T17:25:03.393Z</time>
      </trkpt>
      <trkpt lat="45.21689" lon="1.15302">
        <ele>289.376251</ele>
        <time>2010-09-14T17:25:06.278Z</time>
      </trkpt>
      <trkpt lat="45.21709" lon="1.1531">
        <ele>288.376282</ele>
        <time>2010-09-14T17:25:09.286Z</time>
      </trkpt>
      <trkpt lat="45.2173" lon="1.15326">
        <ele>286.376312</ele>
        <time>2010-09-14T17:25:12.287Z</time>
      </trkpt>
      <trkpt lat="45.21747" lon="1.15337">
        <ele>284.376343</ele>
        <time>2010-09-14T17:25:14.558Z</time>
      </trkpt>
      <trkpt lat="45.21766" lon="1.15339">
        <ele>283.376343</ele>
        <time>2010-09-14T17:25:16.830Z</time>
      </trkpt>
      <trkpt lat="45.21784" lon="1.15335">
        <ele>282.376312</ele>
        <time>2010-09-14T17:25:19.059Z</time>
      </trkpt>
      <trkpt lat="45.21803" lon="1.15331">
        <ele>281.376312</ele>
        <time>2010-09-14T17:25:22.092Z</time>
      </trkpt>
      <trkpt lat="45.21818" lon="1.1535">
        <ele>279.376343</ele>
        <time>2010-09-14T17:25:27.453Z</time>
      </trkpt>
      <trkpt lat="45.21823" lon="1.15377">
        <ele>276.376434</ele>
        <time>2010-09-14T17:25:32.650Z</time>
      </trkpt>
      <trkpt lat="45.21827" lon="1.15403">
        <ele>275.376495</ele>
        <time>2010-09-14T17:25:40.683Z</time>
      </trkpt>
      <trkpt lat="45.21833" lon="1.15431">
        <ele>277.376556</ele>
        <time>2010-09-14T17:25:51.252Z</time>
      </trkpt>
      <trkpt lat="45.21839" lon="1.15457">
        <ele>277.376617</ele>
        <time>2010-09-14T17:26:02.033Z</time>
      </trkpt>
      <trkpt lat="45.21845" lon="1.15482">
        <ele>278.376678</ele>
        <time>2010-09-14T17:26:12.812Z</time>
      </trkpt>
      <trkpt lat="45.21852" lon="1.15507">
        <ele>279.37674</ele>
        <time>2010-09-14T17:26:22.638Z</time>
      </trkpt>
      <trkpt lat="45.21858" lon="1.15532">
        <ele>280.376801</ele>
        <time>2010-09-14T17:26:30.794Z</time>
      </trkpt>
      <trkpt lat="45.21863" lon="1.15556">
        <ele>282.376862</ele>
        <time>2010-09-14T17:26:38.207Z</time>
      </trkpt>
      <trkpt lat="45.21869" lon="1.15582">
        <ele>283.376923</ele>
        <time>2010-09-14T17:26:44.977Z</time>
      </trkpt>
      <trkpt lat="45.21874" lon="1.15606">
        <ele>283.376984</ele>
        <time>2010-09-14T17:26:51.013Z</time>
      </trkpt>
      <trkpt lat="45.21882" lon="1.1563">
        <ele>284.377045</ele>
        <time>2010-09-14T17:26:56.223Z</time>
      </trkpt>
      <trkpt lat="45.21893" lon="1.15651">
        <ele>286.377106</ele>
        <time>2010-09-14T17:27:01.408Z</time>
      </trkpt>
      <trkpt lat="45.21906" lon="1.15672">
        <ele>288.377136</ele>
        <time>2010-09-14T17:27:05.912Z</time>
      </trkpt>
      <trkpt lat="45.21918" lon="1.15694">
        <ele>289.377197</ele>
        <time>2010-09-14T17:27:10.526Z</time>
      </trkpt>
      <trkpt lat="45.21935" lon="1.15677">
        <ele>290.377167</ele>
        <time>2010-09-14T17:27:16.573Z</time>
      </trkpt>
      <trkpt lat="45.21948" lon="1.15657">
        <ele>292.377106</ele>
        <time>2010-09-14T17:27:20.471Z</time>
      </trkpt>
      <trkpt lat="45.21963" lon="1.15638">
        <ele>292.377075</ele>
        <time>2010-09-14T17:27:24.236Z</time>
      </trkpt>
      <trkpt lat="45.21978" lon="1.15616">
        <ele>293.377014</ele>
        <time>2010-09-14T17:27:28.024Z</time>
      </trkpt>
      <trkpt lat="45.21993" lon="1.15593">
        <ele>293.376953</ele>
        <time>2010-09-14T17:27:31.760Z</time>
      </trkpt>
      <trkpt lat="45.22008" lon="1.15574">
        <ele>293.376892</ele>
        <time>2010-09-14T17:27:35.501Z</time>
      </trkpt>
      <trkpt lat="45.22022" lon="1.15553">
        <ele>293.376862</ele>
        <time>2010-09-14T17:27:39.288Z</time>
      </trkpt>
      <trkpt lat="45.22036" lon="1.15536">
        <ele>293.376831</ele>
        <time>2010-09-14T17:27:43.046Z</time>
      </trkpt>
      <trkpt lat="45.22051" lon="1.15517">
        <ele>293.37677</ele>
        <time>2010-09-14T17:27:48.290Z</time>
      </trkpt>
      <trkpt lat="45.22065" lon="1.15493">
        <ele>294.376709</ele>
        <time>2010-09-14T17:27:52.044Z</time>
      </trkpt>
      <trkpt lat="45.22075" lon="1.15467">
        <ele>294.376648</ele>
        <time>2010-09-14T17:27:55.714Z</time>
      </trkpt>
      <trkpt lat="45.22087" lon="1.15441">
        <ele>295.376587</ele>
        <time>2010-09-14T17:27:59.399Z</time>
      </trkpt>
      <trkpt lat="45.22098" lon="1.15416">
        <ele>295.376526</ele>
        <time>2010-09-14T17:28:03.087Z</time>
      </trkpt>
      <trkpt lat="45.2211" lon="1.15395">
        <ele>295.376465</ele>
        <time>2010-09-14T17:28:06.020Z</time>
      </trkpt>
      <trkpt lat="45.22123" lon="1.15376">
        <ele>295.376404</ele>
        <time>2010-09-14T17:28:08.958Z</time>
      </trkpt>
      <trkpt lat="45.22135" lon="1.15358">
        <ele>296.376373</ele>
        <time>2010-09-14T17:28:11.915Z</time>
      </trkpt>
      <trkpt lat="45.22148" lon="1.15336">
        <ele>296.376312</ele>
        <time>2010-09-14T17:28:14.916Z</time>
      </trkpt>
      <trkpt lat="45.22162" lon="1.15313">
        <ele>291.376251</ele>
        <time>2010-09-14T17:28:18.685Z</time>
      </trkpt>
      <trkpt lat="45.22177" lon="1.15295">
        <ele>286.376221</ele>
        <time>2010-09-14T17:28:21.669Z</time>
      </trkpt>
      <trkpt lat="45.22197" lon="1.15277">
        <ele>281.37616</ele>
        <time>2010-09-14T17:28:24.641Z</time>
      </trkpt>
      <trkpt lat="45.22215" lon="1.15264">
        <ele>278.376129</ele>
        <time>2010-09-14T17:28:26.844Z</time>
      </trkpt>
      <trkpt lat="45.22235" lon="1.15258">
        <ele>274.376099</ele>
        <time>2010-09-14T17:28:29.103Z</time>
      </trkpt>
      <trkpt lat="45.22258" lon="1.15261">
        <ele>271.376099</ele>
        <time>2010-09-14T17:28:31.394Z</time>
      </trkpt>
      <trkpt lat="45.22282" lon="1.15268">
        <ele>267.376129</ele>
        <time>2010-09-14T17:28:33.721Z</time>
      </trkpt>
      <trkpt lat="45.22306" lon="1.15277">
        <ele>264.37616</ele>
        <time>2010-09-14T17:28:36.046Z</time>
      </trkpt>
      <trkpt lat="45.2233" lon="1.15283">
        <ele>261.37616</ele>
        <time>2010-09-14T17:28:38.405Z</time>
      </trkpt>
      <trkpt lat="45.22356" lon="1.15277">
        <ele>259.37616</ele>
        <time>2010-09-14T17:28:40.743Z</time>
      </trkpt>
      <trkpt lat="45.2238" lon="1.15265">
        <ele>258.376129</ele>
        <time>2010-09-14T17:28:43.028Z</time>
      </trkpt>
      <trkpt lat="45.22403" lon="1.15251">
        <ele>256.376099</ele>
        <time>2010-09-14T17:28:45.335Z</time>
      </trkpt>
      <trkpt lat="45.22426" lon="1.15239">
        <ele>255.376053</ele>
        <time>2010-09-14T17:28:47.641Z</time>
      </trkpt>
      <trkpt lat="45.22451" lon="1.15238">
        <ele>255.376053</ele>
        <time>2010-09-14T17:28:49.968Z</time>
      </trkpt>
      <trkpt lat="45.22476" lon="1.15245">
        <ele>254.376068</ele>
        <time>2010-09-14T17:28:52.321Z</time>
      </trkpt>
      <trkpt lat="45.22499" lon="1.15254">
        <ele>252.376099</ele>
        <time>2010-09-14T17:28:54.594Z</time>
      </trkpt>
      <trkpt lat="45.22524" lon="1.15261">
        <ele>251.376099</ele>
        <time>2010-09-14T17:28:56.954Z</time>
      </trkpt>
      <trkpt lat="45.22548" lon="1.15261">
        <ele>250.376099</ele>
        <time>2010-09-14T17:28:59.290Z</time>
      </trkpt>
      <trkpt lat="45.2257" lon="1.15259">
        <ele>249.376099</ele>
        <time>2010-09-14T17:29:01.579Z</time>
      </trkpt>
      <trkpt lat="45.22592" lon="1.15267">
        <ele>248.376114</ele>
        <time>2010-09-14T17:29:03.861Z</time>
      </trkpt>
      <trkpt lat="45.2261" lon="1.15282">
        <ele>246.37616</ele>
        <time>2010-09-14T17:29:06.141Z</time>
      </trkpt>
      <trkpt lat="45.22629" lon="1.15295">
        <ele>245.37619</ele>
        <time>2010-09-14T17:29:08.469Z</time>
      </trkpt>
      <trkpt lat="45.2265" lon="1.15285">
        <ele>243.37616</ele>
        <time>2010-09-14T17:29:11.497Z</time>
      </trkpt>
      <trkpt lat="45.22664" lon="1.15257">
        <ele>242.376099</ele>
        <time>2010-09-14T17:29:14.532Z</time>
      </trkpt>
      <trkpt lat="45.22683" lon="1.15244">
        <ele>240.376053</ele>
        <time>2010-09-14T17:29:17.605Z</time>
      </trkpt>
      <trkpt lat="45.22705" lon="1.15246">
        <ele>239.376068</ele>
        <time>2010-09-14T17:29:20.850Z</time>
      </trkpt>
      <trkpt lat="45.22729" lon="1.15251">
        <ele>238.376068</ele>
        <time>2010-09-14T17:29:24.104Z</time>
      </trkpt>
      <trkpt lat="45.22749" lon="1.15271">
        <ele>237.376114</ele>
        <time>2010-09-14T17:29:27.239Z</time>
      </trkpt>
      <trkpt lat="45.22761" lon="1.15298">
        <ele>236.37619</ele>
        <time>2010-09-14T17:29:29.457Z</time>
      </trkpt>
      <trkpt lat="45.22769" lon="1.15329">
        <ele>235.376266</ele>
        <time>2010-09-14T17:29:31.685Z</time>
      </trkpt>
      <trkpt lat="45.22777" lon="1.15358">
        <ele>235.376343</ele>
        <time>2010-09-14T17:29:33.892Z</time>
      </trkpt>
      <trkpt lat="45.22788" lon="1.15385">
        <ele>234.376404</ele>
        <time>2010-09-14T17:29:36.150Z</time>
      </trkpt>
      <trkpt lat="45.228" lon="1.15412">
        <ele>233.376465</ele>
        <time>2010-09-14T17:29:38.467Z</time>
      </trkpt>
      <trkpt lat="45.22804" lon="1.15441">
        <ele>232.376541</ele>
        <time>2010-09-14T17:29:41.464Z</time>
      </trkpt>
      <trkpt lat="45.22821" lon="1.15458">
        <ele>231.376587</ele>
        <time>2010-09-14T17:29:46.834Z</time>
      </trkpt>
      <trkpt lat="45.22842" lon="1.15461">
        <ele>230.376587</ele>
        <time>2010-09-14T17:29:49.976Z</time>
      </trkpt>
      <trkpt lat="45.22864" lon="1.15465">
        <ele>230.376587</ele>
        <time>2010-09-14T17:29:53.032Z</time>
      </trkpt>
      <trkpt lat="45.22883" lon="1.15474">
        <ele>229.376617</ele>
        <time>2010-09-14T17:29:56.730Z</time>
      </trkpt>
      <trkpt lat="45.22901" lon="1.15485">
        <ele>229.376648</ele>
        <time>2010-09-14T17:30:00.478Z</time>
      </trkpt>
      <trkpt lat="45.22921" lon="1.15497">
        <ele>227.376678</ele>
        <time>2010-09-14T17:30:04.195Z</time>
      </trkpt>
      <trkpt lat="45.22941" lon="1.15502">
        <ele>226.376678</ele>
        <time>2010-09-14T17:30:07.276Z</time>
      </trkpt>
      <trkpt lat="45.22962" lon="1.15495">
        <ele>224.376678</ele>
        <time>2010-09-14T17:30:10.388Z</time>
      </trkpt>
      <trkpt lat="45.22983" lon="1.15481">
        <ele>221.376633</ele>
        <time>2010-09-14T17:30:13.480Z</time>
      </trkpt>
      <trkpt lat="45.22999" lon="1.15467">
        <ele>219.376587</ele>
        <time>2010-09-14T17:30:16.566Z</time>
      </trkpt>
      <trkpt lat="45.23016" lon="1.15458">
        <ele>218.376572</ele>
        <time>2010-09-14T17:30:20.440Z</time>
      </trkpt>
      <trkpt lat="45.23035" lon="1.15463">
        <ele>214.376587</ele>
        <time>2010-09-14T17:30:25.871Z</time>
      </trkpt>
      <trkpt lat="45.23052" lon="1.15473">
        <ele>209.376617</ele>
        <time>2010-09-14T17:30:32.721Z</time>
      </trkpt>
      <trkpt lat="45.23069" lon="1.15486">
        <ele>205.376648</ele>
        <time>2010-09-14T17:30:41.157Z</time>
      </trkpt>
      <trkpt lat="45.23087" lon="1.15485">
        <ele>204.376648</ele>
        <time>2010-09-14T17:30:59.353Z</time>
      </trkpt>
      <trkpt lat="45.23104" lon="1.15474">
        <ele>210.376617</ele>
        <time>2010-09-14T17:31:16.108Z</time>
      </trkpt>
      <trkpt lat="45.23123" lon="1.15465">
        <ele>216.376587</ele>
        <time>2010-09-14T17:31:30.620Z</time>
      </trkpt>
      <trkpt lat="45.23133" lon="1.15444">
        <ele>215.376526</ele>
        <time>2010-09-14T17:31:43.266Z</time>
      </trkpt>
      <trkpt lat="45.23147" lon="1.15428">
        <ele>216.376495</ele>
        <time>2010-09-14T17:32:03.370Z</time>
      </trkpt>
      <trkpt lat="45.23165" lon="1.15434">
        <ele>220.376511</ele>
        <time>2010-09-14T17:32:18.159Z</time>
      </trkpt>
      <trkpt lat="45.23183" lon="1.15442">
        <ele>222.376526</ele>
        <time>2010-09-14T17:32:35.761Z</time>
      </trkpt>
      <trkpt lat="45.23201" lon="1.15448">
        <ele>226.376541</ele>
        <time>2010-09-14T17:32:53.504Z</time>
      </trkpt>
      <trkpt lat="45.23219" lon="1.15444">
        <ele>228.376526</ele>
        <time>2010-09-14T17:33:09.338Z</time>
      </trkpt>
      <trkpt lat="45.23233" lon="1.15428">
        <ele>231.376495</ele>
        <time>2010-09-14T17:33:22.936Z</time>
      </trkpt>
      <trkpt lat="45.23246" lon="1.15409">
        <ele>233.376434</ele>
        <time>2010-09-14T17:33:38.084Z</time>
      </trkpt>
      <trkpt lat="45.2326" lon="1.1539">
        <ele>235.376404</ele>
        <time>2010-09-14T17:33:52.371Z</time>
      </trkpt>
      <trkpt lat="45.23276" lon="1.15376">
        <ele>236.376358</ele>
        <time>2010-09-14T17:34:05.984Z</time>
      </trkpt>
      <trkpt lat="45.23294" lon="1.15368">
        <ele>239.376328</ele>
        <time>2010-09-14T17:34:19.179Z</time>
      </trkpt>
      <trkpt lat="45.23312" lon="1.15372">
        <ele>241.376343</ele>
        <time>2010-09-14T17:34:33.124Z</time>
      </trkpt>
      <trkpt lat="45.23326" lon="1.15387">
        <ele>242.376389</ele>
        <time>2010-09-14T17:34:47.266Z</time>
      </trkpt>
      <trkpt lat="45.23333" lon="1.15411">
        <ele>246.376434</ele>
        <time>2010-09-14T17:35:00.307Z</time>
      </trkpt>
      <trkpt lat="45.23338" lon="1.15437">
        <ele>248.376511</ele>
        <time>2010-09-14T17:35:13.357Z</time>
      </trkpt>
      <trkpt lat="45.23346" lon="1.15461">
        <ele>250.376572</ele>
        <time>2010-09-14T17:35:25.112Z</time>
      </trkpt>
      <trkpt lat="45.23358" lon="1.1548">
        <ele>252.376617</ele>
        <time>2010-09-14T17:35:36.561Z</time>
      </trkpt>
      <trkpt lat="45.23374" lon="1.15495">
        <ele>255.376648</ele>
        <time>2010-09-14T17:35:51.313Z</time>
      </trkpt>
      <trkpt lat="45.23386" lon="1.15515">
        <ele>257.376709</ele>
        <time>2010-09-14T17:36:02.878Z</time>
      </trkpt>
      <trkpt lat="45.23397" lon="1.15536">
        <ele>259.37677</ele>
        <time>2010-09-14T17:36:12.095Z</time>
      </trkpt>
      <trkpt lat="45.23409" lon="1.15556">
        <ele>259.376801</ele>
        <time>2010-09-14T17:36:19.673Z</time>
      </trkpt>
      <trkpt lat="45.2342" lon="1.15578">
        <ele>260.376862</ele>
        <time>2010-09-14T17:36:27.192Z</time>
      </trkpt>
      <trkpt lat="45.2343" lon="1.15604">
        <ele>262.376923</ele>
        <time>2010-09-14T17:36:34.810Z</time>
      </trkpt>
      <trkpt lat="45.23434" lon="1.15632">
        <ele>262.376984</ele>
        <time>2010-09-14T17:36:41.131Z</time>
      </trkpt>
      <trkpt lat="45.23436" lon="1.1566">
        <ele>263.377075</ele>
        <time>2010-09-14T17:36:46.612Z</time>
      </trkpt>
      <trkpt lat="45.23436" lon="1.1569">
        <ele>264.377136</ele>
        <time>2010-09-14T17:36:52.097Z</time>
      </trkpt>
      <trkpt lat="45.2344" lon="1.15716">
        <ele>265.377197</ele>
        <time>2010-09-14T17:36:56.811Z</time>
      </trkpt>
      <trkpt lat="45.23446" lon="1.15741">
        <ele>265.377258</ele>
        <time>2010-09-14T17:37:01.477Z</time>
      </trkpt>
      <trkpt lat="45.23455" lon="1.15765">
        <ele>265.377319</ele>
        <time>2010-09-14T17:37:06.098Z</time>
      </trkpt>
      <trkpt lat="45.23464" lon="1.15788">
        <ele>266.37738</ele>
        <time>2010-09-14T17:37:10.696Z</time>
      </trkpt>
      <trkpt lat="45.23475" lon="1.15811">
        <ele>266.377441</ele>
        <time>2010-09-14T17:37:15.300Z</time>
      </trkpt>
      <trkpt lat="45.23488" lon="1.15831">
        <ele>267.377502</ele>
        <time>2010-09-14T17:37:21.478Z</time>
      </trkpt>
      <trkpt lat="45.23509" lon="1.15827">
        <ele>267.377472</ele>
        <time>2010-09-14T17:37:26.927Z</time>
      </trkpt>
      <trkpt lat="45.23529" lon="1.15822">
        <ele>267.377472</ele>
        <time>2010-09-14T17:37:30.702Z</time>
      </trkpt>
      <trkpt lat="45.23551" lon="1.15816">
        <ele>267.377441</ele>
        <time>2010-09-14T17:37:34.497Z</time>
      </trkpt>
      <trkpt lat="45.23571" lon="1.15807">
        <ele>268.377411</ele>
        <time>2010-09-14T17:37:37.619Z</time>
      </trkpt>
      <trkpt lat="45.23591" lon="1.15796">
        <ele>268.37738</ele>
        <time>2010-09-14T17:37:40.756Z</time>
      </trkpt>
      <trkpt lat="45.23612" lon="1.15782">
        <ele>268.37735</ele>
        <time>2010-09-14T17:37:43.853Z</time>
      </trkpt>
      <trkpt lat="45.23632" lon="1.15765">
        <ele>268.377319</ele>
        <time>2010-09-14T17:37:46.936Z</time>
      </trkpt>
      <trkpt lat="45.23651" lon="1.15746">
        <ele>267.377258</ele>
        <time>2010-09-14T17:37:49.992Z</time>
      </trkpt>
      <trkpt lat="45.2367" lon="1.15726">
        <ele>267.377197</ele>
        <time>2010-09-14T17:37:53.142Z</time>
      </trkpt>
      <trkpt lat="45.23688" lon="1.15706">
        <ele>267.377167</ele>
        <time>2010-09-14T17:37:56.229Z</time>
      </trkpt>
      <trkpt lat="45.23706" lon="1.15687">
        <ele>267.377106</ele>
        <time>2010-09-14T17:37:59.321Z</time>
      </trkpt>
      <trkpt lat="45.23724" lon="1.15666">
        <ele>266.377075</ele>
        <time>2010-09-14T17:38:02.359Z</time>
      </trkpt>
      <trkpt lat="45.23742" lon="1.15646">
        <ele>266.377014</ele>
        <time>2010-09-14T17:38:05.381Z</time>
      </trkpt>
      <trkpt lat="45.23756" lon="1.1563">
        <ele>265.376984</ele>
        <time>2010-09-14T17:38:07.709Z</time>
      </trkpt>
      <trkpt lat="45.2377" lon="1.15614">
        <ele>265.376923</ele>
        <time>2010-09-14T17:38:09.993Z</time>
      </trkpt>
      <trkpt lat="45.23788" lon="1.15594">
        <ele>264.376892</ele>
        <time>2010-09-14T17:38:13.019Z</time>
      </trkpt>
      <trkpt lat="45.23809" lon="1.15577">
        <ele>263.376831</ele>
        <time>2010-09-14T17:38:16.159Z</time>
      </trkpt>
      <trkpt lat="45.23827" lon="1.1556">
        <ele>262.376801</ele>
        <time>2010-09-14T17:38:19.270Z</time>
      </trkpt>
      <trkpt lat="45.23833" lon="1.15535">
        <ele>262.37674</ele>
        <time>2010-09-14T17:38:22.442Z</time>
      </trkpt>
      <trkpt lat="45.23838" lon="1.15508">
        <ele>261.376648</ele>
        <time>2010-09-14T17:38:26.452Z</time>
      </trkpt>
      <trkpt lat="45.23842" lon="1.15483">
        <ele>260.376587</ele>
        <time>2010-09-14T17:38:32.586Z</time>
      </trkpt>
      <trkpt lat="45.23852" lon="1.1546">
        <ele>260.376526</ele>
        <time>2010-09-14T17:38:40.453Z</time>
      </trkpt>
      <trkpt lat="45.23868" lon="1.15445">
        <ele>259.376495</ele>
        <time>2010-09-14T17:38:46.670Z</time>
      </trkpt>
      <trkpt lat="45.23884" lon="1.1543">
        <ele>260.376465</ele>
        <time>2010-09-14T17:38:53.602Z</time>
      </trkpt>
      <trkpt lat="45.239" lon="1.15418">
        <ele>260.376434</ele>
        <time>2010-09-14T17:39:01.806Z</time>
      </trkpt>
      <trkpt lat="45.23918" lon="1.15406">
        <ele>264.376404</ele>
        <time>2010-09-14T17:39:17.611Z</time>
      </trkpt>
      <trkpt lat="45.23935" lon="1.15399">
        <ele>267.376404</ele>
        <time>2010-09-14T17:39:30.780Z</time>
      </trkpt>
      <trkpt lat="45.23954" lon="1.15398">
        <ele>270.376373</ele>
        <time>2010-09-14T17:39:44.066Z</time>
      </trkpt>
      <trkpt lat="45.23972" lon="1.15398">
        <ele>272.376373</ele>
        <time>2010-09-14T17:39:59.615Z</time>
      </trkpt>
      <trkpt lat="45.23986" lon="1.15381">
        <ele>276.376343</ele>
        <time>2010-09-14T17:40:16.425Z</time>
      </trkpt>
      <trkpt lat="45.23999" lon="1.1536">
        <ele>279.376282</ele>
        <time>2010-09-14T17:40:27.654Z</time>
      </trkpt>
      <trkpt lat="45.24017" lon="1.15353">
        <ele>281.376282</ele>
        <time>2010-09-14T17:40:32.982Z</time>
      </trkpt>
      <trkpt lat="45.24013" lon="1.15326">
        <ele>283.37619</ele>
        <time>2010-09-14T17:40:37.519Z</time>
      </trkpt>
      <trkpt lat="45.24003" lon="1.15299">
        <ele>283.376129</ele>
        <time>2010-09-14T17:40:41.380Z</time>
      </trkpt>
      <trkpt lat="45.23998" lon="1.15269">
        <ele>283.376068</ele>
        <time>2010-09-14T17:40:45.976Z</time>
      </trkpt>
      <trkpt lat="45.23994" lon="1.15238">
        <ele>282.375977</ele>
        <time>2010-09-14T17:40:48.993Z</time>
      </trkpt>
      <trkpt lat="45.23985" lon="1.15213">
        <ele>282.375916</ele>
        <time>2010-09-14T17:40:52.011Z</time>
      </trkpt>
      <trkpt lat="45.23972" lon="1.15192">
        <ele>280.375854</ele>
        <time>2010-09-14T17:40:54.987Z</time>
      </trkpt>
      <trkpt lat="45.2396" lon="1.15169">
        <ele>277.375793</ele>
        <time>2010-09-14T17:40:58.002Z</time>
      </trkpt>
      <trkpt lat="45.2395" lon="1.1514">
        <ele>275.375732</ele>
        <time>2010-09-14T17:41:01.023Z</time>
      </trkpt>
      <trkpt lat="45.23943" lon="1.15109">
        <ele>273.375671</ele>
        <time>2010-09-14T17:41:03.278Z</time>
      </trkpt>
      <trkpt lat="45.23938" lon="1.1508">
        <ele>270.37558</ele>
        <time>2010-09-14T17:41:05.544Z</time>
      </trkpt>
      <trkpt lat="45.23932" lon="1.15052">
        <ele>267.375519</ele>
        <time>2010-09-14T17:41:08.653Z</time>
      </trkpt>
      <trkpt lat="45.23932" lon="1.15025">
        <ele>261.375458</ele>
        <time>2010-09-14T17:41:14.125Z</time>
      </trkpt>
      <trkpt lat="45.23934" lon="1.14995">
        <ele>258.375366</ele>
        <time>2010-09-14T17:41:17.931Z</time>
      </trkpt>
      <trkpt lat="45.23935" lon="1.14969">
        <ele>256.375305</ele>
        <time>2010-09-14T17:41:21.119Z</time>
      </trkpt>
      <trkpt lat="45.23942" lon="1.14943">
        <ele>254.375244</ele>
        <time>2010-09-14T17:41:24.269Z</time>
      </trkpt>
      <trkpt lat="45.23959" lon="1.14933">
        <ele>251.375214</ele>
        <time>2010-09-14T17:41:28.180Z</time>
      </trkpt>
      <trkpt lat="45.23978" lon="1.14941">
        <ele>249.375244</ele>
        <time>2010-09-14T17:41:33.715Z</time>
      </trkpt>
      <trkpt lat="45.23997" lon="1.14955">
        <ele>248.375275</ele>
        <time>2010-09-14T17:41:38.649Z</time>
      </trkpt>
      <trkpt lat="45.24013" lon="1.14967">
        <ele>247.375305</ele>
        <time>2010-09-14T17:41:41.838Z</time>
      </trkpt>
      <trkpt lat="45.24032" lon="1.14985">
        <ele>247.375351</ele>
        <time>2010-09-14T17:41:44.992Z</time>
      </trkpt>
      <trkpt lat="45.24051" lon="1.15005">
        <ele>246.375397</ele>
        <time>2010-09-14T17:41:48.086Z</time>
      </trkpt>
      <trkpt lat="45.24069" lon="1.15027">
        <ele>245.375458</ele>
        <time>2010-09-14T17:41:51.262Z</time>
      </trkpt>
      <trkpt lat="45.24084" lon="1.1505">
        <ele>244.375504</ele>
        <time>2010-09-14T17:41:54.447Z</time>
      </trkpt>
      <trkpt lat="45.24096" lon="1.15076">
        <ele>244.37558</ele>
        <time>2010-09-14T17:41:57.628Z</time>
      </trkpt>
      <trkpt lat="45.24107" lon="1.151">
        <ele>243.375626</ele>
        <time>2010-09-14T17:42:00.802Z</time>
      </trkpt>
      <trkpt lat="45.24119" lon="1.15122">
        <ele>243.375687</ele>
        <time>2010-09-14T17:42:03.948Z</time>
      </trkpt>
      <trkpt lat="45.24134" lon="1.1514">
        <ele>243.375732</ele>
        <time>2010-09-14T17:42:07.111Z</time>
      </trkpt>
      <trkpt lat="45.24153" lon="1.15154">
        <ele>241.375763</ele>
        <time>2010-09-14T17:42:10.988Z</time>
      </trkpt>
      <trkpt lat="45.24171" lon="1.15142">
        <ele>240.375732</ele>
        <time>2010-09-14T17:42:15.001Z</time>
      </trkpt>
      <trkpt lat="45.24188" lon="1.15125">
        <ele>239.375687</ele>
        <time>2010-09-14T17:42:18.088Z</time>
      </trkpt>
      <trkpt lat="45.24206" lon="1.15103">
        <ele>237.375641</ele>
        <time>2010-09-14T17:42:21.171Z</time>
      </trkpt>
      <trkpt lat="45.24224" lon="1.15091">
        <ele>237.37561</ele>
        <time>2010-09-14T17:42:23.442Z</time>
      </trkpt>
      <trkpt lat="45.24242" lon="1.15082">
        <ele>236.37558</ele>
        <time>2010-09-14T17:42:25.745Z</time>
      </trkpt>
      <trkpt lat="45.2426" lon="1.15068">
        <ele>235.375549</ele>
        <time>2010-09-14T17:42:28.059Z</time>
      </trkpt>
      <trkpt lat="45.24279" lon="1.15052">
        <ele>235.375488</ele>
        <time>2010-09-14T17:42:30.323Z</time>
      </trkpt>
      <trkpt lat="45.24296" lon="1.15039">
        <ele>234.375458</ele>
        <time>2010-09-14T17:42:32.560Z</time>
      </trkpt>
      <trkpt lat="45.24312" lon="1.15026">
        <ele>233.375427</ele>
        <time>2010-09-14T17:42:36.321Z</time>
      </trkpt>
      <trkpt lat="45.24326" lon="1.15005">
        <ele>232.375381</ele>
        <time>2010-09-14T17:42:45.425Z</time>
      </trkpt>
      <trkpt lat="45.24341" lon="1.1499">
        <ele>232.375336</ele>
        <time>2010-09-14T17:42:49.241Z</time>
      </trkpt>
      <trkpt lat="45.24353" lon="1.14969">
        <ele>232.37529</ele>
        <time>2010-09-14T17:42:53.030Z</time>
      </trkpt>
      <trkpt lat="45.24372" lon="1.14954">
        <ele>231.375244</ele>
        <time>2010-09-14T17:42:57.515Z</time>
      </trkpt>
      <trkpt lat="45.2439" lon="1.14943">
        <ele>232.375214</ele>
        <time>2010-09-14T17:43:00.508Z</time>
      </trkpt>
      <trkpt lat="45.24407" lon="1.14932">
        <ele>231.375198</ele>
        <time>2010-09-14T17:43:02.738Z</time>
      </trkpt>
      <trkpt lat="45.24426" lon="1.14914">
        <ele>230.375153</ele>
        <time>2010-09-14T17:43:05.690Z</time>
      </trkpt>
      <trkpt lat="45.24435" lon="1.14891">
        <ele>229.375092</ele>
        <time>2010-09-14T17:43:08.707Z</time>
      </trkpt>
      <trkpt lat="45.24441" lon="1.14862">
        <ele>227.375015</ele>
        <time>2010-09-14T17:43:12.537Z</time>
      </trkpt>
      <trkpt lat="45.24453" lon="1.14835">
        <ele>226.374939</ele>
        <time>2010-09-14T17:43:16.406Z</time>
      </trkpt>
      <trkpt lat="45.24466" lon="1.14815">
        <ele>224.374893</ele>
        <time>2010-09-14T17:43:20.177Z</time>
      </trkpt>
      <trkpt lat="45.24481" lon="1.14795">
        <ele>222.374847</ele>
        <time>2010-09-14T17:43:23.989Z</time>
      </trkpt>
      <trkpt lat="45.24495" lon="1.14775">
        <ele>221.374786</ele>
        <time>2010-09-14T17:43:27.673Z</time>
      </trkpt>
      <trkpt lat="45.24509" lon="1.14755">
        <ele>219.374756</ele>
        <time>2010-09-14T17:43:31.333Z</time>
      </trkpt>
      <trkpt lat="45.24522" lon="1.14734">
        <ele>218.374695</ele>
        <time>2010-09-14T17:43:34.978Z</time>
      </trkpt>
      <trkpt lat="45.24534" lon="1.14709">
        <ele>217.374619</ele>
        <time>2010-09-14T17:43:39.550Z</time>
      </trkpt>
      <trkpt lat="45.24544" lon="1.14685">
        <ele>217.374573</ele>
        <time>2010-09-14T17:43:44.098Z</time>
      </trkpt>
      <trkpt lat="45.24553" lon="1.14661">
        <ele>216.374496</ele>
        <time>2010-09-14T17:43:48.630Z</time>
      </trkpt>
      <trkpt lat="45.24565" lon="1.14634">
        <ele>216.374435</ele>
        <time>2010-09-14T17:43:53.124Z</time>
      </trkpt>
      <trkpt lat="45.24575" lon="1.14608">
        <ele>216.374374</ele>
        <time>2010-09-14T17:43:56.914Z</time>
      </trkpt>
      <trkpt lat="45.24586" lon="1.1458">
        <ele>215.374298</ele>
        <time>2010-09-14T17:44:00.751Z</time>
      </trkpt>
      <trkpt lat="45.24596" lon="1.14558">
        <ele>216.374237</ele>
        <time>2010-09-14T17:44:03.822Z</time>
      </trkpt>
      <trkpt lat="45.24606" lon="1.14537">
        <ele>216.374191</ele>
        <time>2010-09-14T17:44:06.891Z</time>
      </trkpt>
      <trkpt lat="45.2462" lon="1.14513">
        <ele>216.37413</ele>
        <time>2010-09-14T17:44:10.746Z</time>
      </trkpt>
      <trkpt lat="45.24633" lon="1.14489">
        <ele>216.374069</ele>
        <time>2010-09-14T17:44:14.550Z</time>
      </trkpt>
      <trkpt lat="45.24643" lon="1.14468">
        <ele>216.374008</ele>
        <time>2010-09-14T17:44:17.568Z</time>
      </trkpt>
      <trkpt lat="45.24655" lon="1.14442">
        <ele>216.373947</ele>
        <time>2010-09-14T17:44:21.380Z</time>
      </trkpt>
      <trkpt lat="45.24668" lon="1.14416">
        <ele>215.373886</ele>
        <time>2010-09-14T17:44:25.217Z</time>
      </trkpt>
      <trkpt lat="45.24679" lon="1.14391">
        <ele>214.37381</ele>
        <time>2010-09-14T17:44:29.015Z</time>
      </trkpt>
      <trkpt lat="45.24692" lon="1.14369">
        <ele>214.373764</ele>
        <time>2010-09-14T17:44:32.790Z</time>
      </trkpt>
      <trkpt lat="45.24707" lon="1.14349">
        <ele>213.373703</ele>
        <time>2010-09-14T17:44:36.606Z</time>
      </trkpt>
      <trkpt lat="45.24719" lon="1.14322">
        <ele>213.373642</ele>
        <time>2010-09-14T17:44:40.433Z</time>
      </trkpt>
      <trkpt lat="45.24729" lon="1.14299">
        <ele>214.373581</ele>
        <time>2010-09-14T17:44:43.546Z</time>
      </trkpt>
      <trkpt lat="45.24741" lon="1.14276">
        <ele>215.37352</ele>
        <time>2010-09-14T17:44:46.678Z</time>
      </trkpt>
      <trkpt lat="45.24756" lon="1.14259">
        <ele>214.373474</ele>
        <time>2010-09-14T17:44:49.760Z</time>
      </trkpt>
      <trkpt lat="45.2477" lon="1.14242">
        <ele>215.373428</ele>
        <time>2010-09-14T17:44:52.862Z</time>
      </trkpt>
      <trkpt lat="45.24786" lon="1.14227">
        <ele>215.373398</ele>
        <time>2010-09-14T17:44:55.932Z</time>
      </trkpt>
      <trkpt lat="45.24803" lon="1.14215">
        <ele>214.373367</ele>
        <time>2010-09-14T17:44:58.979Z</time>
      </trkpt>
      <trkpt lat="45.24823" lon="1.142">
        <ele>214.373322</ele>
        <time>2010-09-14T17:45:02.018Z</time>
      </trkpt>
      <trkpt lat="45.2484" lon="1.14189">
        <ele>213.373291</ele>
        <time>2010-09-14T17:45:04.323Z</time>
      </trkpt>
      <trkpt lat="45.24862" lon="1.14175">
        <ele>212.37326</ele>
        <time>2010-09-14T17:45:07.356Z</time>
      </trkpt>
      <trkpt lat="45.24879" lon="1.14164">
        <ele>210.37323</ele>
        <time>2010-09-14T17:45:09.637Z</time>
      </trkpt>
      <trkpt lat="45.24899" lon="1.1415">
        <ele>210.373199</ele>
        <time>2010-09-14T17:45:12.742Z</time>
      </trkpt>
      <trkpt lat="45.24919" lon="1.14131">
        <ele>210.373138</ele>
        <time>2010-09-14T17:45:15.849Z</time>
      </trkpt>
      <trkpt lat="45.24933" lon="1.14115">
        <ele>209.373108</ele>
        <time>2010-09-14T17:45:18.177Z</time>
      </trkpt>
      <trkpt lat="45.24948" lon="1.14098">
        <ele>208.373062</ele>
        <time>2010-09-14T17:45:20.516Z</time>
      </trkpt>
      <trkpt lat="45.24966" lon="1.14089">
        <ele>207.373047</ele>
        <time>2010-09-14T17:45:22.860Z</time>
      </trkpt>
      <trkpt lat="45.24986" lon="1.14071">
        <ele>206.372986</ele>
        <time>2010-09-14T17:45:25.808Z</time>
      </trkpt>
      <trkpt lat="45.25004" lon="1.14055">
        <ele>206.372955</ele>
        <time>2010-09-14T17:45:28.753Z</time>
      </trkpt>
      <trkpt lat="45.25024" lon="1.14047">
        <ele>206.372925</ele>
        <time>2010-09-14T17:45:31.721Z</time>
      </trkpt>
      <trkpt lat="45.25042" lon="1.14038">
        <ele>205.37291</ele>
        <time>2010-09-14T17:45:34.682Z</time>
      </trkpt>
      <trkpt lat="45.25061" lon="1.14024">
        <ele>204.372864</ele>
        <time>2010-09-14T17:45:38.396Z</time>
      </trkpt>
      <trkpt lat="45.25079" lon="1.14005">
        <ele>203.372818</ele>
        <time>2010-09-14T17:45:42.153Z</time>
      </trkpt>
      <trkpt lat="45.25093" lon="1.1398">
        <ele>203.372757</ele>
        <time>2010-09-14T17:45:45.181Z</time>
      </trkpt>
      <trkpt lat="45.25107" lon="1.13957">
        <ele>202.372711</ele>
        <time>2010-09-14T17:45:48.203Z</time>
      </trkpt>
      <trkpt lat="45.25124" lon="1.13942">
        <ele>201.37265</ele>
        <time>2010-09-14T17:45:52.735Z</time>
      </trkpt>
      <trkpt lat="45.25114" lon="1.13919">
        <ele>193.372604</ele>
        <time>2010-09-14T17:46:04.230Z</time>
      </trkpt>
      <trkpt lat="45.25098" lon="1.13903">
        <ele>190.372559</ele>
        <time>2010-09-14T17:46:09.535Z</time>
      </trkpt>
      <trkpt lat="45.25081" lon="1.1389">
        <ele>190.372528</ele>
        <time>2010-09-14T17:46:14.154Z</time>
      </trkpt>
      <trkpt lat="45.25061" lon="1.13879">
        <ele>191.372498</ele>
        <time>2010-09-14T17:46:18.017Z</time>
      </trkpt>
      <trkpt lat="45.25043" lon="1.13872">
        <ele>191.372498</ele>
        <time>2010-09-14T17:46:21.105Z</time>
      </trkpt>
      <trkpt lat="45.25024" lon="1.13867">
        <ele>190.372467</ele>
        <time>2010-09-14T17:46:24.179Z</time>
      </trkpt>
      <trkpt lat="45.25003" lon="1.13862">
        <ele>190.372467</ele>
        <time>2010-09-14T17:46:27.269Z</time>
      </trkpt>
      <trkpt lat="45.24981" lon="1.13861">
        <ele>189.372467</ele>
        <time>2010-09-14T17:46:30.379Z</time>
      </trkpt>
      <trkpt lat="45.2496" lon="1.13858">
        <ele>187.372452</ele>
        <time>2010-09-14T17:46:33.441Z</time>
      </trkpt>
      <trkpt lat="45.2494" lon="1.13856">
        <ele>185.372452</ele>
        <time>2010-09-14T17:46:36.610Z</time>
      </trkpt>
      <trkpt lat="45.2492" lon="1.13854">
        <ele>184.372452</ele>
        <time>2010-09-14T17:46:39.812Z</time>
      </trkpt>
      <trkpt lat="45.24901" lon="1.13849">
        <ele>184.372437</ele>
        <time>2010-09-14T17:46:42.976Z</time>
      </trkpt>
      <trkpt lat="45.24882" lon="1.13844">
        <ele>184.372437</ele>
        <time>2010-09-14T17:46:46.129Z</time>
      </trkpt>
      <trkpt lat="45.24862" lon="1.1384">
        <ele>184.372421</ele>
        <time>2010-09-14T17:46:49.252Z</time>
      </trkpt>
      <trkpt lat="45.24843" lon="1.13835">
        <ele>184.372406</ele>
        <time>2010-09-14T17:46:52.317Z</time>
      </trkpt>
      <trkpt lat="45.24824" lon="1.13827">
        <ele>182.372391</ele>
        <time>2010-09-14T17:46:55.386Z</time>
      </trkpt>
      <trkpt lat="45.24805" lon="1.13815">
        <ele>182.37236</ele>
        <time>2010-09-14T17:46:58.424Z</time>
      </trkpt>
      <trkpt lat="45.24788" lon="1.138">
        <ele>182.37233</ele>
        <time>2010-09-14T17:47:01.465Z</time>
      </trkpt>
      <trkpt lat="45.24773" lon="1.13783">
        <ele>182.372284</ele>
        <time>2010-09-14T17:47:04.528Z</time>
      </trkpt>
      <trkpt lat="45.24768" lon="1.13757">
        <ele>182.372223</ele>
        <time>2010-09-14T17:47:07.616Z</time>
      </trkpt>
      <trkpt lat="45.24767" lon="1.13729">
        <ele>181.372147</ele>
        <time>2010-09-14T17:47:11.476Z</time>
      </trkpt>
      <trkpt lat="45.2476" lon="1.13705">
        <ele>180.372086</ele>
        <time>2010-09-14T17:47:15.343Z</time>
      </trkpt>
      <trkpt lat="45.24751" lon="1.1368">
        <ele>176.372025</ele>
        <time>2010-09-14T17:47:21.405Z</time>
      </trkpt>
      <trkpt lat="45.24745" lon="1.13656">
        <ele>175.371964</ele>
        <time>2010-09-14T17:47:28.292Z</time>
      </trkpt>
      <trkpt lat="45.24739" lon="1.13628">
        <ele>174.371887</ele>
        <time>2010-09-14T17:47:35.399Z</time>
      </trkpt>
      <trkpt lat="45.24733" lon="1.13604">
        <ele>174.371826</ele>
        <time>2010-09-14T17:47:42.471Z</time>
      </trkpt>
      <trkpt lat="45.24727" lon="1.13577">
        <ele>174.371765</ele>
        <time>2010-09-14T17:47:50.137Z</time>
      </trkpt>
      <trkpt lat="45.24723" lon="1.13551">
        <ele>173.371704</ele>
        <time>2010-09-14T17:47:57.766Z</time>
      </trkpt>
      <trkpt lat="45.24718" lon="1.13526">
        <ele>174.371643</ele>
        <time>2010-09-14T17:48:06.242Z</time>
      </trkpt>
      <trkpt lat="45.24713" lon="1.13501">
        <ele>175.371582</ele>
        <time>2010-09-14T17:48:14.108Z</time>
      </trkpt>
      <trkpt lat="45.2471" lon="1.13475">
        <ele>176.371506</ele>
        <time>2010-09-14T17:48:22.749Z</time>
      </trkpt>
      <trkpt lat="45.24706" lon="1.13449">
        <ele>178.371445</ele>
        <time>2010-09-14T17:48:31.231Z</time>
      </trkpt>
      <trkpt lat="45.24701" lon="1.13423">
        <ele>178.371384</ele>
        <time>2010-09-14T17:48:40.600Z</time>
      </trkpt>
      <trkpt lat="45.24699" lon="1.13398">
        <ele>180.371307</ele>
        <time>2010-09-14T17:48:50.027Z</time>
      </trkpt>
      <trkpt lat="45.24698" lon="1.1337">
        <ele>183.371246</ele>
        <time>2010-09-14T17:49:00.116Z</time>
      </trkpt>
      <trkpt lat="45.24697" lon="1.13344">
        <ele>185.371185</ele>
        <time>2010-09-14T17:49:09.404Z</time>
      </trkpt>
      <trkpt lat="45.24703" lon="1.1332">
        <ele>187.371124</ele>
        <time>2010-09-14T17:49:18.672Z</time>
      </trkpt>
      <trkpt lat="45.2471" lon="1.13295">
        <ele>188.371063</ele>
        <time>2010-09-14T17:49:27.812Z</time>
      </trkpt>
      <trkpt lat="45.24718" lon="1.13271">
        <ele>190.371002</ele>
        <time>2010-09-14T17:49:36.873Z</time>
      </trkpt>
      <trkpt lat="45.24729" lon="1.13248">
        <ele>192.370941</ele>
        <time>2010-09-14T17:49:47.055Z</time>
      </trkpt>
      <trkpt lat="45.24743" lon="1.13233">
        <ele>194.370895</ele>
        <time>2010-09-14T17:49:57.073Z</time>
      </trkpt>
      <trkpt lat="45.24746" lon="1.13208">
        <ele>195.370834</ele>
        <time>2010-09-14T17:50:08.367Z</time>
      </trkpt>
      <trkpt lat="45.24736" lon="1.13185">
        <ele>197.370789</ele>
        <time>2010-09-14T17:50:18.583Z</time>
      </trkpt>
      <trkpt lat="45.24728" lon="1.13162">
        <ele>198.370728</ele>
        <time>2010-09-14T17:50:27.708Z</time>
      </trkpt>
      <trkpt lat="45.24719" lon="1.13139">
        <ele>198.370667</ele>
        <time>2010-09-14T17:50:36.215Z</time>
      </trkpt>
      <trkpt lat="45.2471" lon="1.13115">
        <ele>200.370605</ele>
        <time>2010-09-14T17:50:44.865Z</time>
      </trkpt>
      <trkpt lat="45.24701" lon="1.13091">
        <ele>202.370544</ele>
        <time>2010-09-14T17:50:53.495Z</time>
      </trkpt>
      <trkpt lat="45.24692" lon="1.13069">
        <ele>203.370483</ele>
        <time>2010-09-14T17:51:01.978Z</time>
      </trkpt>
      <trkpt lat="45.24682" lon="1.13045">
        <ele>204.370422</ele>
        <time>2010-09-14T17:51:11.307Z</time>
      </trkpt>
      <trkpt lat="45.24698" lon="1.13057">
        <ele>208.370453</ele>
        <time>2010-09-14T17:51:29.696Z</time>
      </trkpt>
      <trkpt lat="45.24709" lon="1.13081">
        <ele>209.370514</ele>
        <time>2010-09-14T17:51:34.963Z</time>
      </trkpt>
      <trkpt lat="45.24723" lon="1.13097">
        <ele>210.37056</ele>
        <time>2010-09-14T17:51:39.525Z</time>
      </trkpt>
      <trkpt lat="45.24741" lon="1.13112">
        <ele>211.370605</ele>
        <time>2010-09-14T17:51:44.159Z</time>
      </trkpt>
      <trkpt lat="45.24761" lon="1.13124">
        <ele>211.370621</ele>
        <time>2010-09-14T17:51:48.755Z</time>
      </trkpt>
      <trkpt lat="45.2478" lon="1.13133">
        <ele>213.370636</ele>
        <time>2010-09-14T17:51:53.244Z</time>
      </trkpt>
      <trkpt lat="45.24801" lon="1.13141">
        <ele>213.370667</ele>
        <time>2010-09-14T17:51:57.783Z</time>
      </trkpt>
      <trkpt lat="45.2482" lon="1.13148">
        <ele>214.370682</ele>
        <time>2010-09-14T17:52:02.219Z</time>
      </trkpt>
      <trkpt lat="45.2484" lon="1.13154">
        <ele>216.370697</ele>
        <time>2010-09-14T17:52:06.717Z</time>
      </trkpt>
      <trkpt lat="45.24859" lon="1.13156">
        <ele>215.370697</ele>
        <time>2010-09-14T17:52:10.597Z</time>
      </trkpt>
      <trkpt lat="45.24878" lon="1.13153">
        <ele>215.370697</ele>
        <time>2010-09-14T17:52:14.489Z</time>
      </trkpt>
      <trkpt lat="45.24896" lon="1.13139">
        <ele>215.370651</ele>
        <time>2010-09-14T17:52:18.356Z</time>
      </trkpt>
      <trkpt lat="45.24912" lon="1.1312">
        <ele>216.370605</ele>
        <time>2010-09-14T17:52:22.210Z</time>
      </trkpt>
      <trkpt lat="45.24926" lon="1.13096">
        <ele>217.370544</ele>
        <time>2010-09-14T17:52:26.007Z</time>
      </trkpt>
      <trkpt lat="45.24934" lon="1.13066">
        <ele>218.370468</ele>
        <time>2010-09-14T17:52:29.767Z</time>
      </trkpt>
      <trkpt lat="45.24936" lon="1.13037">
        <ele>218.370392</ele>
        <time>2010-09-14T17:52:33.558Z</time>
      </trkpt>
      <trkpt lat="45.24937" lon="1.13008">
        <ele>218.370316</ele>
        <time>2010-09-14T17:52:37.498Z</time>
      </trkpt>
      <trkpt lat="45.2494" lon="1.1298">
        <ele>219.370239</ele>
        <time>2010-09-14T17:52:41.401Z</time>
      </trkpt>
      <trkpt lat="45.24944" lon="1.12953">
        <ele>218.370178</ele>
        <time>2010-09-14T17:52:45.253Z</time>
      </trkpt>
      <trkpt lat="45.2495" lon="1.12923">
        <ele>218.370102</ele>
        <time>2010-09-14T17:52:49.169Z</time>
      </trkpt>
      <trkpt lat="45.24956" lon="1.12894">
        <ele>218.370026</ele>
        <time>2010-09-14T17:52:53.095Z</time>
      </trkpt>
      <trkpt lat="45.24963" lon="1.12865">
        <ele>219.369965</ele>
        <time>2010-09-14T17:52:56.917Z</time>
      </trkpt>
      <trkpt lat="45.24972" lon="1.12837">
        <ele>220.369888</ele>
        <time>2010-09-14T17:53:00.730Z</time>
      </trkpt>
      <trkpt lat="45.2498" lon="1.1281">
        <ele>220.369812</ele>
        <time>2010-09-14T17:53:04.522Z</time>
      </trkpt>
      <trkpt lat="45.24988" lon="1.12783">
        <ele>220.369751</ele>
        <time>2010-09-14T17:53:08.392Z</time>
      </trkpt>
      <trkpt lat="45.24997" lon="1.12756">
        <ele>220.36969</ele>
        <time>2010-09-14T17:53:12.273Z</time>
      </trkpt>
      <trkpt lat="45.25004" lon="1.12728">
        <ele>220.369614</ele>
        <time>2010-09-14T17:53:16.267Z</time>
      </trkpt>
      <trkpt lat="45.25013" lon="1.12701">
        <ele>220.369537</ele>
        <time>2010-09-14T17:53:20.302Z</time>
      </trkpt>
      <trkpt lat="45.25022" lon="1.12673">
        <ele>220.369461</ele>
        <time>2010-09-14T17:53:24.313Z</time>
      </trkpt>
      <trkpt lat="45.25032" lon="1.12646">
        <ele>219.3694</ele>
        <time>2010-09-14T17:53:28.213Z</time>
      </trkpt>
      <trkpt lat="45.25044" lon="1.12622">
        <ele>219.369339</ele>
        <time>2010-09-14T17:53:31.989Z</time>
      </trkpt>
      <trkpt lat="45.25059" lon="1.12603">
        <ele>218.369293</ele>
        <time>2010-09-14T17:53:35.765Z</time>
      </trkpt>
      <trkpt lat="45.2506" lon="1.12578">
        <ele>217.369232</ele>
        <time>2010-09-14T17:53:41.842Z</time>
      </trkpt>
      <trkpt lat="45.25056" lon="1.12552">
        <ele>215.369156</ele>
        <time>2010-09-14T17:53:55.961Z</time>
      </trkpt>
      <trkpt lat="45.25042" lon="1.12533">
        <ele>215.36911</ele>
        <time>2010-09-14T17:54:06.854Z</time>
      </trkpt>
      <trkpt lat="45.25024" lon="1.12543">
        <ele>216.369141</ele>
        <time>2010-09-14T17:54:16.841Z</time>
      </trkpt>
      <trkpt lat="45.25009" lon="1.12561">
        <ele>217.369186</ele>
        <time>2010-09-14T17:54:23.661Z</time>
      </trkpt>
      <trkpt lat="45.24994" lon="1.12579">
        <ele>217.369232</ele>
        <time>2010-09-14T17:54:31.000Z</time>
      </trkpt>
      <trkpt lat="45.24979" lon="1.12594">
        <ele>218.369263</ele>
        <time>2010-09-14T17:54:37.709Z</time>
      </trkpt>
      <trkpt lat="45.24962" lon="1.12608">
        <ele>219.369308</ele>
        <time>2010-09-14T17:54:45.245Z</time>
      </trkpt>
      <trkpt lat="45.24948" lon="1.12624">
        <ele>220.369354</ele>
        <time>2010-09-14T17:54:54.246Z</time>
      </trkpt>
      <trkpt lat="45.2494" lon="1.12647">
        <ele>222.369415</ele>
        <time>2010-09-14T17:55:03.977Z</time>
      </trkpt>
      <trkpt lat="45.24936" lon="1.12673">
        <ele>222.369476</ele>
        <time>2010-09-14T17:55:14.661Z</time>
      </trkpt>
      <trkpt lat="45.24928" lon="1.12698">
        <ele>224.369537</ele>
        <time>2010-09-14T17:55:24.497Z</time>
      </trkpt>
      <trkpt lat="45.24912" lon="1.12709">
        <ele>226.369568</ele>
        <time>2010-09-14T17:55:34.302Z</time>
      </trkpt>
      <trkpt lat="45.24896" lon="1.12695">
        <ele>229.369537</ele>
        <time>2010-09-14T17:55:44.183Z</time>
      </trkpt>
      <trkpt lat="45.24884" lon="1.12674">
        <ele>230.369476</ele>
        <time>2010-09-14T17:55:52.018Z</time>
      </trkpt>
      <trkpt lat="45.24868" lon="1.1266">
        <ele>231.369446</ele>
        <time>2010-09-14T17:55:59.736Z</time>
      </trkpt>
    </trkseg>
  </trk>
</gpx>